<?xml version="1.0" encoding="UTF-8" standalone="no" ?>
<gpx xmlns="http://www.topografix.com/GPX/1/1" xmlns:xsi="http://www.w3.org/2001/XMLSchema-instance" xsi:schemaLocation="http://www.topografix.com/GPX/1/1 http://www.topografix.com/GPX/1/1/gpx.xsd" version="1.1" creator="VisuGPX - https://www.visugpx.com">
  <metadata>
    <name>Tête Pelouse le 19 mars 2017</name>
    <desc><![CDATA[Une virée sur neige de printemps en boucle depuis les Confins. Nous montons par Bella Cha après une session en sous bois ou la neige se fait déjà rare et un tronc couché nous obligera a déchausser. Un petit passage un peu exposé nous incitera à la prudence mais bien vite nous arrivons dans les magnifiques vallons de la combe. Le sommet sera atteind à pied en suivant le petit bout d'arrête neige et caillou verglacés. Pour la descente nous choisissons le combe du grand Crêt. La neige molle du dessus sera lourde en bas, il n'est pourtant guère plus de midi quand nous nous arrêtons pique niquer sur le gros rocher du bas.]]></desc>
  </metadata>
  <trk>
    <name><![CDATA[Tracé actuel: 19 MARS 2017 07:49]]></name>
    <trkseg>
      <trkpt lat="45.92316" lon="6.48365">
        <ele>1440.19</ele>
        <time>2017-03-19T06:53:56Z</time>
      </trkpt>
      <trkpt lat="45.92303" lon="6.48373">
        <ele>1440.67</ele>
        <time>2017-03-19T06:54:11Z</time>
      </trkpt>
      <trkpt lat="45.92295" lon="6.48378">
        <ele>1440.67</ele>
        <time>2017-03-19T06:54:20Z</time>
      </trkpt>
      <trkpt lat="45.92291" lon="6.48382">
        <ele>1440.67</ele>
        <time>2017-03-19T06:54:24Z</time>
      </trkpt>
      <trkpt lat="45.92279" lon="6.48379">
        <ele>1441.15</ele>
        <time>2017-03-19T06:54:36Z</time>
      </trkpt>
      <trkpt lat="45.92269" lon="6.4838">
        <ele>1441.63</ele>
        <time>2017-03-19T06:54:46Z</time>
      </trkpt>
      <trkpt lat="45.92254" lon="6.48391">
        <ele>1442.6</ele>
        <time>2017-03-19T06:55:02Z</time>
      </trkpt>
      <trkpt lat="45.92241" lon="6.48403">
        <ele>1444.04</ele>
        <time>2017-03-19T06:55:18Z</time>
      </trkpt>
      <trkpt lat="45.92229" lon="6.48416">
        <ele>1445.96</ele>
        <time>2017-03-19T06:55:33Z</time>
      </trkpt>
      <trkpt lat="45.92216" lon="6.48428">
        <ele>1448.36</ele>
        <time>2017-03-19T06:55:49Z</time>
      </trkpt>
      <trkpt lat="45.92214" lon="6.4843">
        <ele>1448.84</ele>
        <time>2017-03-19T06:55:52Z</time>
      </trkpt>
      <trkpt lat="45.92211" lon="6.48434">
        <ele>1450.29</ele>
        <time>2017-03-19T06:55:56Z</time>
      </trkpt>
      <trkpt lat="45.92197" lon="6.48446">
        <ele>1451.73</ele>
        <time>2017-03-19T06:56:13Z</time>
      </trkpt>
      <trkpt lat="45.92184" lon="6.48461">
        <ele>1454.61</ele>
        <time>2017-03-19T06:56:29Z</time>
      </trkpt>
      <trkpt lat="45.92171" lon="6.48478">
        <ele>1457.02</ele>
        <time>2017-03-19T06:56:45Z</time>
      </trkpt>
      <trkpt lat="45.92162" lon="6.48494">
        <ele>1458.46</ele>
        <time>2017-03-19T06:57:00Z</time>
      </trkpt>
      <trkpt lat="45.92156" lon="6.48503">
        <ele>1460.38</ele>
        <time>2017-03-19T06:57:09Z</time>
      </trkpt>
      <trkpt lat="45.92145" lon="6.48502">
        <ele>1460.86</ele>
        <time>2017-03-19T06:57:20Z</time>
      </trkpt>
      <trkpt lat="45.92122" lon="6.48501">
        <ele>1460.38</ele>
        <time>2017-03-19T06:57:40Z</time>
      </trkpt>
      <trkpt lat="45.92106" lon="6.485">
        <ele>1461.34</ele>
        <time>2017-03-19T06:57:55Z</time>
      </trkpt>
      <trkpt lat="45.92095" lon="6.48498">
        <ele>1462.3</ele>
        <time>2017-03-19T06:58:08Z</time>
      </trkpt>
      <trkpt lat="45.92094" lon="6.48501">
        <ele>1463.26</ele>
        <time>2017-03-19T06:58:19Z</time>
      </trkpt>
      <trkpt lat="45.92092" lon="6.48502">
        <ele>1462.78</ele>
        <time>2017-03-19T06:58:32Z</time>
      </trkpt>
      <trkpt lat="45.92091" lon="6.485">
        <ele>1463.26</ele>
        <time>2017-03-19T06:58:48Z</time>
      </trkpt>
      <trkpt lat="45.9209" lon="6.48501">
        <ele>1463.74</ele>
        <time>2017-03-19T06:59:03Z</time>
      </trkpt>
      <trkpt lat="45.9209" lon="6.48504">
        <ele>1463.74</ele>
        <time>2017-03-19T07:01:13Z</time>
      </trkpt>
      <trkpt lat="45.92088" lon="6.48505">
        <ele>1465.67</ele>
        <time>2017-03-19T07:01:32Z</time>
      </trkpt>
      <trkpt lat="45.92088" lon="6.48507">
        <ele>1466.63</ele>
        <time>2017-03-19T07:01:48Z</time>
      </trkpt>
      <trkpt lat="45.92087" lon="6.48524">
        <ele>1467.59</ele>
        <time>2017-03-19T07:02:01Z</time>
      </trkpt>
      <trkpt lat="45.92087" lon="6.48531">
        <ele>1468.07</ele>
        <time>2017-03-19T07:02:11Z</time>
      </trkpt>
      <trkpt lat="45.92087" lon="6.48542">
        <ele>1470.95</ele>
        <time>2017-03-19T07:02:25Z</time>
      </trkpt>
      <trkpt lat="45.92082" lon="6.48547">
        <ele>1472.4</ele>
        <time>2017-03-19T07:02:40Z</time>
      </trkpt>
      <trkpt lat="45.9208" lon="6.48555">
        <ele>1474.32</ele>
        <time>2017-03-19T07:02:52Z</time>
      </trkpt>
      <trkpt lat="45.9208" lon="6.48558">
        <ele>1475.76</ele>
        <time>2017-03-19T07:02:57Z</time>
      </trkpt>
      <trkpt lat="45.92079" lon="6.48562">
        <ele>1475.28</ele>
        <time>2017-03-19T07:03:09Z</time>
      </trkpt>
      <trkpt lat="45.92078" lon="6.48562">
        <ele>1475.76</ele>
        <time>2017-03-19T07:03:34Z</time>
      </trkpt>
      <trkpt lat="45.92077" lon="6.4856">
        <ele>1475.28</ele>
        <time>2017-03-19T07:03:52Z</time>
      </trkpt>
      <trkpt lat="45.92067" lon="6.48566">
        <ele>1478.16</ele>
        <time>2017-03-19T07:05:30Z</time>
      </trkpt>
      <trkpt lat="45.92059" lon="6.4857">
        <ele>1480.09</ele>
        <time>2017-03-19T07:05:43Z</time>
      </trkpt>
      <trkpt lat="45.92057" lon="6.48572">
        <ele>1480.57</ele>
        <time>2017-03-19T07:05:47Z</time>
      </trkpt>
      <trkpt lat="45.92051" lon="6.48578">
        <ele>1482.49</ele>
        <time>2017-03-19T07:06:01Z</time>
      </trkpt>
      <trkpt lat="45.92044" lon="6.48587">
        <ele>1484.41</ele>
        <time>2017-03-19T07:06:15Z</time>
      </trkpt>
      <trkpt lat="45.9204" lon="6.48597">
        <ele>1485.85</ele>
        <time>2017-03-19T07:06:29Z</time>
      </trkpt>
      <trkpt lat="45.92038" lon="6.48602">
        <ele>1485.85</ele>
        <time>2017-03-19T07:06:35Z</time>
      </trkpt>
      <trkpt lat="45.92033" lon="6.48611">
        <ele>1487.78</ele>
        <time>2017-03-19T07:06:48Z</time>
      </trkpt>
      <trkpt lat="45.92027" lon="6.48625">
        <ele>1490.18</ele>
        <time>2017-03-19T07:07:06Z</time>
      </trkpt>
      <trkpt lat="45.92021" lon="6.48635">
        <ele>1491.62</ele>
        <time>2017-03-19T07:07:19Z</time>
      </trkpt>
      <trkpt lat="45.92019" lon="6.48643">
        <ele>1493.06</ele>
        <time>2017-03-19T07:07:33Z</time>
      </trkpt>
      <trkpt lat="45.92009" lon="6.48659">
        <ele>1494.99</ele>
        <time>2017-03-19T07:07:52Z</time>
      </trkpt>
      <trkpt lat="45.92004" lon="6.48667">
        <ele>1496.43</ele>
        <time>2017-03-19T07:08:05Z</time>
      </trkpt>
      <trkpt lat="45.92" lon="6.48672">
        <ele>1498.83</ele>
        <time>2017-03-19T07:08:18Z</time>
      </trkpt>
      <trkpt lat="45.91995" lon="6.48679">
        <ele>1500.27</ele>
        <time>2017-03-19T07:08:32Z</time>
      </trkpt>
      <trkpt lat="45.91988" lon="6.48696">
        <ele>1502.68</ele>
        <time>2017-03-19T07:08:50Z</time>
      </trkpt>
      <trkpt lat="45.91982" lon="6.48705">
        <ele>1504.6</ele>
        <time>2017-03-19T07:09:07Z</time>
      </trkpt>
      <trkpt lat="45.91975" lon="6.48714">
        <ele>1506.04</ele>
        <time>2017-03-19T07:09:19Z</time>
      </trkpt>
      <trkpt lat="45.9197" lon="6.48717">
        <ele>1507.48</ele>
        <time>2017-03-19T07:09:30Z</time>
      </trkpt>
      <trkpt lat="45.91967" lon="6.4872">
        <ele>1509.41</ele>
        <time>2017-03-19T07:09:43Z</time>
      </trkpt>
      <trkpt lat="45.9196" lon="6.48724">
        <ele>1511.33</ele>
        <time>2017-03-19T07:09:57Z</time>
      </trkpt>
      <trkpt lat="45.91951" lon="6.48727">
        <ele>1513.25</ele>
        <time>2017-03-19T07:10:10Z</time>
      </trkpt>
      <trkpt lat="45.91944" lon="6.48731">
        <ele>1516.14</ele>
        <time>2017-03-19T07:10:29Z</time>
      </trkpt>
      <trkpt lat="45.91934" lon="6.48737">
        <ele>1519.02</ele>
        <time>2017-03-19T07:10:46Z</time>
      </trkpt>
      <trkpt lat="45.91924" lon="6.48743">
        <ele>1521.9</ele>
        <time>2017-03-19T07:11:07Z</time>
      </trkpt>
      <trkpt lat="45.91913" lon="6.48747">
        <ele>1524.31</ele>
        <time>2017-03-19T07:11:23Z</time>
      </trkpt>
      <trkpt lat="45.91906" lon="6.4875">
        <ele>1525.27</ele>
        <time>2017-03-19T07:11:39Z</time>
      </trkpt>
      <trkpt lat="45.91899" lon="6.48754">
        <ele>1526.71</ele>
        <time>2017-03-19T07:11:53Z</time>
      </trkpt>
      <trkpt lat="45.9189" lon="6.48753">
        <ele>1528.15</ele>
        <time>2017-03-19T07:12:08Z</time>
      </trkpt>
      <trkpt lat="45.91883" lon="6.48751">
        <ele>1529.59</ele>
        <time>2017-03-19T07:12:22Z</time>
      </trkpt>
      <trkpt lat="45.91878" lon="6.48751">
        <ele>1531.04</ele>
        <time>2017-03-19T07:12:35Z</time>
      </trkpt>
      <trkpt lat="45.91872" lon="6.4875">
        <ele>1532</ele>
        <time>2017-03-19T07:12:47Z</time>
      </trkpt>
      <trkpt lat="45.91867" lon="6.48749">
        <ele>1533.44</ele>
        <time>2017-03-19T07:13:01Z</time>
      </trkpt>
      <trkpt lat="45.9186" lon="6.48748">
        <ele>1535.36</ele>
        <time>2017-03-19T07:13:14Z</time>
      </trkpt>
      <trkpt lat="45.91854" lon="6.48746">
        <ele>1536.8</ele>
        <time>2017-03-19T07:13:27Z</time>
      </trkpt>
      <trkpt lat="45.91849" lon="6.48745">
        <ele>1537.77</ele>
        <time>2017-03-19T07:13:40Z</time>
      </trkpt>
      <trkpt lat="45.91845" lon="6.48746">
        <ele>1539.21</ele>
        <time>2017-03-19T07:13:51Z</time>
      </trkpt>
      <trkpt lat="45.91841" lon="6.48746">
        <ele>1540.65</ele>
        <time>2017-03-19T07:14:03Z</time>
      </trkpt>
      <trkpt lat="45.91835" lon="6.48746">
        <ele>1543.05</ele>
        <time>2017-03-19T07:14:18Z</time>
      </trkpt>
      <trkpt lat="45.91828" lon="6.48747">
        <ele>1543.05</ele>
        <time>2017-03-19T07:14:31Z</time>
      </trkpt>
      <trkpt lat="45.91822" lon="6.48745">
        <ele>1544.01</ele>
        <time>2017-03-19T07:14:45Z</time>
      </trkpt>
      <trkpt lat="45.91816" lon="6.48742">
        <ele>1545.46</ele>
        <time>2017-03-19T07:14:58Z</time>
      </trkpt>
      <trkpt lat="45.91811" lon="6.48739">
        <ele>1546.9</ele>
        <time>2017-03-19T07:15:11Z</time>
      </trkpt>
      <trkpt lat="45.9181" lon="6.48737">
        <ele>1547.86</ele>
        <time>2017-03-19T07:15:25Z</time>
      </trkpt>
      <trkpt lat="45.91808" lon="6.48736">
        <ele>1548.34</ele>
        <time>2017-03-19T07:15:38Z</time>
      </trkpt>
      <trkpt lat="45.91805" lon="6.48736">
        <ele>1548.82</ele>
        <time>2017-03-19T07:15:48Z</time>
      </trkpt>
      <trkpt lat="45.91806" lon="6.48737">
        <ele>1549.78</ele>
        <time>2017-03-19T07:16:01Z</time>
      </trkpt>
      <trkpt lat="45.91808" lon="6.48738">
        <ele>1550.26</ele>
        <time>2017-03-19T07:16:13Z</time>
      </trkpt>
      <trkpt lat="45.91802" lon="6.48739">
        <ele>1552.19</ele>
        <time>2017-03-19T07:16:26Z</time>
      </trkpt>
      <trkpt lat="45.91801" lon="6.48739">
        <ele>1552.67</ele>
        <time>2017-03-19T07:16:29Z</time>
      </trkpt>
      <trkpt lat="45.91795" lon="6.48743">
        <ele>1554.11</ele>
        <time>2017-03-19T07:16:42Z</time>
      </trkpt>
      <trkpt lat="45.91789" lon="6.4874">
        <ele>1555.07</ele>
        <time>2017-03-19T07:16:53Z</time>
      </trkpt>
      <trkpt lat="45.91783" lon="6.48739">
        <ele>1556.99</ele>
        <time>2017-03-19T07:17:09Z</time>
      </trkpt>
      <trkpt lat="45.91778" lon="6.48741">
        <ele>1558.43</ele>
        <time>2017-03-19T07:17:21Z</time>
      </trkpt>
      <trkpt lat="45.91773" lon="6.48746">
        <ele>1559.4</ele>
        <time>2017-03-19T07:17:31Z</time>
      </trkpt>
      <trkpt lat="45.9177" lon="6.48748">
        <ele>1561.8</ele>
        <time>2017-03-19T07:17:45Z</time>
      </trkpt>
      <trkpt lat="45.91768" lon="6.48756">
        <ele>1562.76</ele>
        <time>2017-03-19T07:17:55Z</time>
      </trkpt>
      <trkpt lat="45.9177" lon="6.4877">
        <ele>1565.16</ele>
        <time>2017-03-19T07:18:10Z</time>
      </trkpt>
      <trkpt lat="45.91767" lon="6.4878">
        <ele>1566.61</ele>
        <time>2017-03-19T07:18:24Z</time>
      </trkpt>
      <trkpt lat="45.91764" lon="6.48783">
        <ele>1568.05</ele>
        <time>2017-03-19T07:18:38Z</time>
      </trkpt>
      <trkpt lat="45.91763" lon="6.48784">
        <ele>1569.01</ele>
        <time>2017-03-19T07:20:31Z</time>
      </trkpt>
      <trkpt lat="45.91761" lon="6.48784">
        <ele>1569.01</ele>
        <time>2017-03-19T07:20:48Z</time>
      </trkpt>
      <trkpt lat="45.91757" lon="6.48788">
        <ele>1569.49</ele>
        <time>2017-03-19T07:21:01Z</time>
      </trkpt>
      <trkpt lat="45.91744" lon="6.48794">
        <ele>1570.45</ele>
        <time>2017-03-19T07:21:14Z</time>
      </trkpt>
      <trkpt lat="45.91742" lon="6.48799">
        <ele>1570.93</ele>
        <time>2017-03-19T07:21:33Z</time>
      </trkpt>
      <trkpt lat="45.91737" lon="6.48798">
        <ele>1571.41</ele>
        <time>2017-03-19T07:21:49Z</time>
      </trkpt>
      <trkpt lat="45.91732" lon="6.48799">
        <ele>1571.89</ele>
        <time>2017-03-19T07:22:01Z</time>
      </trkpt>
      <trkpt lat="45.91729" lon="6.48801">
        <ele>1572.37</ele>
        <time>2017-03-19T07:22:15Z</time>
      </trkpt>
      <trkpt lat="45.91725" lon="6.48805">
        <ele>1572.37</ele>
        <time>2017-03-19T07:22:30Z</time>
      </trkpt>
      <trkpt lat="45.91725" lon="6.4881">
        <ele>1574.78</ele>
        <time>2017-03-19T07:22:42Z</time>
      </trkpt>
      <trkpt lat="45.91719" lon="6.48823">
        <ele>1576.7</ele>
        <time>2017-03-19T07:22:59Z</time>
      </trkpt>
      <trkpt lat="45.91715" lon="6.48829">
        <ele>1577.18</ele>
        <time>2017-03-19T07:23:12Z</time>
      </trkpt>
      <trkpt lat="45.91711" lon="6.48833">
        <ele>1577.66</ele>
        <time>2017-03-19T07:23:24Z</time>
      </trkpt>
      <trkpt lat="45.9171" lon="6.48834">
        <ele>1578.14</ele>
        <time>2017-03-19T07:23:45Z</time>
      </trkpt>
      <trkpt lat="45.91709" lon="6.48835">
        <ele>1578.14</ele>
        <time>2017-03-19T07:24:01Z</time>
      </trkpt>
      <trkpt lat="45.91709" lon="6.48837">
        <ele>1578.14</ele>
        <time>2017-03-19T07:24:32Z</time>
      </trkpt>
      <trkpt lat="45.91704" lon="6.48843">
        <ele>1579.1</ele>
        <time>2017-03-19T07:24:45Z</time>
      </trkpt>
      <trkpt lat="45.91701" lon="6.48842">
        <ele>1579.1</ele>
        <time>2017-03-19T07:24:56Z</time>
      </trkpt>
      <trkpt lat="45.91699" lon="6.48843">
        <ele>1578.14</ele>
        <time>2017-03-19T07:25:10Z</time>
      </trkpt>
      <trkpt lat="45.91696" lon="6.48842">
        <ele>1577.66</ele>
        <time>2017-03-19T07:25:23Z</time>
      </trkpt>
      <trkpt lat="45.91693" lon="6.48843">
        <ele>1578.14</ele>
        <time>2017-03-19T07:25:34Z</time>
      </trkpt>
      <trkpt lat="45.91694" lon="6.48844">
        <ele>1579.1</ele>
        <time>2017-03-19T07:25:46Z</time>
      </trkpt>
      <trkpt lat="45.91688" lon="6.48844">
        <ele>1579.1</ele>
        <time>2017-03-19T07:25:57Z</time>
      </trkpt>
      <trkpt lat="45.91685" lon="6.48846">
        <ele>1580.54</ele>
        <time>2017-03-19T07:27:32Z</time>
      </trkpt>
      <trkpt lat="45.91683" lon="6.48844">
        <ele>1581.03</ele>
        <time>2017-03-19T07:27:53Z</time>
      </trkpt>
      <trkpt lat="45.91681" lon="6.48845">
        <ele>1581.03</ele>
        <time>2017-03-19T07:28:21Z</time>
      </trkpt>
      <trkpt lat="45.91676" lon="6.48846">
        <ele>1581.51</ele>
        <time>2017-03-19T07:28:39Z</time>
      </trkpt>
      <trkpt lat="45.91673" lon="6.48847">
        <ele>1582.95</ele>
        <time>2017-03-19T07:28:47Z</time>
      </trkpt>
      <trkpt lat="45.91665" lon="6.48846">
        <ele>1583.91</ele>
        <time>2017-03-19T07:29:00Z</time>
      </trkpt>
      <trkpt lat="45.9166" lon="6.48846">
        <ele>1584.87</ele>
        <time>2017-03-19T07:29:10Z</time>
      </trkpt>
      <trkpt lat="45.91651" lon="6.48845">
        <ele>1587.27</ele>
        <time>2017-03-19T07:29:25Z</time>
      </trkpt>
      <trkpt lat="45.91648" lon="6.48845">
        <ele>1587.75</ele>
        <time>2017-03-19T07:29:37Z</time>
      </trkpt>
      <trkpt lat="45.9164" lon="6.48846">
        <ele>1588.72</ele>
        <time>2017-03-19T07:29:49Z</time>
      </trkpt>
      <trkpt lat="45.91633" lon="6.48846">
        <ele>1590.16</ele>
        <time>2017-03-19T07:30:01Z</time>
      </trkpt>
      <trkpt lat="45.91627" lon="6.48849">
        <ele>1591.12</ele>
        <time>2017-03-19T07:30:15Z</time>
      </trkpt>
      <trkpt lat="45.91621" lon="6.48851">
        <ele>1592.08</ele>
        <time>2017-03-19T07:30:30Z</time>
      </trkpt>
      <trkpt lat="45.91614" lon="6.48852">
        <ele>1593.04</ele>
        <time>2017-03-19T07:30:42Z</time>
      </trkpt>
      <trkpt lat="45.91607" lon="6.48851">
        <ele>1593.04</ele>
        <time>2017-03-19T07:30:54Z</time>
      </trkpt>
      <trkpt lat="45.916" lon="6.48852">
        <ele>1594.96</ele>
        <time>2017-03-19T07:31:08Z</time>
      </trkpt>
      <trkpt lat="45.91594" lon="6.48856">
        <ele>1596.41</ele>
        <time>2017-03-19T07:31:20Z</time>
      </trkpt>
      <trkpt lat="45.91587" lon="6.48859">
        <ele>1596.89</ele>
        <time>2017-03-19T07:31:34Z</time>
      </trkpt>
      <trkpt lat="45.91575" lon="6.48864">
        <ele>1596.89</ele>
        <time>2017-03-19T07:31:51Z</time>
      </trkpt>
      <trkpt lat="45.91566" lon="6.48866">
        <ele>1597.37</ele>
        <time>2017-03-19T07:32:04Z</time>
      </trkpt>
      <trkpt lat="45.91562" lon="6.48868">
        <ele>1597.37</ele>
        <time>2017-03-19T07:32:10Z</time>
      </trkpt>
      <trkpt lat="45.91553" lon="6.48872">
        <ele>1597.85</ele>
        <time>2017-03-19T07:32:21Z</time>
      </trkpt>
      <trkpt lat="45.91547" lon="6.48874">
        <ele>1597.85</ele>
        <time>2017-03-19T07:32:34Z</time>
      </trkpt>
      <trkpt lat="45.9154" lon="6.48873">
        <ele>1598.33</ele>
        <time>2017-03-19T07:32:47Z</time>
      </trkpt>
      <trkpt lat="45.91535" lon="6.4887">
        <ele>1598.81</ele>
        <time>2017-03-19T07:33:00Z</time>
      </trkpt>
      <trkpt lat="45.91531" lon="6.48871">
        <ele>1599.29</ele>
        <time>2017-03-19T07:33:10Z</time>
      </trkpt>
      <trkpt lat="45.91527" lon="6.4887">
        <ele>1599.77</ele>
        <time>2017-03-19T07:33:20Z</time>
      </trkpt>
      <trkpt lat="45.91526" lon="6.48872">
        <ele>1599.77</ele>
        <time>2017-03-19T07:33:47Z</time>
      </trkpt>
      <trkpt lat="45.91519" lon="6.48872">
        <ele>1600.73</ele>
        <time>2017-03-19T07:33:57Z</time>
      </trkpt>
      <trkpt lat="45.91511" lon="6.48875">
        <ele>1601.21</ele>
        <time>2017-03-19T07:34:09Z</time>
      </trkpt>
      <trkpt lat="45.91508" lon="6.48877">
        <ele>1601.69</ele>
        <time>2017-03-19T07:34:15Z</time>
      </trkpt>
      <trkpt lat="45.91498" lon="6.48873">
        <ele>1601.69</ele>
        <time>2017-03-19T07:34:27Z</time>
      </trkpt>
      <trkpt lat="45.91491" lon="6.48867">
        <ele>1602.66</ele>
        <time>2017-03-19T07:34:39Z</time>
      </trkpt>
      <trkpt lat="45.9149" lon="6.48865">
        <ele>1603.14</ele>
        <time>2017-03-19T07:34:42Z</time>
      </trkpt>
      <trkpt lat="45.91483" lon="6.4886">
        <ele>1605.06</ele>
        <time>2017-03-19T07:34:55Z</time>
      </trkpt>
      <trkpt lat="45.91478" lon="6.48855">
        <ele>1606.02</ele>
        <time>2017-03-19T07:35:06Z</time>
      </trkpt>
      <trkpt lat="45.91471" lon="6.48851">
        <ele>1607.46</ele>
        <time>2017-03-19T07:35:18Z</time>
      </trkpt>
      <trkpt lat="45.91472" lon="6.48851">
        <ele>1607.94</ele>
        <time>2017-03-19T07:35:34Z</time>
      </trkpt>
      <trkpt lat="45.91466" lon="6.48856">
        <ele>1609.38</ele>
        <time>2017-03-19T07:35:49Z</time>
      </trkpt>
      <trkpt lat="45.91464" lon="6.4886">
        <ele>1611.31</ele>
        <time>2017-03-19T07:36:00Z</time>
      </trkpt>
      <trkpt lat="45.9147" lon="6.48865">
        <ele>1614.19</ele>
        <time>2017-03-19T07:36:14Z</time>
      </trkpt>
      <trkpt lat="45.91474" lon="6.4887">
        <ele>1615.15</ele>
        <time>2017-03-19T07:36:24Z</time>
      </trkpt>
      <trkpt lat="45.91475" lon="6.48872">
        <ele>1615.63</ele>
        <time>2017-03-19T07:36:31Z</time>
      </trkpt>
      <trkpt lat="45.91472" lon="6.48875">
        <ele>1616.59</ele>
        <time>2017-03-19T07:36:43Z</time>
      </trkpt>
      <trkpt lat="45.9147" lon="6.48882">
        <ele>1619</ele>
        <time>2017-03-19T07:36:56Z</time>
      </trkpt>
      <trkpt lat="45.91473" lon="6.48887">
        <ele>1620.44</ele>
        <time>2017-03-19T07:37:08Z</time>
      </trkpt>
      <trkpt lat="45.91475" lon="6.48891">
        <ele>1621.88</ele>
        <time>2017-03-19T07:37:17Z</time>
      </trkpt>
      <trkpt lat="45.91469" lon="6.48893">
        <ele>1622.36</ele>
        <time>2017-03-19T07:37:28Z</time>
      </trkpt>
      <trkpt lat="45.91462" lon="6.48891">
        <ele>1624.28</ele>
        <time>2017-03-19T07:37:41Z</time>
      </trkpt>
      <trkpt lat="45.91458" lon="6.48894">
        <ele>1626.69</ele>
        <time>2017-03-19T07:37:54Z</time>
      </trkpt>
      <trkpt lat="45.91454" lon="6.48898">
        <ele>1628.61</ele>
        <time>2017-03-19T07:38:05Z</time>
      </trkpt>
      <trkpt lat="45.91449" lon="6.48894">
        <ele>1628.61</ele>
        <time>2017-03-19T07:38:15Z</time>
      </trkpt>
      <trkpt lat="45.91444" lon="6.48885">
        <ele>1630.05</ele>
        <time>2017-03-19T07:38:27Z</time>
      </trkpt>
      <trkpt lat="45.91441" lon="6.48878">
        <ele>1631.98</ele>
        <time>2017-03-19T07:38:42Z</time>
      </trkpt>
      <trkpt lat="45.91439" lon="6.48871">
        <ele>1631.98</ele>
        <time>2017-03-19T07:38:56Z</time>
      </trkpt>
      <trkpt lat="45.91439" lon="6.48868">
        <ele>1633.9</ele>
        <time>2017-03-19T07:39:09Z</time>
      </trkpt>
      <trkpt lat="45.91439" lon="6.48869">
        <ele>1634.38</ele>
        <time>2017-03-19T07:39:26Z</time>
      </trkpt>
      <trkpt lat="45.91437" lon="6.48872">
        <ele>1634.86</ele>
        <time>2017-03-19T07:39:44Z</time>
      </trkpt>
      <trkpt lat="45.91433" lon="6.48868">
        <ele>1636.78</ele>
        <time>2017-03-19T07:39:56Z</time>
      </trkpt>
      <trkpt lat="45.91433" lon="6.48867">
        <ele>1637.26</ele>
        <time>2017-03-19T07:40:08Z</time>
      </trkpt>
      <trkpt lat="45.91432" lon="6.48871">
        <ele>1637.74</ele>
        <time>2017-03-19T07:40:20Z</time>
      </trkpt>
      <trkpt lat="45.91433" lon="6.48876">
        <ele>1639.19</ele>
        <time>2017-03-19T07:40:33Z</time>
      </trkpt>
      <trkpt lat="45.91434" lon="6.48879">
        <ele>1640.15</ele>
        <time>2017-03-19T07:40:49Z</time>
      </trkpt>
      <trkpt lat="45.9143" lon="6.48875">
        <ele>1641.11</ele>
        <time>2017-03-19T07:41:02Z</time>
      </trkpt>
      <trkpt lat="45.91425" lon="6.4887">
        <ele>1642.55</ele>
        <time>2017-03-19T07:41:16Z</time>
      </trkpt>
      <trkpt lat="45.91422" lon="6.48868">
        <ele>1643.51</ele>
        <time>2017-03-19T07:41:35Z</time>
      </trkpt>
      <trkpt lat="45.91423" lon="6.48869">
        <ele>1648.8</ele>
        <time>2017-03-19T07:43:50Z</time>
      </trkpt>
      <trkpt lat="45.91419" lon="6.48869">
        <ele>1649.76</ele>
        <time>2017-03-19T07:44:05Z</time>
      </trkpt>
      <trkpt lat="45.91415" lon="6.48866">
        <ele>1651.2</ele>
        <time>2017-03-19T07:44:20Z</time>
      </trkpt>
      <trkpt lat="45.91414" lon="6.48864">
        <ele>1652.16</ele>
        <time>2017-03-19T07:44:34Z</time>
      </trkpt>
      <trkpt lat="45.91414" lon="6.48862">
        <ele>1652.16</ele>
        <time>2017-03-19T07:44:48Z</time>
      </trkpt>
      <trkpt lat="45.91415" lon="6.48854">
        <ele>1653.6</ele>
        <time>2017-03-19T07:44:59Z</time>
      </trkpt>
      <trkpt lat="45.91414" lon="6.48854">
        <ele>1654.57</ele>
        <time>2017-03-19T07:45:35Z</time>
      </trkpt>
      <trkpt lat="45.91412" lon="6.48857">
        <ele>1656.01</ele>
        <time>2017-03-19T07:45:46Z</time>
      </trkpt>
      <trkpt lat="45.91407" lon="6.48862">
        <ele>1659.37</ele>
        <time>2017-03-19T07:46:00Z</time>
      </trkpt>
      <trkpt lat="45.91403" lon="6.48868">
        <ele>1661.78</ele>
        <time>2017-03-19T07:46:11Z</time>
      </trkpt>
      <trkpt lat="45.914" lon="6.48874">
        <ele>1662.26</ele>
        <time>2017-03-19T07:46:22Z</time>
      </trkpt>
      <trkpt lat="45.91395" lon="6.48879">
        <ele>1664.66</ele>
        <time>2017-03-19T07:46:39Z</time>
      </trkpt>
      <trkpt lat="45.9139" lon="6.48888">
        <ele>1667.06</ele>
        <time>2017-03-19T07:46:54Z</time>
      </trkpt>
      <trkpt lat="45.91384" lon="6.48895">
        <ele>1670.43</ele>
        <time>2017-03-19T07:47:05Z</time>
      </trkpt>
      <trkpt lat="45.91383" lon="6.48902">
        <ele>1672.35</ele>
        <time>2017-03-19T07:47:16Z</time>
      </trkpt>
      <trkpt lat="45.91384" lon="6.48909">
        <ele>1674.75</ele>
        <time>2017-03-19T07:47:31Z</time>
      </trkpt>
      <trkpt lat="45.91384" lon="6.4891">
        <ele>1674.75</ele>
        <time>2017-03-19T07:47:51Z</time>
      </trkpt>
      <trkpt lat="45.91386" lon="6.48916">
        <ele>1676.2</ele>
        <time>2017-03-19T07:48:01Z</time>
      </trkpt>
      <trkpt lat="45.91388" lon="6.48922">
        <ele>1677.64</ele>
        <time>2017-03-19T07:48:13Z</time>
      </trkpt>
      <trkpt lat="45.91389" lon="6.48928">
        <ele>1679.56</ele>
        <time>2017-03-19T07:48:25Z</time>
      </trkpt>
      <trkpt lat="45.91391" lon="6.48933">
        <ele>1680.52</ele>
        <time>2017-03-19T07:48:36Z</time>
      </trkpt>
      <trkpt lat="45.91394" lon="6.4894">
        <ele>1682.44</ele>
        <time>2017-03-19T07:48:48Z</time>
      </trkpt>
      <trkpt lat="45.91399" lon="6.48944">
        <ele>1683.89</ele>
        <time>2017-03-19T07:49:00Z</time>
      </trkpt>
      <trkpt lat="45.91401" lon="6.48946">
        <ele>1685.81</ele>
        <time>2017-03-19T07:49:12Z</time>
      </trkpt>
      <trkpt lat="45.91401" lon="6.48952">
        <ele>1687.25</ele>
        <time>2017-03-19T07:49:22Z</time>
      </trkpt>
      <trkpt lat="45.91401" lon="6.4896">
        <ele>1687.73</ele>
        <time>2017-03-19T07:49:34Z</time>
      </trkpt>
      <trkpt lat="45.91396" lon="6.48965">
        <ele>1689.65</ele>
        <time>2017-03-19T07:49:45Z</time>
      </trkpt>
      <trkpt lat="45.91394" lon="6.48964">
        <ele>1690.62</ele>
        <time>2017-03-19T07:49:58Z</time>
      </trkpt>
      <trkpt lat="45.91392" lon="6.48964">
        <ele>1691.58</ele>
        <time>2017-03-19T07:50:11Z</time>
      </trkpt>
      <trkpt lat="45.91391" lon="6.48964">
        <ele>1692.06</ele>
        <time>2017-03-19T07:50:17Z</time>
      </trkpt>
      <trkpt lat="45.91387" lon="6.48964">
        <ele>1693.5</ele>
        <time>2017-03-19T07:50:28Z</time>
      </trkpt>
      <trkpt lat="45.91384" lon="6.48962">
        <ele>1694.46</ele>
        <time>2017-03-19T07:50:38Z</time>
      </trkpt>
      <trkpt lat="45.91382" lon="6.48962">
        <ele>1695.42</ele>
        <time>2017-03-19T07:50:50Z</time>
      </trkpt>
      <trkpt lat="45.91377" lon="6.48962">
        <ele>1696.86</ele>
        <time>2017-03-19T07:51:01Z</time>
      </trkpt>
      <trkpt lat="45.91379" lon="6.48964">
        <ele>1699.27</ele>
        <time>2017-03-19T07:51:32Z</time>
      </trkpt>
      <trkpt lat="45.9138" lon="6.48971">
        <ele>1700.71</ele>
        <time>2017-03-19T07:51:45Z</time>
      </trkpt>
      <trkpt lat="45.9138" lon="6.48972">
        <ele>1701.67</ele>
        <time>2017-03-19T07:51:57Z</time>
      </trkpt>
      <trkpt lat="45.91377" lon="6.48971">
        <ele>1702.15</ele>
        <time>2017-03-19T07:52:09Z</time>
      </trkpt>
      <trkpt lat="45.91381" lon="6.48977">
        <ele>1704.07</ele>
        <time>2017-03-19T07:52:20Z</time>
      </trkpt>
      <trkpt lat="45.91382" lon="6.48979">
        <ele>1704.07</ele>
        <time>2017-03-19T07:52:23Z</time>
      </trkpt>
      <trkpt lat="45.91384" lon="6.48986">
        <ele>1706.48</ele>
        <time>2017-03-19T07:52:37Z</time>
      </trkpt>
      <trkpt lat="45.91381" lon="6.48989">
        <ele>1706.96</ele>
        <time>2017-03-19T07:52:48Z</time>
      </trkpt>
      <trkpt lat="45.91376" lon="6.48985">
        <ele>1709.36</ele>
        <time>2017-03-19T07:52:59Z</time>
      </trkpt>
      <trkpt lat="45.91372" lon="6.48988">
        <ele>1710.32</ele>
        <time>2017-03-19T07:53:11Z</time>
      </trkpt>
      <trkpt lat="45.91366" lon="6.4899">
        <ele>1713.69</ele>
        <time>2017-03-19T07:53:25Z</time>
      </trkpt>
      <trkpt lat="45.91362" lon="6.48991">
        <ele>1714.65</ele>
        <time>2017-03-19T07:53:35Z</time>
      </trkpt>
      <trkpt lat="45.91358" lon="6.48987">
        <ele>1716.57</ele>
        <time>2017-03-19T07:53:48Z</time>
      </trkpt>
      <trkpt lat="45.91352" lon="6.48987">
        <ele>1718.49</ele>
        <time>2017-03-19T07:54:01Z</time>
      </trkpt>
      <trkpt lat="45.91346" lon="6.48989">
        <ele>1720.42</ele>
        <time>2017-03-19T07:54:13Z</time>
      </trkpt>
      <trkpt lat="45.91341" lon="6.48989">
        <ele>1721.38</ele>
        <time>2017-03-19T07:54:26Z</time>
      </trkpt>
      <trkpt lat="45.91335" lon="6.4899">
        <ele>1722.82</ele>
        <time>2017-03-19T07:54:39Z</time>
      </trkpt>
      <trkpt lat="45.91329" lon="6.4899">
        <ele>1723.78</ele>
        <time>2017-03-19T07:54:53Z</time>
      </trkpt>
      <trkpt lat="45.91328" lon="6.4899">
        <ele>1724.26</ele>
        <time>2017-03-19T07:55:28Z</time>
      </trkpt>
      <trkpt lat="45.91327" lon="6.48993">
        <ele>1723.78</ele>
        <time>2017-03-19T07:55:51Z</time>
      </trkpt>
      <trkpt lat="45.91324" lon="6.48991">
        <ele>1724.26</ele>
        <time>2017-03-19T07:55:58Z</time>
      </trkpt>
      <trkpt lat="45.9132" lon="6.48992">
        <ele>1725.7</ele>
        <time>2017-03-19T07:56:03Z</time>
      </trkpt>
      <trkpt lat="45.91312" lon="6.48993">
        <ele>1727.63</ele>
        <time>2017-03-19T07:56:15Z</time>
      </trkpt>
      <trkpt lat="45.91304" lon="6.48993">
        <ele>1729.55</ele>
        <time>2017-03-19T07:56:28Z</time>
      </trkpt>
      <trkpt lat="45.91295" lon="6.4899">
        <ele>1731.47</ele>
        <time>2017-03-19T07:56:43Z</time>
      </trkpt>
      <trkpt lat="45.9129" lon="6.48991">
        <ele>1733.39</ele>
        <time>2017-03-19T07:56:55Z</time>
      </trkpt>
      <trkpt lat="45.91284" lon="6.48991">
        <ele>1734.36</ele>
        <time>2017-03-19T07:57:07Z</time>
      </trkpt>
      <trkpt lat="45.91279" lon="6.48995">
        <ele>1736.76</ele>
        <time>2017-03-19T07:57:21Z</time>
      </trkpt>
      <trkpt lat="45.91274" lon="6.48996">
        <ele>1738.68</ele>
        <time>2017-03-19T07:57:35Z</time>
      </trkpt>
      <trkpt lat="45.9127" lon="6.48988">
        <ele>1740.6</ele>
        <time>2017-03-19T07:57:47Z</time>
      </trkpt>
      <trkpt lat="45.91264" lon="6.48986">
        <ele>1743.01</ele>
        <time>2017-03-19T07:58:01Z</time>
      </trkpt>
      <trkpt lat="45.91258" lon="6.48983">
        <ele>1745.41</ele>
        <time>2017-03-19T07:58:16Z</time>
      </trkpt>
      <trkpt lat="45.91256" lon="6.48983">
        <ele>1746.85</ele>
        <time>2017-03-19T07:58:28Z</time>
      </trkpt>
      <trkpt lat="45.91255" lon="6.48991">
        <ele>1748.29</ele>
        <time>2017-03-19T07:58:40Z</time>
      </trkpt>
      <trkpt lat="45.91253" lon="6.48998">
        <ele>1750.7</ele>
        <time>2017-03-19T07:58:52Z</time>
      </trkpt>
      <trkpt lat="45.91251" lon="6.49005">
        <ele>1752.62</ele>
        <time>2017-03-19T07:59:05Z</time>
      </trkpt>
      <trkpt lat="45.9125" lon="6.49009">
        <ele>1753.1</ele>
        <time>2017-03-19T07:59:20Z</time>
      </trkpt>
      <trkpt lat="45.91247" lon="6.49003">
        <ele>1754.06</ele>
        <time>2017-03-19T07:59:30Z</time>
      </trkpt>
      <trkpt lat="45.91242" lon="6.48997">
        <ele>1756.47</ele>
        <time>2017-03-19T07:59:44Z</time>
      </trkpt>
      <trkpt lat="45.91241" lon="6.48996">
        <ele>1756.95</ele>
        <time>2017-03-19T08:00:00Z</time>
      </trkpt>
      <trkpt lat="45.91239" lon="6.48992">
        <ele>1757.91</ele>
        <time>2017-03-19T08:00:20Z</time>
      </trkpt>
      <trkpt lat="45.91237" lon="6.48992">
        <ele>1758.39</ele>
        <time>2017-03-19T08:00:39Z</time>
      </trkpt>
      <trkpt lat="45.91238" lon="6.49002">
        <ele>1759.35</ele>
        <time>2017-03-19T08:00:49Z</time>
      </trkpt>
      <trkpt lat="45.91239" lon="6.49009">
        <ele>1761.27</ele>
        <time>2017-03-19T08:01:04Z</time>
      </trkpt>
      <trkpt lat="45.91241" lon="6.49016">
        <ele>1762.23</ele>
        <time>2017-03-19T08:01:16Z</time>
      </trkpt>
      <trkpt lat="45.91244" lon="6.49024">
        <ele>1763.2</ele>
        <time>2017-03-19T08:01:30Z</time>
      </trkpt>
      <trkpt lat="45.91247" lon="6.49031">
        <ele>1765.12</ele>
        <time>2017-03-19T08:01:42Z</time>
      </trkpt>
      <trkpt lat="45.9125" lon="6.49039">
        <ele>1766.56</ele>
        <time>2017-03-19T08:01:56Z</time>
      </trkpt>
      <trkpt lat="45.91255" lon="6.49048">
        <ele>1768.96</ele>
        <time>2017-03-19T08:02:12Z</time>
      </trkpt>
      <trkpt lat="45.91256" lon="6.49054">
        <ele>1770.41</ele>
        <time>2017-03-19T08:02:26Z</time>
      </trkpt>
      <trkpt lat="45.9125" lon="6.49056">
        <ele>1771.85</ele>
        <time>2017-03-19T08:02:37Z</time>
      </trkpt>
      <trkpt lat="45.91245" lon="6.49058">
        <ele>1774.25</ele>
        <time>2017-03-19T08:02:51Z</time>
      </trkpt>
      <trkpt lat="45.91241" lon="6.49061">
        <ele>1775.21</ele>
        <time>2017-03-19T08:03:02Z</time>
      </trkpt>
      <trkpt lat="45.91243" lon="6.49068">
        <ele>1777.61</ele>
        <time>2017-03-19T08:03:14Z</time>
      </trkpt>
      <trkpt lat="45.91243" lon="6.49075">
        <ele>1779.54</ele>
        <time>2017-03-19T08:03:27Z</time>
      </trkpt>
      <trkpt lat="45.91242" lon="6.49082">
        <ele>1781.46</ele>
        <time>2017-03-19T08:03:39Z</time>
      </trkpt>
      <trkpt lat="45.91243" lon="6.49093">
        <ele>1782.9</ele>
        <time>2017-03-19T08:03:53Z</time>
      </trkpt>
      <trkpt lat="45.91245" lon="6.491">
        <ele>1784.82</ele>
        <time>2017-03-19T08:04:06Z</time>
      </trkpt>
      <trkpt lat="45.91246" lon="6.49109">
        <ele>1786.75</ele>
        <time>2017-03-19T08:04:19Z</time>
      </trkpt>
      <trkpt lat="45.91247" lon="6.49115">
        <ele>1788.19</ele>
        <time>2017-03-19T08:04:31Z</time>
      </trkpt>
      <trkpt lat="45.91247" lon="6.49122">
        <ele>1789.15</ele>
        <time>2017-03-19T08:04:44Z</time>
      </trkpt>
      <trkpt lat="45.91248" lon="6.49128">
        <ele>1792.03</ele>
        <time>2017-03-19T08:04:56Z</time>
      </trkpt>
      <trkpt lat="45.91247" lon="6.49136">
        <ele>1793.48</ele>
        <time>2017-03-19T08:05:09Z</time>
      </trkpt>
      <trkpt lat="45.91246" lon="6.49137">
        <ele>1793.96</ele>
        <time>2017-03-19T08:05:29Z</time>
      </trkpt>
      <trkpt lat="45.91248" lon="6.49149">
        <ele>1796.36</ele>
        <time>2017-03-19T08:05:46Z</time>
      </trkpt>
      <trkpt lat="45.91249" lon="6.49158">
        <ele>1798.28</ele>
        <time>2017-03-19T08:06:00Z</time>
      </trkpt>
      <trkpt lat="45.9125" lon="6.49168">
        <ele>1800.69</ele>
        <time>2017-03-19T08:06:14Z</time>
      </trkpt>
      <trkpt lat="45.91249" lon="6.49176">
        <ele>1802.13</ele>
        <time>2017-03-19T08:06:27Z</time>
      </trkpt>
      <trkpt lat="45.91249" lon="6.49185">
        <ele>1804.53</ele>
        <time>2017-03-19T08:06:41Z</time>
      </trkpt>
      <trkpt lat="45.91247" lon="6.49191">
        <ele>1805.49</ele>
        <time>2017-03-19T08:06:54Z</time>
      </trkpt>
      <trkpt lat="45.91243" lon="6.4919">
        <ele>1807.9</ele>
        <time>2017-03-19T08:07:07Z</time>
      </trkpt>
      <trkpt lat="45.91236" lon="6.49189">
        <ele>1809.82</ele>
        <time>2017-03-19T08:07:20Z</time>
      </trkpt>
      <trkpt lat="45.9123" lon="6.49188">
        <ele>1811.26</ele>
        <time>2017-03-19T08:07:34Z</time>
      </trkpt>
      <trkpt lat="45.91223" lon="6.49186">
        <ele>1813.18</ele>
        <time>2017-03-19T08:07:48Z</time>
      </trkpt>
      <trkpt lat="45.91217" lon="6.49183">
        <ele>1814.63</ele>
        <time>2017-03-19T08:08:03Z</time>
      </trkpt>
      <trkpt lat="45.91212" lon="6.49181">
        <ele>1816.07</ele>
        <time>2017-03-19T08:08:16Z</time>
      </trkpt>
      <trkpt lat="45.91206" lon="6.4918">
        <ele>1817.99</ele>
        <time>2017-03-19T08:08:30Z</time>
      </trkpt>
      <trkpt lat="45.91199" lon="6.49178">
        <ele>1819.91</ele>
        <time>2017-03-19T08:08:45Z</time>
      </trkpt>
      <trkpt lat="45.91193" lon="6.49176">
        <ele>1821.35</ele>
        <time>2017-03-19T08:08:58Z</time>
      </trkpt>
      <trkpt lat="45.91188" lon="6.49172">
        <ele>1822.8</ele>
        <time>2017-03-19T08:09:12Z</time>
      </trkpt>
      <trkpt lat="45.91183" lon="6.49169">
        <ele>1824.72</ele>
        <time>2017-03-19T08:09:27Z</time>
      </trkpt>
      <trkpt lat="45.91178" lon="6.49166">
        <ele>1826.16</ele>
        <time>2017-03-19T08:09:40Z</time>
      </trkpt>
      <trkpt lat="45.91172" lon="6.49163">
        <ele>1827.6</ele>
        <time>2017-03-19T08:09:53Z</time>
      </trkpt>
      <trkpt lat="45.91167" lon="6.4916">
        <ele>1829.05</ele>
        <time>2017-03-19T08:10:06Z</time>
      </trkpt>
      <trkpt lat="45.91161" lon="6.49156">
        <ele>1831.45</ele>
        <time>2017-03-19T08:10:21Z</time>
      </trkpt>
      <trkpt lat="45.91155" lon="6.49152">
        <ele>1832.89</ele>
        <time>2017-03-19T08:10:37Z</time>
      </trkpt>
      <trkpt lat="45.91149" lon="6.49149">
        <ele>1834.33</ele>
        <time>2017-03-19T08:10:50Z</time>
      </trkpt>
      <trkpt lat="45.91146" lon="6.49148">
        <ele>1835.29</ele>
        <time>2017-03-19T08:11:02Z</time>
      </trkpt>
      <trkpt lat="45.91147" lon="6.49155">
        <ele>1836.74</ele>
        <time>2017-03-19T08:11:14Z</time>
      </trkpt>
      <trkpt lat="45.91148" lon="6.49163">
        <ele>1838.66</ele>
        <time>2017-03-19T08:11:28Z</time>
      </trkpt>
      <trkpt lat="45.91148" lon="6.49175">
        <ele>1841.06</ele>
        <time>2017-03-19T08:11:46Z</time>
      </trkpt>
      <trkpt lat="45.91148" lon="6.49181">
        <ele>1842.5</ele>
        <time>2017-03-19T08:11:59Z</time>
      </trkpt>
      <trkpt lat="45.91149" lon="6.49189">
        <ele>1843.95</ele>
        <time>2017-03-19T08:12:13Z</time>
      </trkpt>
      <trkpt lat="45.91151" lon="6.49197">
        <ele>1845.87</ele>
        <time>2017-03-19T08:12:27Z</time>
      </trkpt>
      <trkpt lat="45.91151" lon="6.49207">
        <ele>1847.31</ele>
        <time>2017-03-19T08:12:42Z</time>
      </trkpt>
      <trkpt lat="45.91152" lon="6.49215">
        <ele>1849.23</ele>
        <time>2017-03-19T08:12:56Z</time>
      </trkpt>
      <trkpt lat="45.91152" lon="6.49223">
        <ele>1851.16</ele>
        <time>2017-03-19T08:13:11Z</time>
      </trkpt>
      <trkpt lat="45.91151" lon="6.49231">
        <ele>1853.56</ele>
        <time>2017-03-19T08:13:24Z</time>
      </trkpt>
      <trkpt lat="45.9115" lon="6.49241">
        <ele>1855.48</ele>
        <time>2017-03-19T08:13:39Z</time>
      </trkpt>
      <trkpt lat="45.91147" lon="6.49247">
        <ele>1856.92</ele>
        <time>2017-03-19T08:13:51Z</time>
      </trkpt>
      <trkpt lat="45.91141" lon="6.49249">
        <ele>1858.37</ele>
        <time>2017-03-19T08:14:04Z</time>
      </trkpt>
      <trkpt lat="45.91134" lon="6.49247">
        <ele>1859.33</ele>
        <time>2017-03-19T08:14:19Z</time>
      </trkpt>
      <trkpt lat="45.9113" lon="6.49246">
        <ele>1861.25</ele>
        <time>2017-03-19T08:14:31Z</time>
      </trkpt>
      <trkpt lat="45.91124" lon="6.49243">
        <ele>1862.69</ele>
        <time>2017-03-19T08:14:46Z</time>
      </trkpt>
      <trkpt lat="45.91118" lon="6.49242">
        <ele>1865.58</ele>
        <time>2017-03-19T08:15:01Z</time>
      </trkpt>
      <trkpt lat="45.91114" lon="6.4924">
        <ele>1866.54</ele>
        <time>2017-03-19T08:15:14Z</time>
      </trkpt>
      <trkpt lat="45.91107" lon="6.4924">
        <ele>1868.46</ele>
        <time>2017-03-19T08:15:27Z</time>
      </trkpt>
      <trkpt lat="45.91102" lon="6.4924">
        <ele>1870.38</ele>
        <time>2017-03-19T08:15:40Z</time>
      </trkpt>
      <trkpt lat="45.91096" lon="6.49241">
        <ele>1871.82</ele>
        <time>2017-03-19T08:15:53Z</time>
      </trkpt>
      <trkpt lat="45.91091" lon="6.49241">
        <ele>1873.27</ele>
        <time>2017-03-19T08:16:06Z</time>
      </trkpt>
      <trkpt lat="45.91086" lon="6.49243">
        <ele>1874.71</ele>
        <time>2017-03-19T08:16:19Z</time>
      </trkpt>
      <trkpt lat="45.91081" lon="6.49244">
        <ele>1876.63</ele>
        <time>2017-03-19T08:16:32Z</time>
      </trkpt>
      <trkpt lat="45.91075" lon="6.49244">
        <ele>1877.11</ele>
        <time>2017-03-19T08:16:45Z</time>
      </trkpt>
      <trkpt lat="45.91071" lon="6.49243">
        <ele>1879.51</ele>
        <time>2017-03-19T08:16:57Z</time>
      </trkpt>
      <trkpt lat="45.91066" lon="6.4924">
        <ele>1880.96</ele>
        <time>2017-03-19T08:17:10Z</time>
      </trkpt>
      <trkpt lat="45.91061" lon="6.49237">
        <ele>1882.88</ele>
        <time>2017-03-19T08:17:23Z</time>
      </trkpt>
      <trkpt lat="45.91057" lon="6.49235">
        <ele>1884.8</ele>
        <time>2017-03-19T08:17:38Z</time>
      </trkpt>
      <trkpt lat="45.91054" lon="6.49243">
        <ele>1885.76</ele>
        <time>2017-03-19T08:17:50Z</time>
      </trkpt>
      <trkpt lat="45.91051" lon="6.49254">
        <ele>1887.21</ele>
        <time>2017-03-19T08:18:03Z</time>
      </trkpt>
      <trkpt lat="45.91049" lon="6.49261">
        <ele>1888.65</ele>
        <time>2017-03-19T08:18:17Z</time>
      </trkpt>
      <trkpt lat="45.91047" lon="6.49269">
        <ele>1890.09</ele>
        <time>2017-03-19T08:18:32Z</time>
      </trkpt>
      <trkpt lat="45.91046" lon="6.49276">
        <ele>1892.97</ele>
        <time>2017-03-19T08:18:46Z</time>
      </trkpt>
      <trkpt lat="45.91044" lon="6.49286">
        <ele>1894.42</ele>
        <time>2017-03-19T08:19:02Z</time>
      </trkpt>
      <trkpt lat="45.91042" lon="6.49294">
        <ele>1896.34</ele>
        <time>2017-03-19T08:19:17Z</time>
      </trkpt>
      <trkpt lat="45.91042" lon="6.493">
        <ele>1898.26</ele>
        <time>2017-03-19T08:19:30Z</time>
      </trkpt>
      <trkpt lat="45.91042" lon="6.49307">
        <ele>1899.7</ele>
        <time>2017-03-19T08:19:43Z</time>
      </trkpt>
      <trkpt lat="45.91042" lon="6.49315">
        <ele>1902.11</ele>
        <time>2017-03-19T08:19:57Z</time>
      </trkpt>
      <trkpt lat="45.91042" lon="6.49323">
        <ele>1904.03</ele>
        <time>2017-03-19T08:20:10Z</time>
      </trkpt>
      <trkpt lat="45.91042" lon="6.4933">
        <ele>1905.47</ele>
        <time>2017-03-19T08:20:23Z</time>
      </trkpt>
      <trkpt lat="45.91041" lon="6.4934">
        <ele>1906.43</ele>
        <time>2017-03-19T08:20:36Z</time>
      </trkpt>
      <trkpt lat="45.91041" lon="6.49348">
        <ele>1909.32</ele>
        <time>2017-03-19T08:20:50Z</time>
      </trkpt>
      <trkpt lat="45.91043" lon="6.49358">
        <ele>1911.24</ele>
        <time>2017-03-19T08:21:05Z</time>
      </trkpt>
      <trkpt lat="45.91043" lon="6.49365">
        <ele>1912.68</ele>
        <time>2017-03-19T08:21:19Z</time>
      </trkpt>
      <trkpt lat="45.91044" lon="6.49371">
        <ele>1914.12</ele>
        <time>2017-03-19T08:21:33Z</time>
      </trkpt>
      <trkpt lat="45.91042" lon="6.49378">
        <ele>1915.56</ele>
        <time>2017-03-19T08:21:50Z</time>
      </trkpt>
      <trkpt lat="45.91037" lon="6.4938">
        <ele>1917.01</ele>
        <time>2017-03-19T08:22:04Z</time>
      </trkpt>
      <trkpt lat="45.91031" lon="6.49384">
        <ele>1918.45</ele>
        <time>2017-03-19T08:22:15Z</time>
      </trkpt>
      <trkpt lat="45.91026" lon="6.49388">
        <ele>1920.37</ele>
        <time>2017-03-19T08:22:28Z</time>
      </trkpt>
      <trkpt lat="45.91023" lon="6.49389">
        <ele>1922.29</ele>
        <time>2017-03-19T08:22:39Z</time>
      </trkpt>
      <trkpt lat="45.91019" lon="6.4939">
        <ele>1923.74</ele>
        <time>2017-03-19T08:22:52Z</time>
      </trkpt>
      <trkpt lat="45.91014" lon="6.49389">
        <ele>1925.18</ele>
        <time>2017-03-19T08:23:05Z</time>
      </trkpt>
      <trkpt lat="45.91007" lon="6.49388">
        <ele>1927.1</ele>
        <time>2017-03-19T08:23:17Z</time>
      </trkpt>
      <trkpt lat="45.91002" lon="6.49386">
        <ele>1928.54</ele>
        <time>2017-03-19T08:23:32Z</time>
      </trkpt>
      <trkpt lat="45.90997" lon="6.49386">
        <ele>1930.46</ele>
        <time>2017-03-19T08:23:46Z</time>
      </trkpt>
      <trkpt lat="45.90993" lon="6.49385">
        <ele>1931.43</ele>
        <time>2017-03-19T08:23:57Z</time>
      </trkpt>
      <trkpt lat="45.90988" lon="6.49382">
        <ele>1932.87</ele>
        <time>2017-03-19T08:24:09Z</time>
      </trkpt>
      <trkpt lat="45.90985" lon="6.49383">
        <ele>1933.83</ele>
        <time>2017-03-19T08:24:21Z</time>
      </trkpt>
      <trkpt lat="45.90979" lon="6.4938">
        <ele>1936.23</ele>
        <time>2017-03-19T08:24:34Z</time>
      </trkpt>
      <trkpt lat="45.90973" lon="6.49376">
        <ele>1937.67</ele>
        <time>2017-03-19T08:24:48Z</time>
      </trkpt>
      <trkpt lat="45.90968" lon="6.49374">
        <ele>1940.08</ele>
        <time>2017-03-19T08:25:02Z</time>
      </trkpt>
      <trkpt lat="45.90963" lon="6.49373">
        <ele>1941.52</ele>
        <time>2017-03-19T08:25:15Z</time>
      </trkpt>
      <trkpt lat="45.90959" lon="6.4937">
        <ele>1942.48</ele>
        <time>2017-03-19T08:25:29Z</time>
      </trkpt>
      <trkpt lat="45.90954" lon="6.49367">
        <ele>1943.92</ele>
        <time>2017-03-19T08:25:44Z</time>
      </trkpt>
      <trkpt lat="45.9095" lon="6.49362">
        <ele>1945.36</ele>
        <time>2017-03-19T08:25:56Z</time>
      </trkpt>
      <trkpt lat="45.90945" lon="6.49358">
        <ele>1947.29</ele>
        <time>2017-03-19T08:26:10Z</time>
      </trkpt>
      <trkpt lat="45.90941" lon="6.49355">
        <ele>1949.21</ele>
        <time>2017-03-19T08:26:22Z</time>
      </trkpt>
      <trkpt lat="45.90941" lon="6.49362">
        <ele>1950.17</ele>
        <time>2017-03-19T08:26:33Z</time>
      </trkpt>
      <trkpt lat="45.9094" lon="6.49373">
        <ele>1951.61</ele>
        <time>2017-03-19T08:26:48Z</time>
      </trkpt>
      <trkpt lat="45.9094" lon="6.4938">
        <ele>1953.06</ele>
        <time>2017-03-19T08:27:02Z</time>
      </trkpt>
      <trkpt lat="45.90939" lon="6.4939">
        <ele>1954.98</ele>
        <time>2017-03-19T08:27:17Z</time>
      </trkpt>
      <trkpt lat="45.90939" lon="6.49396">
        <ele>1956.42</ele>
        <time>2017-03-19T08:27:29Z</time>
      </trkpt>
      <trkpt lat="45.90939" lon="6.49404">
        <ele>1957.86</ele>
        <time>2017-03-19T08:27:43Z</time>
      </trkpt>
      <trkpt lat="45.9094" lon="6.49411">
        <ele>1958.34</ele>
        <time>2017-03-19T08:27:56Z</time>
      </trkpt>
      <trkpt lat="45.90939" lon="6.49421">
        <ele>1960.75</ele>
        <time>2017-03-19T08:28:12Z</time>
      </trkpt>
      <trkpt lat="45.9094" lon="6.49428">
        <ele>1962.19</ele>
        <time>2017-03-19T08:28:26Z</time>
      </trkpt>
      <trkpt lat="45.90943" lon="6.49437">
        <ele>1964.11</ele>
        <time>2017-03-19T08:28:40Z</time>
      </trkpt>
      <trkpt lat="45.90947" lon="6.49445">
        <ele>1966.03</ele>
        <time>2017-03-19T08:28:54Z</time>
      </trkpt>
      <trkpt lat="45.90948" lon="6.49447">
        <ele>1966.99</ele>
        <time>2017-03-19T08:29:09Z</time>
      </trkpt>
      <trkpt lat="45.9095" lon="6.49451">
        <ele>1967.96</ele>
        <time>2017-03-19T08:29:26Z</time>
      </trkpt>
      <trkpt lat="45.90943" lon="6.4945">
        <ele>1969.88</ele>
        <time>2017-03-19T08:29:42Z</time>
      </trkpt>
      <trkpt lat="45.90935" lon="6.49449">
        <ele>1971.8</ele>
        <time>2017-03-19T08:29:59Z</time>
      </trkpt>
      <trkpt lat="45.90928" lon="6.49447">
        <ele>1973.72</ele>
        <time>2017-03-19T08:30:14Z</time>
      </trkpt>
      <trkpt lat="45.90923" lon="6.49444">
        <ele>1975.17</ele>
        <time>2017-03-19T08:30:28Z</time>
      </trkpt>
      <trkpt lat="45.90918" lon="6.49441">
        <ele>1976.61</ele>
        <time>2017-03-19T08:30:42Z</time>
      </trkpt>
      <trkpt lat="45.90914" lon="6.49439">
        <ele>1978.05</ele>
        <time>2017-03-19T08:30:54Z</time>
      </trkpt>
      <trkpt lat="45.90909" lon="6.49434">
        <ele>1979.49</ele>
        <time>2017-03-19T08:31:08Z</time>
      </trkpt>
      <trkpt lat="45.90903" lon="6.49427">
        <ele>1980.93</ele>
        <time>2017-03-19T08:31:23Z</time>
      </trkpt>
      <trkpt lat="45.90899" lon="6.49422">
        <ele>1981.9</ele>
        <time>2017-03-19T08:31:36Z</time>
      </trkpt>
      <trkpt lat="45.90894" lon="6.49412">
        <ele>1983.82</ele>
        <time>2017-03-19T08:31:50Z</time>
      </trkpt>
      <trkpt lat="45.90891" lon="6.49408">
        <ele>1985.74</ele>
        <time>2017-03-19T08:32:03Z</time>
      </trkpt>
      <trkpt lat="45.9089" lon="6.49406">
        <ele>1986.22</ele>
        <time>2017-03-19T08:32:16Z</time>
      </trkpt>
      <trkpt lat="45.90889" lon="6.49404">
        <ele>1987.18</ele>
        <time>2017-03-19T08:32:31Z</time>
      </trkpt>
      <trkpt lat="45.90889" lon="6.49411">
        <ele>1987.66</ele>
        <time>2017-03-19T08:32:43Z</time>
      </trkpt>
      <trkpt lat="45.90886" lon="6.49423">
        <ele>1990.55</ele>
        <time>2017-03-19T08:32:59Z</time>
      </trkpt>
      <trkpt lat="45.90885" lon="6.49433">
        <ele>1992.47</ele>
        <time>2017-03-19T08:33:15Z</time>
      </trkpt>
      <trkpt lat="45.90886" lon="6.49445">
        <ele>1994.39</ele>
        <time>2017-03-19T08:33:29Z</time>
      </trkpt>
      <trkpt lat="45.90888" lon="6.49457">
        <ele>1997.28</ele>
        <time>2017-03-19T08:33:45Z</time>
      </trkpt>
      <trkpt lat="45.90889" lon="6.49467">
        <ele>1998.72</ele>
        <time>2017-03-19T08:34:02Z</time>
      </trkpt>
      <trkpt lat="45.90891" lon="6.49473">
        <ele>2000.64</ele>
        <time>2017-03-19T08:34:15Z</time>
      </trkpt>
      <trkpt lat="45.90892" lon="6.49477">
        <ele>2001.6</ele>
        <time>2017-03-19T08:34:29Z</time>
      </trkpt>
      <trkpt lat="45.9089" lon="6.49478">
        <ele>2002.08</ele>
        <time>2017-03-19T08:34:44Z</time>
      </trkpt>
      <trkpt lat="45.90882" lon="6.49475">
        <ele>2004.49</ele>
        <time>2017-03-19T08:34:56Z</time>
      </trkpt>
      <trkpt lat="45.90875" lon="6.49475">
        <ele>2006.41</ele>
        <time>2017-03-19T08:35:11Z</time>
      </trkpt>
      <trkpt lat="45.90868" lon="6.4947">
        <ele>2008.33</ele>
        <time>2017-03-19T08:35:25Z</time>
      </trkpt>
      <trkpt lat="45.90863" lon="6.49465">
        <ele>2010.25</ele>
        <time>2017-03-19T08:35:37Z</time>
      </trkpt>
      <trkpt lat="45.9086" lon="6.49465">
        <ele>2010.73</ele>
        <time>2017-03-19T08:35:52Z</time>
      </trkpt>
      <trkpt lat="45.90858" lon="6.49463">
        <ele>2012.18</ele>
        <time>2017-03-19T08:36:04Z</time>
      </trkpt>
      <trkpt lat="45.90858" lon="6.4947">
        <ele>2013.14</ele>
        <time>2017-03-19T08:36:15Z</time>
      </trkpt>
      <trkpt lat="45.90859" lon="6.4948">
        <ele>2014.1</ele>
        <time>2017-03-19T08:36:28Z</time>
      </trkpt>
      <trkpt lat="45.90859" lon="6.49496">
        <ele>2016.5</ele>
        <time>2017-03-19T08:36:46Z</time>
      </trkpt>
      <trkpt lat="45.9086" lon="6.49498">
        <ele>2017.46</ele>
        <time>2017-03-19T08:37:01Z</time>
      </trkpt>
      <trkpt lat="45.90859" lon="6.495">
        <ele>2018.43</ele>
        <time>2017-03-19T08:37:41Z</time>
      </trkpt>
      <trkpt lat="45.90858" lon="6.49499">
        <ele>2016.98</ele>
        <time>2017-03-19T08:38:07Z</time>
      </trkpt>
      <trkpt lat="45.90857" lon="6.495">
        <ele>2017.94</ele>
        <time>2017-03-19T08:40:48Z</time>
      </trkpt>
      <trkpt lat="45.90858" lon="6.49506">
        <ele>2019.39</ele>
        <time>2017-03-19T08:44:48Z</time>
      </trkpt>
      <trkpt lat="45.90853" lon="6.49515">
        <ele>2021.31</ele>
        <time>2017-03-19T08:45:02Z</time>
      </trkpt>
      <trkpt lat="45.90848" lon="6.49523">
        <ele>2023.71</ele>
        <time>2017-03-19T08:45:15Z</time>
      </trkpt>
      <trkpt lat="45.90845" lon="6.4953">
        <ele>2026.12</ele>
        <time>2017-03-19T08:45:28Z</time>
      </trkpt>
      <trkpt lat="45.90841" lon="6.49535">
        <ele>2027.56</ele>
        <time>2017-03-19T08:45:39Z</time>
      </trkpt>
      <trkpt lat="45.90837" lon="6.4954">
        <ele>2029</ele>
        <time>2017-03-19T08:45:53Z</time>
      </trkpt>
      <trkpt lat="45.90831" lon="6.49544">
        <ele>2030.92</ele>
        <time>2017-03-19T08:46:04Z</time>
      </trkpt>
      <trkpt lat="45.90828" lon="6.49552">
        <ele>2032.36</ele>
        <time>2017-03-19T08:46:16Z</time>
      </trkpt>
      <trkpt lat="45.90825" lon="6.49561">
        <ele>2034.77</ele>
        <time>2017-03-19T08:46:32Z</time>
      </trkpt>
      <trkpt lat="45.90823" lon="6.49567">
        <ele>2037.17</ele>
        <time>2017-03-19T08:46:44Z</time>
      </trkpt>
      <trkpt lat="45.9082" lon="6.49576">
        <ele>2039.57</ele>
        <time>2017-03-19T08:46:59Z</time>
      </trkpt>
      <trkpt lat="45.9082" lon="6.49585">
        <ele>2041.98</ele>
        <time>2017-03-19T08:47:13Z</time>
      </trkpt>
      <trkpt lat="45.90822" lon="6.49594">
        <ele>2044.38</ele>
        <time>2017-03-19T08:47:28Z</time>
      </trkpt>
      <trkpt lat="45.90825" lon="6.49604">
        <ele>2046.3</ele>
        <time>2017-03-19T08:47:41Z</time>
      </trkpt>
      <trkpt lat="45.90827" lon="6.49615">
        <ele>2048.71</ele>
        <time>2017-03-19T08:48:01Z</time>
      </trkpt>
      <trkpt lat="45.90833" lon="6.49624">
        <ele>2050.63</ele>
        <time>2017-03-19T08:48:14Z</time>
      </trkpt>
      <trkpt lat="45.90836" lon="6.49628">
        <ele>2051.59</ele>
        <time>2017-03-19T08:48:31Z</time>
      </trkpt>
      <trkpt lat="45.90836" lon="6.49629">
        <ele>2051.59</ele>
        <time>2017-03-19T08:48:32Z</time>
      </trkpt>
      <trkpt lat="45.90831" lon="6.49627">
        <ele>2053.03</ele>
        <time>2017-03-19T08:48:42Z</time>
      </trkpt>
      <trkpt lat="45.90822" lon="6.49626">
        <ele>2055.44</ele>
        <time>2017-03-19T08:48:55Z</time>
      </trkpt>
      <trkpt lat="45.90811" lon="6.49627">
        <ele>2057.36</ele>
        <time>2017-03-19T08:49:15Z</time>
      </trkpt>
      <trkpt lat="45.90803" lon="6.49626">
        <ele>2060.24</ele>
        <time>2017-03-19T08:49:30Z</time>
      </trkpt>
      <trkpt lat="45.90799" lon="6.49625">
        <ele>2061.2</ele>
        <time>2017-03-19T08:49:43Z</time>
      </trkpt>
      <trkpt lat="45.90792" lon="6.49626">
        <ele>2063.13</ele>
        <time>2017-03-19T08:49:57Z</time>
      </trkpt>
      <trkpt lat="45.90786" lon="6.49627">
        <ele>2064.57</ele>
        <time>2017-03-19T08:50:09Z</time>
      </trkpt>
      <trkpt lat="45.90781" lon="6.49627">
        <ele>2066.97</ele>
        <time>2017-03-19T08:50:22Z</time>
      </trkpt>
      <trkpt lat="45.90774" lon="6.49627">
        <ele>2068.89</ele>
        <time>2017-03-19T08:50:37Z</time>
      </trkpt>
      <trkpt lat="45.90768" lon="6.49625">
        <ele>2070.82</ele>
        <time>2017-03-19T08:50:51Z</time>
      </trkpt>
      <trkpt lat="45.90761" lon="6.49624">
        <ele>2072.26</ele>
        <time>2017-03-19T08:51:02Z</time>
      </trkpt>
      <trkpt lat="45.90752" lon="6.49624">
        <ele>2075.62</ele>
        <time>2017-03-19T08:51:16Z</time>
      </trkpt>
      <trkpt lat="45.90752" lon="6.49625">
        <ele>2076.1</ele>
        <time>2017-03-19T08:51:17Z</time>
      </trkpt>
      <trkpt lat="45.90755" lon="6.49639">
        <ele>2078.51</ele>
        <time>2017-03-19T08:51:33Z</time>
      </trkpt>
      <trkpt lat="45.90757" lon="6.49649">
        <ele>2079.95</ele>
        <time>2017-03-19T08:51:49Z</time>
      </trkpt>
      <trkpt lat="45.90759" lon="6.49661">
        <ele>2081.87</ele>
        <time>2017-03-19T08:52:05Z</time>
      </trkpt>
      <trkpt lat="45.90762" lon="6.49672">
        <ele>2084.28</ele>
        <time>2017-03-19T08:52:24Z</time>
      </trkpt>
      <trkpt lat="45.90765" lon="6.49685">
        <ele>2086.2</ele>
        <time>2017-03-19T08:52:40Z</time>
      </trkpt>
      <trkpt lat="45.90768" lon="6.49695">
        <ele>2088.12</ele>
        <time>2017-03-19T08:52:54Z</time>
      </trkpt>
      <trkpt lat="45.90765" lon="6.49707">
        <ele>2090.52</ele>
        <time>2017-03-19T08:53:10Z</time>
      </trkpt>
      <trkpt lat="45.9076" lon="6.49717">
        <ele>2092.45</ele>
        <time>2017-03-19T08:53:25Z</time>
      </trkpt>
      <trkpt lat="45.90754" lon="6.49729">
        <ele>2095.33</ele>
        <time>2017-03-19T08:53:43Z</time>
      </trkpt>
      <trkpt lat="45.90749" lon="6.49737">
        <ele>2096.29</ele>
        <time>2017-03-19T08:53:56Z</time>
      </trkpt>
      <trkpt lat="45.90742" lon="6.49744">
        <ele>2098.21</ele>
        <time>2017-03-19T08:54:12Z</time>
      </trkpt>
      <trkpt lat="45.90735" lon="6.49748">
        <ele>2099.66</ele>
        <time>2017-03-19T08:54:22Z</time>
      </trkpt>
      <trkpt lat="45.9073" lon="6.49753">
        <ele>2101.58</ele>
        <time>2017-03-19T08:54:38Z</time>
      </trkpt>
      <trkpt lat="45.90724" lon="6.49757">
        <ele>2104.46</ele>
        <time>2017-03-19T08:54:54Z</time>
      </trkpt>
      <trkpt lat="45.90717" lon="6.49759">
        <ele>2105.42</ele>
        <time>2017-03-19T08:55:09Z</time>
      </trkpt>
      <trkpt lat="45.90711" lon="6.4976">
        <ele>2107.35</ele>
        <time>2017-03-19T08:55:22Z</time>
      </trkpt>
      <trkpt lat="45.90708" lon="6.49759">
        <ele>2107.83</ele>
        <time>2017-03-19T08:55:32Z</time>
      </trkpt>
      <trkpt lat="45.90701" lon="6.49758">
        <ele>2110.23</ele>
        <time>2017-03-19T08:55:45Z</time>
      </trkpt>
      <trkpt lat="45.90697" lon="6.49757">
        <ele>2111.67</ele>
        <time>2017-03-19T08:55:51Z</time>
      </trkpt>
      <trkpt lat="45.90693" lon="6.49756">
        <ele>2113.12</ele>
        <time>2017-03-19T08:56:05Z</time>
      </trkpt>
      <trkpt lat="45.90685" lon="6.49757">
        <ele>2115.04</ele>
        <time>2017-03-19T08:56:20Z</time>
      </trkpt>
      <trkpt lat="45.9068" lon="6.49757">
        <ele>2116.48</ele>
        <time>2017-03-19T08:56:30Z</time>
      </trkpt>
      <trkpt lat="45.90672" lon="6.49756">
        <ele>2118.4</ele>
        <time>2017-03-19T08:56:45Z</time>
      </trkpt>
      <trkpt lat="45.90666" lon="6.49756">
        <ele>2119.84</ele>
        <time>2017-03-19T08:56:59Z</time>
      </trkpt>
      <trkpt lat="45.9066" lon="6.49756">
        <ele>2121.77</ele>
        <time>2017-03-19T08:57:13Z</time>
      </trkpt>
      <trkpt lat="45.90656" lon="6.49764">
        <ele>2123.21</ele>
        <time>2017-03-19T08:57:27Z</time>
      </trkpt>
      <trkpt lat="45.90654" lon="6.49772">
        <ele>2125.61</ele>
        <time>2017-03-19T08:57:45Z</time>
      </trkpt>
      <trkpt lat="45.90658" lon="6.49782">
        <ele>2127.05</ele>
        <time>2017-03-19T08:58:01Z</time>
      </trkpt>
      <trkpt lat="45.90663" lon="6.49789">
        <ele>2129.46</ele>
        <time>2017-03-19T08:58:14Z</time>
      </trkpt>
      <trkpt lat="45.90666" lon="6.49797">
        <ele>2131.38</ele>
        <time>2017-03-19T08:58:28Z</time>
      </trkpt>
      <trkpt lat="45.90669" lon="6.49804">
        <ele>2132.82</ele>
        <time>2017-03-19T08:58:41Z</time>
      </trkpt>
      <trkpt lat="45.90673" lon="6.49813">
        <ele>2135.23</ele>
        <time>2017-03-19T08:58:56Z</time>
      </trkpt>
      <trkpt lat="45.90676" lon="6.49819">
        <ele>2137.15</ele>
        <time>2017-03-19T08:59:10Z</time>
      </trkpt>
      <trkpt lat="45.90678" lon="6.49825">
        <ele>2139.55</ele>
        <time>2017-03-19T08:59:23Z</time>
      </trkpt>
      <trkpt lat="45.90681" lon="6.4983">
        <ele>2141.47</ele>
        <time>2017-03-19T08:59:37Z</time>
      </trkpt>
      <trkpt lat="45.90682" lon="6.49836">
        <ele>2143.4</ele>
        <time>2017-03-19T08:59:50Z</time>
      </trkpt>
      <trkpt lat="45.90675" lon="6.49839">
        <ele>2145.32</ele>
        <time>2017-03-19T09:00:02Z</time>
      </trkpt>
      <trkpt lat="45.90669" lon="6.49844">
        <ele>2146.76</ele>
        <time>2017-03-19T09:00:20Z</time>
      </trkpt>
      <trkpt lat="45.90664" lon="6.49846">
        <ele>2148.68</ele>
        <time>2017-03-19T09:00:32Z</time>
      </trkpt>
      <trkpt lat="45.9066" lon="6.49848">
        <ele>2150.61</ele>
        <time>2017-03-19T09:00:43Z</time>
      </trkpt>
      <trkpt lat="45.90654" lon="6.49851">
        <ele>2153.01</ele>
        <time>2017-03-19T09:00:57Z</time>
      </trkpt>
      <trkpt lat="45.90647" lon="6.49853">
        <ele>2155.41</ele>
        <time>2017-03-19T09:01:12Z</time>
      </trkpt>
      <trkpt lat="45.90637" lon="6.49855">
        <ele>2157.82</ele>
        <time>2017-03-19T09:01:26Z</time>
      </trkpt>
      <trkpt lat="45.90634" lon="6.49859">
        <ele>2159.74</ele>
        <time>2017-03-19T09:01:40Z</time>
      </trkpt>
      <trkpt lat="45.90626" lon="6.49863">
        <ele>2161.18</ele>
        <time>2017-03-19T09:01:57Z</time>
      </trkpt>
      <trkpt lat="45.9062" lon="6.49872">
        <ele>2162.14</ele>
        <time>2017-03-19T09:02:11Z</time>
      </trkpt>
      <trkpt lat="45.90617" lon="6.49881">
        <ele>2164.06</ele>
        <time>2017-03-19T09:02:24Z</time>
      </trkpt>
      <trkpt lat="45.9061" lon="6.49893">
        <ele>2165.51</ele>
        <time>2017-03-19T09:02:39Z</time>
      </trkpt>
      <trkpt lat="45.90606" lon="6.499">
        <ele>2167.43</ele>
        <time>2017-03-19T09:02:50Z</time>
      </trkpt>
      <trkpt lat="45.90601" lon="6.49906">
        <ele>2168.87</ele>
        <time>2017-03-19T09:03:04Z</time>
      </trkpt>
      <trkpt lat="45.90596" lon="6.49912">
        <ele>2170.79</ele>
        <time>2017-03-19T09:03:18Z</time>
      </trkpt>
      <trkpt lat="45.9059" lon="6.4992">
        <ele>2173.2</ele>
        <time>2017-03-19T09:03:34Z</time>
      </trkpt>
      <trkpt lat="45.90583" lon="6.49931">
        <ele>2175.12</ele>
        <time>2017-03-19T09:03:52Z</time>
      </trkpt>
      <trkpt lat="45.90578" lon="6.49937">
        <ele>2177.52</ele>
        <time>2017-03-19T09:04:06Z</time>
      </trkpt>
      <trkpt lat="45.90576" lon="6.49944">
        <ele>2178.97</ele>
        <time>2017-03-19T09:04:19Z</time>
      </trkpt>
      <trkpt lat="45.90573" lon="6.49956">
        <ele>2180.89</ele>
        <time>2017-03-19T09:04:32Z</time>
      </trkpt>
      <trkpt lat="45.90569" lon="6.49966">
        <ele>2182.33</ele>
        <time>2017-03-19T09:04:46Z</time>
      </trkpt>
      <trkpt lat="45.90565" lon="6.49978">
        <ele>2184.73</ele>
        <time>2017-03-19T09:05:02Z</time>
      </trkpt>
      <trkpt lat="45.90559" lon="6.49989">
        <ele>2185.69</ele>
        <time>2017-03-19T09:05:16Z</time>
      </trkpt>
      <trkpt lat="45.90557" lon="6.49994">
        <ele>2186.66</ele>
        <time>2017-03-19T09:05:22Z</time>
      </trkpt>
      <trkpt lat="45.90552" lon="6.50007">
        <ele>2187.62</ele>
        <time>2017-03-19T09:05:38Z</time>
      </trkpt>
      <trkpt lat="45.90548" lon="6.50019">
        <ele>2187.62</ele>
        <time>2017-03-19T09:05:53Z</time>
      </trkpt>
      <trkpt lat="45.90546" lon="6.50027">
        <ele>2187.14</ele>
        <time>2017-03-19T09:06:02Z</time>
      </trkpt>
      <trkpt lat="45.90542" lon="6.5004">
        <ele>2188.1</ele>
        <time>2017-03-19T09:06:17Z</time>
      </trkpt>
      <trkpt lat="45.90538" lon="6.50053">
        <ele>2189.06</ele>
        <time>2017-03-19T09:06:29Z</time>
      </trkpt>
      <trkpt lat="45.90534" lon="6.50067">
        <ele>2190.5</ele>
        <time>2017-03-19T09:06:45Z</time>
      </trkpt>
      <trkpt lat="45.90528" lon="6.5008">
        <ele>2190.5</ele>
        <time>2017-03-19T09:06:58Z</time>
      </trkpt>
      <trkpt lat="45.90525" lon="6.50089">
        <ele>2191.46</ele>
        <time>2017-03-19T09:07:07Z</time>
      </trkpt>
      <trkpt lat="45.90521" lon="6.50105">
        <ele>2192.42</ele>
        <time>2017-03-19T09:07:21Z</time>
      </trkpt>
      <trkpt lat="45.90518" lon="6.50117">
        <ele>2192.9</ele>
        <time>2017-03-19T09:07:32Z</time>
      </trkpt>
      <trkpt lat="45.90518" lon="6.50134">
        <ele>2193.87</ele>
        <time>2017-03-19T09:07:46Z</time>
      </trkpt>
      <trkpt lat="45.90517" lon="6.5014">
        <ele>2194.35</ele>
        <time>2017-03-19T09:07:51Z</time>
      </trkpt>
      <trkpt lat="45.90518" lon="6.50153">
        <ele>2195.31</ele>
        <time>2017-03-19T09:08:04Z</time>
      </trkpt>
      <trkpt lat="45.90517" lon="6.50165">
        <ele>2197.71</ele>
        <time>2017-03-19T09:08:17Z</time>
      </trkpt>
      <trkpt lat="45.9052" lon="6.50176">
        <ele>2198.67</ele>
        <time>2017-03-19T09:08:30Z</time>
      </trkpt>
      <trkpt lat="45.90525" lon="6.50186">
        <ele>2200.11</ele>
        <time>2017-03-19T09:08:44Z</time>
      </trkpt>
      <trkpt lat="45.90527" lon="6.50194">
        <ele>2201.08</ele>
        <time>2017-03-19T09:08:58Z</time>
      </trkpt>
      <trkpt lat="45.90531" lon="6.50206">
        <ele>2203</ele>
        <time>2017-03-19T09:09:13Z</time>
      </trkpt>
      <trkpt lat="45.90532" lon="6.50212">
        <ele>2203.96</ele>
        <time>2017-03-19T09:09:19Z</time>
      </trkpt>
      <trkpt lat="45.90529" lon="6.50225">
        <ele>2204.92</ele>
        <time>2017-03-19T09:09:33Z</time>
      </trkpt>
      <trkpt lat="45.90525" lon="6.50238">
        <ele>2206.36</ele>
        <time>2017-03-19T09:09:46Z</time>
      </trkpt>
      <trkpt lat="45.90523" lon="6.50246">
        <ele>2208.29</ele>
        <time>2017-03-19T09:09:59Z</time>
      </trkpt>
      <trkpt lat="45.90519" lon="6.50257">
        <ele>2210.69</ele>
        <time>2017-03-19T09:10:14Z</time>
      </trkpt>
      <trkpt lat="45.90519" lon="6.50259">
        <ele>2211.65</ele>
        <time>2017-03-19T09:10:16Z</time>
      </trkpt>
      <trkpt lat="45.90515" lon="6.5027">
        <ele>2212.61</ele>
        <time>2017-03-19T09:10:30Z</time>
      </trkpt>
      <trkpt lat="45.90517" lon="6.50272">
        <ele>2214.53</ele>
        <time>2017-03-19T09:10:43Z</time>
      </trkpt>
      <trkpt lat="45.90517" lon="6.50281">
        <ele>2215.98</ele>
        <time>2017-03-19T09:10:56Z</time>
      </trkpt>
      <trkpt lat="45.90518" lon="6.50287">
        <ele>2217.9</ele>
        <time>2017-03-19T09:11:10Z</time>
      </trkpt>
      <trkpt lat="45.90518" lon="6.50293">
        <ele>2220.3</ele>
        <time>2017-03-19T09:11:24Z</time>
      </trkpt>
      <trkpt lat="45.90517" lon="6.50302">
        <ele>2222.22</ele>
        <time>2017-03-19T09:11:40Z</time>
      </trkpt>
      <trkpt lat="45.90511" lon="6.50309">
        <ele>2224.15</ele>
        <time>2017-03-19T09:11:54Z</time>
      </trkpt>
      <trkpt lat="45.90506" lon="6.50312">
        <ele>2227.51</ele>
        <time>2017-03-19T09:12:03Z</time>
      </trkpt>
      <trkpt lat="45.90506" lon="6.50313">
        <ele>2227.03</ele>
        <time>2017-03-19T09:12:04Z</time>
      </trkpt>
      <trkpt lat="45.90506" lon="6.50314">
        <ele>2226.07</ele>
        <time>2017-03-19T09:12:06Z</time>
      </trkpt>
      <trkpt lat="45.90503" lon="6.50317">
        <ele>2227.51</ele>
        <time>2017-03-19T09:12:20Z</time>
      </trkpt>
      <trkpt lat="45.90499" lon="6.5032">
        <ele>2229.92</ele>
        <time>2017-03-19T09:12:31Z</time>
      </trkpt>
      <trkpt lat="45.90497" lon="6.5032">
        <ele>2231.36</ele>
        <time>2017-03-19T09:12:34Z</time>
      </trkpt>
      <trkpt lat="45.90494" lon="6.50322">
        <ele>2231.36</ele>
        <time>2017-03-19T09:12:40Z</time>
      </trkpt>
      <trkpt lat="45.90491" lon="6.50324">
        <ele>2232.32</ele>
        <time>2017-03-19T09:12:54Z</time>
      </trkpt>
      <trkpt lat="45.90485" lon="6.50328">
        <ele>2235.68</ele>
        <time>2017-03-19T09:13:05Z</time>
      </trkpt>
      <trkpt lat="45.90481" lon="6.50329">
        <ele>2236.16</ele>
        <time>2017-03-19T09:13:18Z</time>
      </trkpt>
      <trkpt lat="45.90475" lon="6.50328">
        <ele>2239.53</ele>
        <time>2017-03-19T09:13:28Z</time>
      </trkpt>
      <trkpt lat="45.9047" lon="6.50327">
        <ele>2240.49</ele>
        <time>2017-03-19T09:13:41Z</time>
      </trkpt>
      <trkpt lat="45.90471" lon="6.50327">
        <ele>2239.53</ele>
        <time>2017-03-19T09:13:42Z</time>
      </trkpt>
      <trkpt lat="45.90469" lon="6.50326">
        <ele>2240.01</ele>
        <time>2017-03-19T09:13:47Z</time>
      </trkpt>
      <trkpt lat="45.90468" lon="6.50332">
        <ele>2242.89</ele>
        <time>2017-03-19T09:13:59Z</time>
      </trkpt>
      <trkpt lat="45.90469" lon="6.50333">
        <ele>2243.37</ele>
        <time>2017-03-19T09:14:04Z</time>
      </trkpt>
      <trkpt lat="45.90472" lon="6.50341">
        <ele>2244.82</ele>
        <time>2017-03-19T09:14:18Z</time>
      </trkpt>
      <trkpt lat="45.90471" lon="6.50346">
        <ele>2246.26</ele>
        <time>2017-03-19T09:14:30Z</time>
      </trkpt>
      <trkpt lat="45.90471" lon="6.50353">
        <ele>2246.74</ele>
        <time>2017-03-19T09:14:42Z</time>
      </trkpt>
      <trkpt lat="45.90472" lon="6.50355">
        <ele>2249.14</ele>
        <time>2017-03-19T09:14:45Z</time>
      </trkpt>
      <trkpt lat="45.90472" lon="6.50355">
        <ele>2247.7</ele>
        <time>2017-03-19T09:14:46Z</time>
      </trkpt>
      <trkpt lat="45.90469" lon="6.50367">
        <ele>2249.14</ele>
        <time>2017-03-19T09:14:58Z</time>
      </trkpt>
      <trkpt lat="45.90472" lon="6.50373">
        <ele>2252.03</ele>
        <time>2017-03-19T09:15:10Z</time>
      </trkpt>
      <trkpt lat="45.90475" lon="6.50377">
        <ele>2252.51</ele>
        <time>2017-03-19T09:15:22Z</time>
      </trkpt>
      <trkpt lat="45.90475" lon="6.50379">
        <ele>2253.95</ele>
        <time>2017-03-19T09:15:24Z</time>
      </trkpt>
      <trkpt lat="45.90478" lon="6.50388">
        <ele>2255.39</ele>
        <time>2017-03-19T09:15:37Z</time>
      </trkpt>
      <trkpt lat="45.90482" lon="6.50392">
        <ele>2256.35</ele>
        <time>2017-03-19T09:15:50Z</time>
      </trkpt>
      <trkpt lat="45.90485" lon="6.50399">
        <ele>2257.79</ele>
        <time>2017-03-19T09:16:03Z</time>
      </trkpt>
      <trkpt lat="45.90486" lon="6.50404">
        <ele>2260.2</ele>
        <time>2017-03-19T09:16:15Z</time>
      </trkpt>
      <trkpt lat="45.90491" lon="6.50407">
        <ele>2261.64</ele>
        <time>2017-03-19T09:16:24Z</time>
      </trkpt>
      <trkpt lat="45.90495" lon="6.50407">
        <ele>2262.12</ele>
        <time>2017-03-19T09:16:36Z</time>
      </trkpt>
      <trkpt lat="45.90499" lon="6.50407">
        <ele>2265</ele>
        <time>2017-03-19T09:16:49Z</time>
      </trkpt>
      <trkpt lat="45.90505" lon="6.50408">
        <ele>2266.93</ele>
        <time>2017-03-19T09:17:04Z</time>
      </trkpt>
      <trkpt lat="45.9051" lon="6.50411">
        <ele>2268.37</ele>
        <time>2017-03-19T09:17:18Z</time>
      </trkpt>
      <trkpt lat="45.90515" lon="6.50412">
        <ele>2270.29</ele>
        <time>2017-03-19T09:17:31Z</time>
      </trkpt>
      <trkpt lat="45.9052" lon="6.50418">
        <ele>2272.21</ele>
        <time>2017-03-19T09:17:44Z</time>
      </trkpt>
      <trkpt lat="45.90525" lon="6.50422">
        <ele>2273.17</ele>
        <time>2017-03-19T09:17:56Z</time>
      </trkpt>
      <trkpt lat="45.9053" lon="6.50424">
        <ele>2274.62</ele>
        <time>2017-03-19T09:18:08Z</time>
      </trkpt>
      <trkpt lat="45.90532" lon="6.50422">
        <ele>2277.02</ele>
        <time>2017-03-19T09:18:23Z</time>
      </trkpt>
      <trkpt lat="45.90538" lon="6.50432">
        <ele>2278.46</ele>
        <time>2017-03-19T09:18:35Z</time>
      </trkpt>
      <trkpt lat="45.90542" lon="6.50441">
        <ele>2280.38</ele>
        <time>2017-03-19T09:18:47Z</time>
      </trkpt>
      <trkpt lat="45.90547" lon="6.50441">
        <ele>2281.35</ele>
        <time>2017-03-19T09:19:00Z</time>
      </trkpt>
      <trkpt lat="45.90552" lon="6.50443">
        <ele>2283.27</ele>
        <time>2017-03-19T09:19:12Z</time>
      </trkpt>
      <trkpt lat="45.90558" lon="6.50443">
        <ele>2285.19</ele>
        <time>2017-03-19T09:19:27Z</time>
      </trkpt>
      <trkpt lat="45.9056" lon="6.50445">
        <ele>2287.11</ele>
        <time>2017-03-19T09:19:40Z</time>
      </trkpt>
      <trkpt lat="45.90566" lon="6.50455">
        <ele>2289.04</ele>
        <time>2017-03-19T09:19:53Z</time>
      </trkpt>
      <trkpt lat="45.90574" lon="6.50459">
        <ele>2290.96</ele>
        <time>2017-03-19T09:20:06Z</time>
      </trkpt>
      <trkpt lat="45.90579" lon="6.50477">
        <ele>2292.4</ele>
        <time>2017-03-19T09:20:22Z</time>
      </trkpt>
      <trkpt lat="45.90585" lon="6.50474">
        <ele>2293.36</ele>
        <time>2017-03-19T09:20:33Z</time>
      </trkpt>
      <trkpt lat="45.90594" lon="6.50466">
        <ele>2294.32</ele>
        <time>2017-03-19T09:20:48Z</time>
      </trkpt>
      <trkpt lat="45.90598" lon="6.50467">
        <ele>2296.25</ele>
        <time>2017-03-19T09:20:59Z</time>
      </trkpt>
      <trkpt lat="45.90607" lon="6.50469">
        <ele>2298.17</ele>
        <time>2017-03-19T09:21:13Z</time>
      </trkpt>
      <trkpt lat="45.90613" lon="6.50466">
        <ele>2300.57</ele>
        <time>2017-03-19T09:21:27Z</time>
      </trkpt>
      <trkpt lat="45.90618" lon="6.50465">
        <ele>2302.49</ele>
        <time>2017-03-19T09:21:40Z</time>
      </trkpt>
      <trkpt lat="45.90624" lon="6.50465">
        <ele>2304.42</ele>
        <time>2017-03-19T09:21:54Z</time>
      </trkpt>
      <trkpt lat="45.90629" lon="6.50468">
        <ele>2305.38</ele>
        <time>2017-03-19T09:22:07Z</time>
      </trkpt>
      <trkpt lat="45.90634" lon="6.50472">
        <ele>2307.78</ele>
        <time>2017-03-19T09:22:21Z</time>
      </trkpt>
      <trkpt lat="45.90641" lon="6.50475">
        <ele>2309.22</ele>
        <time>2017-03-19T09:22:35Z</time>
      </trkpt>
      <trkpt lat="45.90646" lon="6.50479">
        <ele>2311.15</ele>
        <time>2017-03-19T09:22:49Z</time>
      </trkpt>
      <trkpt lat="45.90649" lon="6.5048">
        <ele>2313.07</ele>
        <time>2017-03-19T09:23:02Z</time>
      </trkpt>
      <trkpt lat="45.90654" lon="6.50482">
        <ele>2314.99</ele>
        <time>2017-03-19T09:23:15Z</time>
      </trkpt>
      <trkpt lat="45.90658" lon="6.50483">
        <ele>2316.91</ele>
        <time>2017-03-19T09:23:27Z</time>
      </trkpt>
      <trkpt lat="45.90662" lon="6.50486">
        <ele>2319.32</ele>
        <time>2017-03-19T09:23:41Z</time>
      </trkpt>
      <trkpt lat="45.90667" lon="6.50488">
        <ele>2321.24</ele>
        <time>2017-03-19T09:23:53Z</time>
      </trkpt>
      <trkpt lat="45.9067" lon="6.50491">
        <ele>2322.68</ele>
        <time>2017-03-19T09:24:05Z</time>
      </trkpt>
      <trkpt lat="45.90675" lon="6.50493">
        <ele>2324.61</ele>
        <time>2017-03-19T09:24:20Z</time>
      </trkpt>
      <trkpt lat="45.9068" lon="6.50495">
        <ele>2326.05</ele>
        <time>2017-03-19T09:24:33Z</time>
      </trkpt>
      <trkpt lat="45.90685" lon="6.50497">
        <ele>2327.97</ele>
        <time>2017-03-19T09:24:47Z</time>
      </trkpt>
      <trkpt lat="45.9069" lon="6.50499">
        <ele>2329.89</ele>
        <time>2017-03-19T09:24:59Z</time>
      </trkpt>
      <trkpt lat="45.90694" lon="6.50502">
        <ele>2331.33</ele>
        <time>2017-03-19T09:25:13Z</time>
      </trkpt>
      <trkpt lat="45.90698" lon="6.50503">
        <ele>2332.78</ele>
        <time>2017-03-19T09:25:27Z</time>
      </trkpt>
      <trkpt lat="45.90701" lon="6.50505">
        <ele>2335.18</ele>
        <time>2017-03-19T09:25:39Z</time>
      </trkpt>
      <trkpt lat="45.90691" lon="6.50504">
        <ele>2338.06</ele>
        <time>2017-03-19T09:26:22Z</time>
      </trkpt>
      <trkpt lat="45.90695" lon="6.50514">
        <ele>2340.47</ele>
        <time>2017-03-19T09:27:16Z</time>
      </trkpt>
      <trkpt lat="45.90696" lon="6.50522">
        <ele>2342.87</ele>
        <time>2017-03-19T09:27:31Z</time>
      </trkpt>
      <trkpt lat="45.90697" lon="6.50533">
        <ele>2345.75</ele>
        <time>2017-03-19T09:27:44Z</time>
      </trkpt>
      <trkpt lat="45.90694" lon="6.50541">
        <ele>2347.68</ele>
        <time>2017-03-19T09:28:01Z</time>
      </trkpt>
      <trkpt lat="45.90691" lon="6.50551">
        <ele>2349.6</ele>
        <time>2017-03-19T09:28:15Z</time>
      </trkpt>
      <trkpt lat="45.90688" lon="6.50556">
        <ele>2351.04</ele>
        <time>2017-03-19T09:28:28Z</time>
      </trkpt>
      <trkpt lat="45.90686" lon="6.50561">
        <ele>2352.48</ele>
        <time>2017-03-19T09:28:41Z</time>
      </trkpt>
      <trkpt lat="45.90682" lon="6.50563">
        <ele>2354.41</ele>
        <time>2017-03-19T09:28:56Z</time>
      </trkpt>
      <trkpt lat="45.90685" lon="6.50564">
        <ele>2354.89</ele>
        <time>2017-03-19T09:29:06Z</time>
      </trkpt>
      <trkpt lat="45.9069" lon="6.50573">
        <ele>2356.81</ele>
        <time>2017-03-19T09:29:19Z</time>
      </trkpt>
      <trkpt lat="45.90694" lon="6.50576">
        <ele>2359.21</ele>
        <time>2017-03-19T09:29:31Z</time>
      </trkpt>
      <trkpt lat="45.90699" lon="6.5058">
        <ele>2361.14</ele>
        <time>2017-03-19T09:29:43Z</time>
      </trkpt>
      <trkpt lat="45.90705" lon="6.50583">
        <ele>2362.1</ele>
        <time>2017-03-19T09:29:57Z</time>
      </trkpt>
      <trkpt lat="45.9071" lon="6.50585">
        <ele>2363.54</ele>
        <time>2017-03-19T09:30:12Z</time>
      </trkpt>
      <trkpt lat="45.90716" lon="6.5059">
        <ele>2365.94</ele>
        <time>2017-03-19T09:30:27Z</time>
      </trkpt>
      <trkpt lat="45.90719" lon="6.50593">
        <ele>2367.38</ele>
        <time>2017-03-19T09:30:40Z</time>
      </trkpt>
      <trkpt lat="45.90724" lon="6.50596">
        <ele>2369.31</ele>
        <time>2017-03-19T09:30:52Z</time>
      </trkpt>
      <trkpt lat="45.9073" lon="6.50596">
        <ele>2371.71</ele>
        <time>2017-03-19T09:31:06Z</time>
      </trkpt>
      <trkpt lat="45.90735" lon="6.50592">
        <ele>2373.15</ele>
        <time>2017-03-19T09:31:20Z</time>
      </trkpt>
      <trkpt lat="45.90742" lon="6.5059">
        <ele>2375.07</ele>
        <time>2017-03-19T09:31:34Z</time>
      </trkpt>
      <trkpt lat="45.90747" lon="6.50588">
        <ele>2377</ele>
        <time>2017-03-19T09:31:47Z</time>
      </trkpt>
      <trkpt lat="45.90755" lon="6.50589">
        <ele>2378.92</ele>
        <time>2017-03-19T09:32:03Z</time>
      </trkpt>
      <trkpt lat="45.9076" lon="6.50589">
        <ele>2380.36</ele>
        <time>2017-03-19T09:32:17Z</time>
      </trkpt>
      <trkpt lat="45.90763" lon="6.50597">
        <ele>2382.28</ele>
        <time>2017-03-19T09:32:29Z</time>
      </trkpt>
      <trkpt lat="45.90763" lon="6.50603">
        <ele>2383.25</ele>
        <time>2017-03-19T09:32:41Z</time>
      </trkpt>
      <trkpt lat="45.90763" lon="6.50612">
        <ele>2385.17</ele>
        <time>2017-03-19T09:32:55Z</time>
      </trkpt>
      <trkpt lat="45.90763" lon="6.50621">
        <ele>2386.61</ele>
        <time>2017-03-19T09:33:10Z</time>
      </trkpt>
      <trkpt lat="45.90764" lon="6.50628">
        <ele>2388.05</ele>
        <time>2017-03-19T09:33:22Z</time>
      </trkpt>
      <trkpt lat="45.90764" lon="6.50635">
        <ele>2389.01</ele>
        <time>2017-03-19T09:33:34Z</time>
      </trkpt>
      <trkpt lat="45.90765" lon="6.50644">
        <ele>2390.94</ele>
        <time>2017-03-19T09:33:48Z</time>
      </trkpt>
      <trkpt lat="45.90766" lon="6.50652">
        <ele>2392.86</ele>
        <time>2017-03-19T09:34:01Z</time>
      </trkpt>
      <trkpt lat="45.90767" lon="6.50658">
        <ele>2393.82</ele>
        <time>2017-03-19T09:34:15Z</time>
      </trkpt>
      <trkpt lat="45.90768" lon="6.50665">
        <ele>2395.74</ele>
        <time>2017-03-19T09:34:27Z</time>
      </trkpt>
      <trkpt lat="45.90769" lon="6.50671">
        <ele>2398.15</ele>
        <time>2017-03-19T09:34:40Z</time>
      </trkpt>
      <trkpt lat="45.90771" lon="6.5068">
        <ele>2400.07</ele>
        <time>2017-03-19T09:34:55Z</time>
      </trkpt>
      <trkpt lat="45.90773" lon="6.50689">
        <ele>2401.51</ele>
        <time>2017-03-19T09:35:08Z</time>
      </trkpt>
      <trkpt lat="45.90772" lon="6.50695">
        <ele>2403.91</ele>
        <time>2017-03-19T09:35:24Z</time>
      </trkpt>
      <trkpt lat="45.90771" lon="6.50702">
        <ele>2404.39</ele>
        <time>2017-03-19T09:35:36Z</time>
      </trkpt>
      <trkpt lat="45.9077" lon="6.50709">
        <ele>2406.32</ele>
        <time>2017-03-19T09:35:49Z</time>
      </trkpt>
      <trkpt lat="45.90767" lon="6.50715">
        <ele>2407.76</ele>
        <time>2017-03-19T09:36:01Z</time>
      </trkpt>
      <trkpt lat="45.90761" lon="6.50721">
        <ele>2409.2</ele>
        <time>2017-03-19T09:36:16Z</time>
      </trkpt>
      <trkpt lat="45.90756" lon="6.50723">
        <ele>2412.09</ele>
        <time>2017-03-19T09:36:30Z</time>
      </trkpt>
      <trkpt lat="45.90753" lon="6.50725">
        <ele>2412.57</ele>
        <time>2017-03-19T09:36:45Z</time>
      </trkpt>
      <trkpt lat="45.90754" lon="6.5073">
        <ele>2414.49</ele>
        <time>2017-03-19T09:36:54Z</time>
      </trkpt>
      <trkpt lat="45.90758" lon="6.50737">
        <ele>2414.97</ele>
        <time>2017-03-19T09:37:07Z</time>
      </trkpt>
      <trkpt lat="45.9076" lon="6.50742">
        <ele>2417.85</ele>
        <time>2017-03-19T09:37:19Z</time>
      </trkpt>
      <trkpt lat="45.90765" lon="6.50747">
        <ele>2418.33</ele>
        <time>2017-03-19T09:37:31Z</time>
      </trkpt>
      <trkpt lat="45.9077" lon="6.50751">
        <ele>2419.78</ele>
        <time>2017-03-19T09:37:45Z</time>
      </trkpt>
      <trkpt lat="45.90775" lon="6.50758">
        <ele>2421.7</ele>
        <time>2017-03-19T09:38:00Z</time>
      </trkpt>
      <trkpt lat="45.9078" lon="6.50763">
        <ele>2423.14</ele>
        <time>2017-03-19T09:38:13Z</time>
      </trkpt>
      <trkpt lat="45.90782" lon="6.50768">
        <ele>2424.1</ele>
        <time>2017-03-19T09:38:24Z</time>
      </trkpt>
      <trkpt lat="45.90786" lon="6.50774">
        <ele>2426.5</ele>
        <time>2017-03-19T09:38:39Z</time>
      </trkpt>
      <trkpt lat="45.9079" lon="6.5078">
        <ele>2427.95</ele>
        <time>2017-03-19T09:38:52Z</time>
      </trkpt>
      <trkpt lat="45.90791" lon="6.50787">
        <ele>2429.87</ele>
        <time>2017-03-19T09:39:05Z</time>
      </trkpt>
      <trkpt lat="45.90793" lon="6.50795">
        <ele>2431.79</ele>
        <time>2017-03-19T09:39:17Z</time>
      </trkpt>
      <trkpt lat="45.90796" lon="6.50802">
        <ele>2433.71</ele>
        <time>2017-03-19T09:39:31Z</time>
      </trkpt>
      <trkpt lat="45.90799" lon="6.5081">
        <ele>2434.68</ele>
        <time>2017-03-19T09:39:43Z</time>
      </trkpt>
      <trkpt lat="45.908" lon="6.50817">
        <ele>2436.12</ele>
        <time>2017-03-19T09:39:56Z</time>
      </trkpt>
      <trkpt lat="45.90804" lon="6.50825">
        <ele>2436.6</ele>
        <time>2017-03-19T09:40:09Z</time>
      </trkpt>
      <trkpt lat="45.90805" lon="6.50831">
        <ele>2438.52</ele>
        <time>2017-03-19T09:40:23Z</time>
      </trkpt>
      <trkpt lat="45.90805" lon="6.50835">
        <ele>2438.04</ele>
        <time>2017-03-19T09:40:42Z</time>
      </trkpt>
      <trkpt lat="45.9081" lon="6.50832">
        <ele>2440.92</ele>
        <time>2017-03-19T09:42:23Z</time>
      </trkpt>
      <trkpt lat="45.90812" lon="6.50826">
        <ele>2442.85</ele>
        <time>2017-03-19T09:42:37Z</time>
      </trkpt>
      <trkpt lat="45.90815" lon="6.50818">
        <ele>2444.77</ele>
        <time>2017-03-19T09:42:49Z</time>
      </trkpt>
      <trkpt lat="45.90821" lon="6.50811">
        <ele>2447.65</ele>
        <time>2017-03-19T09:43:06Z</time>
      </trkpt>
      <trkpt lat="45.90826" lon="6.50807">
        <ele>2449.1</ele>
        <time>2017-03-19T09:43:17Z</time>
      </trkpt>
      <trkpt lat="45.90829" lon="6.50798">
        <ele>2451.02</ele>
        <time>2017-03-19T09:43:32Z</time>
      </trkpt>
      <trkpt lat="45.90832" lon="6.50794">
        <ele>2453.9</ele>
        <time>2017-03-19T09:43:46Z</time>
      </trkpt>
      <trkpt lat="45.90836" lon="6.50789">
        <ele>2455.34</ele>
        <time>2017-03-19T09:43:59Z</time>
      </trkpt>
      <trkpt lat="45.9084" lon="6.50783">
        <ele>2456.79</ele>
        <time>2017-03-19T09:44:14Z</time>
      </trkpt>
      <trkpt lat="45.90841" lon="6.50785">
        <ele>2457.75</ele>
        <time>2017-03-19T09:44:24Z</time>
      </trkpt>
      <trkpt lat="45.90843" lon="6.50794">
        <ele>2460.63</ele>
        <time>2017-03-19T09:44:39Z</time>
      </trkpt>
      <trkpt lat="45.90848" lon="6.50803">
        <ele>2462.55</ele>
        <time>2017-03-19T09:44:53Z</time>
      </trkpt>
      <trkpt lat="45.90849" lon="6.50809">
        <ele>2464.48</ele>
        <time>2017-03-19T09:45:08Z</time>
      </trkpt>
      <trkpt lat="45.90852" lon="6.50817">
        <ele>2467.36</ele>
        <time>2017-03-19T09:45:21Z</time>
      </trkpt>
      <trkpt lat="45.90856" lon="6.50826">
        <ele>2469.76</ele>
        <time>2017-03-19T09:45:36Z</time>
      </trkpt>
      <trkpt lat="45.90858" lon="6.50835">
        <ele>2471.69</ele>
        <time>2017-03-19T09:45:51Z</time>
      </trkpt>
      <trkpt lat="45.90861" lon="6.50842">
        <ele>2473.13</ele>
        <time>2017-03-19T09:46:05Z</time>
      </trkpt>
      <trkpt lat="45.90864" lon="6.50849">
        <ele>2476.01</ele>
        <time>2017-03-19T09:46:19Z</time>
      </trkpt>
      <trkpt lat="45.90864" lon="6.50857">
        <ele>2476.97</ele>
        <time>2017-03-19T09:46:31Z</time>
      </trkpt>
      <trkpt lat="45.90869" lon="6.50848">
        <ele>2481.3</ele>
        <time>2017-03-19T09:47:10Z</time>
      </trkpt>
      <trkpt lat="45.90871" lon="6.50845">
        <ele>2483.22</ele>
        <time>2017-03-19T09:47:24Z</time>
      </trkpt>
      <trkpt lat="45.90874" lon="6.50838">
        <ele>2485.15</ele>
        <time>2017-03-19T09:47:36Z</time>
      </trkpt>
      <trkpt lat="45.90877" lon="6.50832">
        <ele>2487.55</ele>
        <time>2017-03-19T09:47:51Z</time>
      </trkpt>
      <trkpt lat="45.90881" lon="6.50827">
        <ele>2488.03</ele>
        <time>2017-03-19T09:48:03Z</time>
      </trkpt>
      <trkpt lat="45.90883" lon="6.50818">
        <ele>2491.39</ele>
        <time>2017-03-19T09:48:17Z</time>
      </trkpt>
      <trkpt lat="45.90887" lon="6.50812">
        <ele>2493.8</ele>
        <time>2017-03-19T09:48:31Z</time>
      </trkpt>
      <trkpt lat="45.9089" lon="6.50818">
        <ele>2494.76</ele>
        <time>2017-03-19T09:48:45Z</time>
      </trkpt>
      <trkpt lat="45.90893" lon="6.50828">
        <ele>2496.68</ele>
        <time>2017-03-19T09:49:00Z</time>
      </trkpt>
      <trkpt lat="45.90896" lon="6.50836">
        <ele>2498.12</ele>
        <time>2017-03-19T09:49:14Z</time>
      </trkpt>
      <trkpt lat="45.90896" lon="6.50843">
        <ele>2499.57</ele>
        <time>2017-03-19T09:49:26Z</time>
      </trkpt>
      <trkpt lat="45.90898" lon="6.5085">
        <ele>2501.49</ele>
        <time>2017-03-19T09:49:40Z</time>
      </trkpt>
      <trkpt lat="45.90899" lon="6.50854">
        <ele>2502.93</ele>
        <time>2017-03-19T09:49:51Z</time>
      </trkpt>
      <trkpt lat="45.90899" lon="6.50855">
        <ele>2503.89</ele>
        <time>2017-03-19T09:50:03Z</time>
      </trkpt>
      <trkpt lat="45.90899" lon="6.50849">
        <ele>2505.81</ele>
        <time>2017-03-19T09:50:15Z</time>
      </trkpt>
      <trkpt lat="45.909" lon="6.50843">
        <ele>2506.77</ele>
        <time>2017-03-19T09:50:23Z</time>
      </trkpt>
      <trkpt lat="45.90903" lon="6.50836">
        <ele>2507.26</ele>
        <time>2017-03-19T09:50:37Z</time>
      </trkpt>
      <trkpt lat="45.90904" lon="6.50833">
        <ele>2506.77</ele>
        <time>2017-03-19T09:52:19Z</time>
      </trkpt>
      <trkpt lat="45.90905" lon="6.50836">
        <ele>2505.81</ele>
        <time>2017-03-19T09:53:17Z</time>
      </trkpt>
      <trkpt lat="45.90909" lon="6.50854">
        <ele>2467.36</ele>
        <time>2017-03-19T10:08:00Z</time>
      </trkpt>
      <trkpt lat="45.9091" lon="6.50862">
        <ele>2469.76</ele>
        <time>2017-03-19T10:08:14Z</time>
      </trkpt>
      <trkpt lat="45.90911" lon="6.5087">
        <ele>2472.65</ele>
        <time>2017-03-19T10:08:30Z</time>
      </trkpt>
      <trkpt lat="45.90914" lon="6.50876">
        <ele>2475.05</ele>
        <time>2017-03-19T10:08:45Z</time>
      </trkpt>
      <trkpt lat="45.90914" lon="6.50878">
        <ele>2476.01</ele>
        <time>2017-03-19T10:08:50Z</time>
      </trkpt>
      <trkpt lat="45.90915" lon="6.50881">
        <ele>2477.45</ele>
        <time>2017-03-19T10:09:05Z</time>
      </trkpt>
      <trkpt lat="45.90913" lon="6.50886">
        <ele>2479.86</ele>
        <time>2017-03-19T10:09:21Z</time>
      </trkpt>
      <trkpt lat="45.90914" lon="6.50895">
        <ele>2482.26</ele>
        <time>2017-03-19T10:09:36Z</time>
      </trkpt>
      <trkpt lat="45.90913" lon="6.50896">
        <ele>2483.7</ele>
        <time>2017-03-19T10:09:39Z</time>
      </trkpt>
      <trkpt lat="45.90914" lon="6.50902">
        <ele>2485.15</ele>
        <time>2017-03-19T10:09:51Z</time>
      </trkpt>
      <trkpt lat="45.90914" lon="6.50904">
        <ele>2488.03</ele>
        <time>2017-03-19T10:10:03Z</time>
      </trkpt>
      <trkpt lat="45.90915" lon="6.50905">
        <ele>2489.47</ele>
        <time>2017-03-19T10:10:09Z</time>
      </trkpt>
      <trkpt lat="45.90918" lon="6.50907">
        <ele>2491.39</ele>
        <time>2017-03-19T10:10:18Z</time>
      </trkpt>
      <trkpt lat="45.90918" lon="6.50914">
        <ele>2492.84</ele>
        <time>2017-03-19T10:10:34Z</time>
      </trkpt>
      <trkpt lat="45.90919" lon="6.5092">
        <ele>2493.8</ele>
        <time>2017-03-19T10:10:44Z</time>
      </trkpt>
      <trkpt lat="45.90919" lon="6.50927">
        <ele>2496.68</ele>
        <time>2017-03-19T10:11:01Z</time>
      </trkpt>
      <trkpt lat="45.9092" lon="6.50934">
        <ele>2500.05</ele>
        <time>2017-03-19T10:11:17Z</time>
      </trkpt>
      <trkpt lat="45.90922" lon="6.50939">
        <ele>2501.97</ele>
        <time>2017-03-19T10:11:33Z</time>
      </trkpt>
      <trkpt lat="45.90924" lon="6.50948">
        <ele>2505.33</ele>
        <time>2017-03-19T10:11:49Z</time>
      </trkpt>
      <trkpt lat="45.9093" lon="6.50957">
        <ele>2507.74</ele>
        <time>2017-03-19T10:12:04Z</time>
      </trkpt>
      <trkpt lat="45.90929" lon="6.50962">
        <ele>2508.7</ele>
        <time>2017-03-19T10:12:21Z</time>
      </trkpt>
      <trkpt lat="45.90933" lon="6.5096">
        <ele>2512.54</ele>
        <time>2017-03-19T10:16:00Z</time>
      </trkpt>
      <trkpt lat="45.90929" lon="6.50959">
        <ele>2513.5</ele>
        <time>2017-03-19T10:16:36Z</time>
      </trkpt>
      <trkpt lat="45.90928" lon="6.50959">
        <ele>2513.98</ele>
        <time>2017-03-19T10:17:10Z</time>
      </trkpt>
      <trkpt lat="45.90927" lon="6.50957">
        <ele>2514.95</ele>
        <time>2017-03-19T10:17:38Z</time>
      </trkpt>
      <trkpt lat="45.90925" lon="6.50957">
        <ele>2514.47</ele>
        <time>2017-03-19T10:18:13Z</time>
      </trkpt>
      <trkpt lat="45.90925" lon="6.50947">
        <ele>2513.02</ele>
        <time>2017-03-19T10:18:34Z</time>
      </trkpt>
      <trkpt lat="45.9092" lon="6.50939">
        <ele>2511.1</ele>
        <time>2017-03-19T10:18:55Z</time>
      </trkpt>
      <trkpt lat="45.90918" lon="6.50937">
        <ele>2510.14</ele>
        <time>2017-03-19T10:19:19Z</time>
      </trkpt>
      <trkpt lat="45.90919" lon="6.50935">
        <ele>2511.1</ele>
        <time>2017-03-19T10:19:38Z</time>
      </trkpt>
      <trkpt lat="45.90918" lon="6.50934">
        <ele>2510.62</ele>
        <time>2017-03-19T10:19:55Z</time>
      </trkpt>
      <trkpt lat="45.90917" lon="6.50931">
        <ele>2509.18</ele>
        <time>2017-03-19T10:20:09Z</time>
      </trkpt>
      <trkpt lat="45.90918" lon="6.5093">
        <ele>2508.7</ele>
        <time>2017-03-19T10:20:29Z</time>
      </trkpt>
      <trkpt lat="45.90918" lon="6.50926">
        <ele>2507.74</ele>
        <time>2017-03-19T10:20:47Z</time>
      </trkpt>
      <trkpt lat="45.90915" lon="6.50918">
        <ele>2505.81</ele>
        <time>2017-03-19T10:21:01Z</time>
      </trkpt>
      <trkpt lat="45.90916" lon="6.50916">
        <ele>2504.37</ele>
        <time>2017-03-19T10:21:05Z</time>
      </trkpt>
      <trkpt lat="45.90917" lon="6.50914">
        <ele>2504.85</ele>
        <time>2017-03-19T10:21:23Z</time>
      </trkpt>
      <trkpt lat="45.90917" lon="6.50912">
        <ele>2504.85</ele>
        <time>2017-03-19T10:21:38Z</time>
      </trkpt>
      <trkpt lat="45.90917" lon="6.50911">
        <ele>2503.89</ele>
        <time>2017-03-19T10:22:00Z</time>
      </trkpt>
      <trkpt lat="45.90918" lon="6.50909">
        <ele>2503.41</ele>
        <time>2017-03-19T10:22:17Z</time>
      </trkpt>
      <trkpt lat="45.90915" lon="6.50907">
        <ele>2501.97</ele>
        <time>2017-03-19T10:22:33Z</time>
      </trkpt>
      <trkpt lat="45.90915" lon="6.50906">
        <ele>2501.01</ele>
        <time>2017-03-19T10:22:55Z</time>
      </trkpt>
      <trkpt lat="45.90916" lon="6.50903">
        <ele>2501.01</ele>
        <time>2017-03-19T10:23:13Z</time>
      </trkpt>
      <trkpt lat="45.90913" lon="6.50896">
        <ele>2499.08</ele>
        <time>2017-03-19T10:23:31Z</time>
      </trkpt>
      <trkpt lat="45.90913" lon="6.5089">
        <ele>2497.64</ele>
        <time>2017-03-19T10:23:48Z</time>
      </trkpt>
      <trkpt lat="45.90912" lon="6.50882">
        <ele>2495.24</ele>
        <time>2017-03-19T10:24:03Z</time>
      </trkpt>
      <trkpt lat="45.90913" lon="6.50877">
        <ele>2493.8</ele>
        <time>2017-03-19T10:24:21Z</time>
      </trkpt>
      <trkpt lat="45.90914" lon="6.50874">
        <ele>2492.84</ele>
        <time>2017-03-19T10:24:38Z</time>
      </trkpt>
      <trkpt lat="45.9091" lon="6.50867">
        <ele>2489.95</ele>
        <time>2017-03-19T10:24:54Z</time>
      </trkpt>
      <trkpt lat="45.90909" lon="6.50856">
        <ele>2486.59</ele>
        <time>2017-03-19T10:25:04Z</time>
      </trkpt>
      <trkpt lat="45.90911" lon="6.50852">
        <ele>2484.18</ele>
        <time>2017-03-19T10:25:11Z</time>
      </trkpt>
      <trkpt lat="45.90908" lon="6.50845">
        <ele>2482.74</ele>
        <time>2017-03-19T10:25:28Z</time>
      </trkpt>
      <trkpt lat="45.90909" lon="6.50838">
        <ele>2481.78</ele>
        <time>2017-03-19T10:25:48Z</time>
      </trkpt>
      <trkpt lat="45.90909" lon="6.50838">
        <ele>2485.15</ele>
        <time>2017-03-19T10:32:27Z</time>
      </trkpt>
      <trkpt lat="45.90912" lon="6.50839">
        <ele>2485.63</ele>
        <time>2017-03-19T10:33:38Z</time>
      </trkpt>
      <trkpt lat="45.90916" lon="6.50839">
        <ele>2482.26</ele>
        <time>2017-03-19T10:33:40Z</time>
      </trkpt>
      <trkpt lat="45.90916" lon="6.50839">
        <ele>2482.74</ele>
        <time>2017-03-19T10:33:41Z</time>
      </trkpt>
      <trkpt lat="45.90917" lon="6.50842">
        <ele>2482.74</ele>
        <time>2017-03-19T10:33:55Z</time>
      </trkpt>
      <trkpt lat="45.90918" lon="6.50843">
        <ele>2482.26</ele>
        <time>2017-03-19T10:33:56Z</time>
      </trkpt>
      <trkpt lat="45.90922" lon="6.5084">
        <ele>2478.9</ele>
        <time>2017-03-19T10:33:59Z</time>
      </trkpt>
      <trkpt lat="45.90929" lon="6.50842">
        <ele>2475.05</ele>
        <time>2017-03-19T10:34:02Z</time>
      </trkpt>
      <trkpt lat="45.90933" lon="6.50838">
        <ele>2470.73</ele>
        <time>2017-03-19T10:34:05Z</time>
      </trkpt>
      <trkpt lat="45.9094" lon="6.50834">
        <ele>2466.4</ele>
        <time>2017-03-19T10:34:08Z</time>
      </trkpt>
      <trkpt lat="45.90946" lon="6.50835">
        <ele>2462.07</ele>
        <time>2017-03-19T10:34:11Z</time>
      </trkpt>
      <trkpt lat="45.90951" lon="6.50831">
        <ele>2457.75</ele>
        <time>2017-03-19T10:34:14Z</time>
      </trkpt>
      <trkpt lat="45.90955" lon="6.50834">
        <ele>2454.86</ele>
        <time>2017-03-19T10:34:16Z</time>
      </trkpt>
      <trkpt lat="45.90956" lon="6.50836">
        <ele>2454.38</ele>
        <time>2017-03-19T10:34:17Z</time>
      </trkpt>
      <trkpt lat="45.90959" lon="6.50839">
        <ele>2453.9</ele>
        <time>2017-03-19T10:34:19Z</time>
      </trkpt>
      <trkpt lat="45.90964" lon="6.50841">
        <ele>2453.42</ele>
        <time>2017-03-19T10:34:21Z</time>
      </trkpt>
      <trkpt lat="45.90965" lon="6.50837">
        <ele>2450.06</ele>
        <time>2017-03-19T10:34:24Z</time>
      </trkpt>
      <trkpt lat="45.90971" lon="6.50834">
        <ele>2446.21</ele>
        <time>2017-03-19T10:34:26Z</time>
      </trkpt>
      <trkpt lat="45.90978" lon="6.50837">
        <ele>2444.77</ele>
        <time>2017-03-19T10:34:28Z</time>
      </trkpt>
      <trkpt lat="45.90985" lon="6.50835">
        <ele>2439.96</ele>
        <time>2017-03-19T10:34:31Z</time>
      </trkpt>
      <trkpt lat="45.90989" lon="6.5083">
        <ele>2436.12</ele>
        <time>2017-03-19T10:34:34Z</time>
      </trkpt>
      <trkpt lat="45.90989" lon="6.50829">
        <ele>2436.6</ele>
        <time>2017-03-19T10:34:35Z</time>
      </trkpt>
      <trkpt lat="45.90989" lon="6.50825">
        <ele>2436.6</ele>
        <time>2017-03-19T10:34:57Z</time>
      </trkpt>
      <trkpt lat="45.91" lon="6.50835">
        <ele>2433.23</ele>
        <time>2017-03-19T10:35:03Z</time>
      </trkpt>
      <trkpt lat="45.91007" lon="6.50847">
        <ele>2431.79</ele>
        <time>2017-03-19T10:35:07Z</time>
      </trkpt>
      <trkpt lat="45.9102" lon="6.50844">
        <ele>2425.54</ele>
        <time>2017-03-19T10:35:11Z</time>
      </trkpt>
      <trkpt lat="45.91027" lon="6.50849">
        <ele>2422.66</ele>
        <time>2017-03-19T10:35:13Z</time>
      </trkpt>
      <trkpt lat="45.91033" lon="6.50854">
        <ele>2418.81</ele>
        <time>2017-03-19T10:35:15Z</time>
      </trkpt>
      <trkpt lat="45.91031" lon="6.50859">
        <ele>2417.85</ele>
        <time>2017-03-19T10:35:18Z</time>
      </trkpt>
      <trkpt lat="45.91032" lon="6.50874">
        <ele>2414.97</ele>
        <time>2017-03-19T10:35:26Z</time>
      </trkpt>
      <trkpt lat="45.91033" lon="6.50886">
        <ele>2413.53</ele>
        <time>2017-03-19T10:35:29Z</time>
      </trkpt>
      <trkpt lat="45.91039" lon="6.50886">
        <ele>2410.64</ele>
        <time>2017-03-19T10:35:32Z</time>
      </trkpt>
      <trkpt lat="45.91047" lon="6.50893">
        <ele>2406.32</ele>
        <time>2017-03-19T10:35:35Z</time>
      </trkpt>
      <trkpt lat="45.91054" lon="6.50892">
        <ele>2402.47</ele>
        <time>2017-03-19T10:35:37Z</time>
      </trkpt>
      <trkpt lat="45.91056" lon="6.5089">
        <ele>2401.03</ele>
        <time>2017-03-19T10:35:39Z</time>
      </trkpt>
      <trkpt lat="45.91048" lon="6.50888">
        <ele>2401.51</ele>
        <time>2017-03-19T10:36:07Z</time>
      </trkpt>
      <trkpt lat="45.91048" lon="6.50888">
        <ele>2401.99</ele>
        <time>2017-03-19T10:36:14Z</time>
      </trkpt>
      <trkpt lat="45.91055" lon="6.50897">
        <ele>2397.18</ele>
        <time>2017-03-19T10:36:18Z</time>
      </trkpt>
      <trkpt lat="45.91058" lon="6.50891">
        <ele>2393.34</ele>
        <time>2017-03-19T10:36:21Z</time>
      </trkpt>
      <trkpt lat="45.91066" lon="6.50889">
        <ele>2389.97</ele>
        <time>2017-03-19T10:36:24Z</time>
      </trkpt>
      <trkpt lat="45.91068" lon="6.50893">
        <ele>2387.09</ele>
        <time>2017-03-19T10:36:25Z</time>
      </trkpt>
      <trkpt lat="45.91074" lon="6.50891">
        <ele>2383.25</ele>
        <time>2017-03-19T10:36:28Z</time>
      </trkpt>
      <trkpt lat="45.91079" lon="6.50891">
        <ele>2379.4</ele>
        <time>2017-03-19T10:36:31Z</time>
      </trkpt>
      <trkpt lat="45.91083" lon="6.50898">
        <ele>2376.04</ele>
        <time>2017-03-19T10:36:33Z</time>
      </trkpt>
      <trkpt lat="45.91091" lon="6.50899">
        <ele>2372.67</ele>
        <time>2017-03-19T10:36:35Z</time>
      </trkpt>
      <trkpt lat="45.91093" lon="6.50902">
        <ele>2369.79</ele>
        <time>2017-03-19T10:36:37Z</time>
      </trkpt>
      <trkpt lat="45.9109" lon="6.50903">
        <ele>2369.79</ele>
        <time>2017-03-19T10:36:49Z</time>
      </trkpt>
      <trkpt lat="45.9109" lon="6.50903">
        <ele>2369.79</ele>
        <time>2017-03-19T10:36:53Z</time>
      </trkpt>
      <trkpt lat="45.91099" lon="6.50898">
        <ele>2365.94</ele>
        <time>2017-03-19T10:36:58Z</time>
      </trkpt>
      <trkpt lat="45.91106" lon="6.50904">
        <ele>2361.62</ele>
        <time>2017-03-19T10:37:00Z</time>
      </trkpt>
      <trkpt lat="45.91112" lon="6.50902">
        <ele>2357.77</ele>
        <time>2017-03-19T10:37:02Z</time>
      </trkpt>
      <trkpt lat="45.91125" lon="6.50904">
        <ele>2352.48</ele>
        <time>2017-03-19T10:37:05Z</time>
      </trkpt>
      <trkpt lat="45.91131" lon="6.50903">
        <ele>2349.12</ele>
        <time>2017-03-19T10:37:06Z</time>
      </trkpt>
      <trkpt lat="45.9114" lon="6.50904">
        <ele>2343.35</ele>
        <time>2017-03-19T10:37:08Z</time>
      </trkpt>
      <trkpt lat="45.91149" lon="6.50899">
        <ele>2339.02</ele>
        <time>2017-03-19T10:37:10Z</time>
      </trkpt>
      <trkpt lat="45.91162" lon="6.50893">
        <ele>2333.74</ele>
        <time>2017-03-19T10:37:12Z</time>
      </trkpt>
      <trkpt lat="45.91178" lon="6.50886">
        <ele>2328.93</ele>
        <time>2017-03-19T10:37:14Z</time>
      </trkpt>
      <trkpt lat="45.91189" lon="6.50893">
        <ele>2325.09</ele>
        <time>2017-03-19T10:37:16Z</time>
      </trkpt>
      <trkpt lat="45.91202" lon="6.5089">
        <ele>2317.88</ele>
        <time>2017-03-19T10:37:20Z</time>
      </trkpt>
      <trkpt lat="45.91209" lon="6.50892">
        <ele>2314.03</ele>
        <time>2017-03-19T10:37:22Z</time>
      </trkpt>
      <trkpt lat="45.91211" lon="6.50883">
        <ele>2310.19</ele>
        <time>2017-03-19T10:37:25Z</time>
      </trkpt>
      <trkpt lat="45.91208" lon="6.50885">
        <ele>2310.19</ele>
        <time>2017-03-19T10:37:26Z</time>
      </trkpt>
      <trkpt lat="45.91178" lon="6.50876">
        <ele>2311.15</ele>
        <time>2017-03-19T10:37:52Z</time>
      </trkpt>
      <trkpt lat="45.91177" lon="6.50879">
        <ele>2310.67</ele>
        <time>2017-03-19T10:38:11Z</time>
      </trkpt>
      <trkpt lat="45.91174" lon="6.50879">
        <ele>2311.15</ele>
        <time>2017-03-19T10:38:27Z</time>
      </trkpt>
      <trkpt lat="45.91184" lon="6.50876">
        <ele>2307.3</ele>
        <time>2017-03-19T10:38:32Z</time>
      </trkpt>
      <trkpt lat="45.91192" lon="6.50876">
        <ele>2303.46</ele>
        <time>2017-03-19T10:38:34Z</time>
      </trkpt>
      <trkpt lat="45.91202" lon="6.50876">
        <ele>2298.65</ele>
        <time>2017-03-19T10:38:36Z</time>
      </trkpt>
      <trkpt lat="45.91209" lon="6.50875">
        <ele>2295.28</ele>
        <time>2017-03-19T10:38:38Z</time>
      </trkpt>
      <trkpt lat="45.91215" lon="6.50882">
        <ele>2291.92</ele>
        <time>2017-03-19T10:38:40Z</time>
      </trkpt>
      <trkpt lat="45.91225" lon="6.50884">
        <ele>2286.63</ele>
        <time>2017-03-19T10:38:42Z</time>
      </trkpt>
      <trkpt lat="45.91237" lon="6.50881">
        <ele>2279.42</ele>
        <time>2017-03-19T10:38:45Z</time>
      </trkpt>
      <trkpt lat="45.91246" lon="6.50881">
        <ele>2276.06</ele>
        <time>2017-03-19T10:38:47Z</time>
      </trkpt>
      <trkpt lat="45.91255" lon="6.50878">
        <ele>2270.77</ele>
        <time>2017-03-19T10:38:49Z</time>
      </trkpt>
      <trkpt lat="45.91264" lon="6.50875">
        <ele>2265.48</ele>
        <time>2017-03-19T10:38:51Z</time>
      </trkpt>
      <trkpt lat="45.91269" lon="6.50876">
        <ele>2262.12</ele>
        <time>2017-03-19T10:38:53Z</time>
      </trkpt>
      <trkpt lat="45.91256" lon="6.50868">
        <ele>2258.27</ele>
        <time>2017-03-19T10:38:55Z</time>
      </trkpt>
      <trkpt lat="45.91253" lon="6.50865">
        <ele>2259.24</ele>
        <time>2017-03-19T10:38:56Z</time>
      </trkpt>
      <trkpt lat="45.91251" lon="6.50864">
        <ele>2260.2</ele>
        <time>2017-03-19T10:38:58Z</time>
      </trkpt>
      <trkpt lat="45.91245" lon="6.50859">
        <ele>2261.16</ele>
        <time>2017-03-19T10:39:19Z</time>
      </trkpt>
      <trkpt lat="45.91245" lon="6.50848">
        <ele>2261.16</ele>
        <time>2017-03-19T10:39:44Z</time>
      </trkpt>
      <trkpt lat="45.91247" lon="6.50851">
        <ele>2261.16</ele>
        <time>2017-03-19T10:39:59Z</time>
      </trkpt>
      <trkpt lat="45.91257" lon="6.50852">
        <ele>2257.79</ele>
        <time>2017-03-19T10:40:03Z</time>
      </trkpt>
      <trkpt lat="45.91266" lon="6.50852">
        <ele>2253.47</ele>
        <time>2017-03-19T10:40:05Z</time>
      </trkpt>
      <trkpt lat="45.91276" lon="6.50847">
        <ele>2250.1</ele>
        <time>2017-03-19T10:40:07Z</time>
      </trkpt>
      <trkpt lat="45.91285" lon="6.50843">
        <ele>2245.78</ele>
        <time>2017-03-19T10:40:09Z</time>
      </trkpt>
      <trkpt lat="45.91294" lon="6.50834">
        <ele>2241.93</ele>
        <time>2017-03-19T10:40:11Z</time>
      </trkpt>
      <trkpt lat="45.913" lon="6.5083">
        <ele>2237.61</ele>
        <time>2017-03-19T10:40:13Z</time>
      </trkpt>
      <trkpt lat="45.9131" lon="6.50822">
        <ele>2233.28</ele>
        <time>2017-03-19T10:40:16Z</time>
      </trkpt>
      <trkpt lat="45.91315" lon="6.50817">
        <ele>2229.92</ele>
        <time>2017-03-19T10:40:19Z</time>
      </trkpt>
      <trkpt lat="45.91321" lon="6.5081">
        <ele>2226.55</ele>
        <time>2017-03-19T10:40:21Z</time>
      </trkpt>
      <trkpt lat="45.91328" lon="6.50799">
        <ele>2222.22</ele>
        <time>2017-03-19T10:40:24Z</time>
      </trkpt>
      <trkpt lat="45.91335" lon="6.50794">
        <ele>2219.82</ele>
        <time>2017-03-19T10:40:26Z</time>
      </trkpt>
      <trkpt lat="45.91347" lon="6.50784">
        <ele>2212.13</ele>
        <time>2017-03-19T10:40:31Z</time>
      </trkpt>
      <trkpt lat="45.91357" lon="6.50786">
        <ele>2207.32</ele>
        <time>2017-03-19T10:40:36Z</time>
      </trkpt>
      <trkpt lat="45.91363" lon="6.50775">
        <ele>2204.44</ele>
        <time>2017-03-19T10:40:39Z</time>
      </trkpt>
      <trkpt lat="45.91374" lon="6.50771">
        <ele>2201.08</ele>
        <time>2017-03-19T10:40:41Z</time>
      </trkpt>
      <trkpt lat="45.91384" lon="6.50764">
        <ele>2197.71</ele>
        <time>2017-03-19T10:40:43Z</time>
      </trkpt>
      <trkpt lat="45.91388" lon="6.50752">
        <ele>2195.79</ele>
        <time>2017-03-19T10:40:45Z</time>
      </trkpt>
      <trkpt lat="45.91394" lon="6.50737">
        <ele>2193.39</ele>
        <time>2017-03-19T10:40:47Z</time>
      </trkpt>
      <trkpt lat="45.91397" lon="6.50723">
        <ele>2192.9</ele>
        <time>2017-03-19T10:40:49Z</time>
      </trkpt>
      <trkpt lat="45.91397" lon="6.50715">
        <ele>2191.46</ele>
        <time>2017-03-19T10:40:50Z</time>
      </trkpt>
      <trkpt lat="45.91398" lon="6.50708">
        <ele>2190.98</ele>
        <time>2017-03-19T10:40:51Z</time>
      </trkpt>
      <trkpt lat="45.91398" lon="6.50702">
        <ele>2190.98</ele>
        <time>2017-03-19T10:40:52Z</time>
      </trkpt>
      <trkpt lat="45.91399" lon="6.50697">
        <ele>2190.98</ele>
        <time>2017-03-19T10:40:53Z</time>
      </trkpt>
      <trkpt lat="45.91399" lon="6.50693">
        <ele>2190.5</ele>
        <time>2017-03-19T10:40:54Z</time>
      </trkpt>
      <trkpt lat="45.91399" lon="6.50679">
        <ele>2188.1</ele>
        <time>2017-03-19T10:40:58Z</time>
      </trkpt>
      <trkpt lat="45.91399" lon="6.50674">
        <ele>2187.14</ele>
        <time>2017-03-19T10:41:00Z</time>
      </trkpt>
      <trkpt lat="45.91398" lon="6.50676">
        <ele>2188.1</ele>
        <time>2017-03-19T10:41:16Z</time>
      </trkpt>
      <trkpt lat="45.91396" lon="6.50673">
        <ele>2187.14</ele>
        <time>2017-03-19T10:41:37Z</time>
      </trkpt>
      <trkpt lat="45.91398" lon="6.50676">
        <ele>2187.62</ele>
        <time>2017-03-19T10:42:06Z</time>
      </trkpt>
      <trkpt lat="45.91395" lon="6.50676">
        <ele>2187.14</ele>
        <time>2017-03-19T10:42:33Z</time>
      </trkpt>
      <trkpt lat="45.91392" lon="6.5067">
        <ele>2187.14</ele>
        <time>2017-03-19T10:43:01Z</time>
      </trkpt>
      <trkpt lat="45.91393" lon="6.50645">
        <ele>2184.25</ele>
        <time>2017-03-19T10:43:17Z</time>
      </trkpt>
      <trkpt lat="45.91391" lon="6.5064">
        <ele>2182.33</ele>
        <time>2017-03-19T10:43:18Z</time>
      </trkpt>
      <trkpt lat="45.91389" lon="6.50635">
        <ele>2182.33</ele>
        <time>2017-03-19T10:43:19Z</time>
      </trkpt>
      <trkpt lat="45.91381" lon="6.50626">
        <ele>2179.93</ele>
        <time>2017-03-19T10:43:21Z</time>
      </trkpt>
      <trkpt lat="45.91372" lon="6.5058">
        <ele>2177.52</ele>
        <time>2017-03-19T10:43:28Z</time>
      </trkpt>
      <trkpt lat="45.91371" lon="6.50565">
        <ele>2176.08</ele>
        <time>2017-03-19T10:43:31Z</time>
      </trkpt>
      <trkpt lat="45.91372" lon="6.50553">
        <ele>2172.24</ele>
        <time>2017-03-19T10:43:33Z</time>
      </trkpt>
      <trkpt lat="45.9137" lon="6.50532">
        <ele>2168.39</ele>
        <time>2017-03-19T10:43:38Z</time>
      </trkpt>
      <trkpt lat="45.91367" lon="6.50522">
        <ele>2166.47</ele>
        <time>2017-03-19T10:43:43Z</time>
      </trkpt>
      <trkpt lat="45.91353" lon="6.50512">
        <ele>2163.1</ele>
        <time>2017-03-19T10:43:55Z</time>
      </trkpt>
      <trkpt lat="45.91338" lon="6.50497">
        <ele>2160.7</ele>
        <time>2017-03-19T10:43:59Z</time>
      </trkpt>
      <trkpt lat="45.91329" lon="6.50484">
        <ele>2157.34</ele>
        <time>2017-03-19T10:44:02Z</time>
      </trkpt>
      <trkpt lat="45.91322" lon="6.50469">
        <ele>2155.89</ele>
        <time>2017-03-19T10:44:05Z</time>
      </trkpt>
      <trkpt lat="45.91319" lon="6.50462">
        <ele>2154.93</ele>
        <time>2017-03-19T10:44:12Z</time>
      </trkpt>
      <trkpt lat="45.91318" lon="6.50463">
        <ele>2154.93</ele>
        <time>2017-03-19T10:44:13Z</time>
      </trkpt>
      <trkpt lat="45.91327" lon="6.50461">
        <ele>2152.05</ele>
        <time>2017-03-19T10:44:16Z</time>
      </trkpt>
      <trkpt lat="45.91337" lon="6.50452">
        <ele>2145.32</ele>
        <time>2017-03-19T10:44:19Z</time>
      </trkpt>
      <trkpt lat="45.91343" lon="6.50442">
        <ele>2139.55</ele>
        <time>2017-03-19T10:44:21Z</time>
      </trkpt>
      <trkpt lat="45.91347" lon="6.50431">
        <ele>2135.23</ele>
        <time>2017-03-19T10:44:23Z</time>
      </trkpt>
      <trkpt lat="45.91354" lon="6.50421">
        <ele>2130.42</ele>
        <time>2017-03-19T10:44:25Z</time>
      </trkpt>
      <trkpt lat="45.91357" lon="6.50409">
        <ele>2128.98</ele>
        <time>2017-03-19T10:44:27Z</time>
      </trkpt>
      <trkpt lat="45.91359" lon="6.50403">
        <ele>2128.5</ele>
        <time>2017-03-19T10:44:28Z</time>
      </trkpt>
      <trkpt lat="45.91364" lon="6.50374">
        <ele>2124.65</ele>
        <time>2017-03-19T10:44:33Z</time>
      </trkpt>
      <trkpt lat="45.91363" lon="6.50371">
        <ele>2124.17</ele>
        <time>2017-03-19T10:44:34Z</time>
      </trkpt>
      <trkpt lat="45.91355" lon="6.50357">
        <ele>2125.13</ele>
        <time>2017-03-19T10:44:48Z</time>
      </trkpt>
      <trkpt lat="45.91356" lon="6.50356">
        <ele>2125.13</ele>
        <time>2017-03-19T10:45:06Z</time>
      </trkpt>
      <trkpt lat="45.91366" lon="6.50361">
        <ele>2120.81</ele>
        <time>2017-03-19T10:45:10Z</time>
      </trkpt>
      <trkpt lat="45.91379" lon="6.50371">
        <ele>2116</ele>
        <time>2017-03-19T10:45:14Z</time>
      </trkpt>
      <trkpt lat="45.9139" lon="6.50371">
        <ele>2112.15</ele>
        <time>2017-03-19T10:45:17Z</time>
      </trkpt>
      <trkpt lat="45.914" lon="6.50366">
        <ele>2106.87</ele>
        <time>2017-03-19T10:45:20Z</time>
      </trkpt>
      <trkpt lat="45.91412" lon="6.50365">
        <ele>2103.5</ele>
        <time>2017-03-19T10:45:23Z</time>
      </trkpt>
      <trkpt lat="45.91419" lon="6.50373">
        <ele>2099.18</ele>
        <time>2017-03-19T10:45:25Z</time>
      </trkpt>
      <trkpt lat="45.91425" lon="6.50382">
        <ele>2097.25</ele>
        <time>2017-03-19T10:45:27Z</time>
      </trkpt>
      <trkpt lat="45.91436" lon="6.50392">
        <ele>2095.33</ele>
        <time>2017-03-19T10:45:30Z</time>
      </trkpt>
      <trkpt lat="45.91455" lon="6.504">
        <ele>2091.97</ele>
        <time>2017-03-19T10:45:34Z</time>
      </trkpt>
      <trkpt lat="45.91473" lon="6.50405">
        <ele>2088.12</ele>
        <time>2017-03-19T10:45:37Z</time>
      </trkpt>
      <trkpt lat="45.91494" lon="6.50401">
        <ele>2084.76</ele>
        <time>2017-03-19T10:45:41Z</time>
      </trkpt>
      <trkpt lat="45.91507" lon="6.50396">
        <ele>2081.87</ele>
        <time>2017-03-19T10:45:45Z</time>
      </trkpt>
      <trkpt lat="45.91533" lon="6.50379">
        <ele>2075.62</ele>
        <time>2017-03-19T10:45:49Z</time>
      </trkpt>
      <trkpt lat="45.91543" lon="6.50371">
        <ele>2071.78</ele>
        <time>2017-03-19T10:45:50Z</time>
      </trkpt>
      <trkpt lat="45.91552" lon="6.50364">
        <ele>2068.89</ele>
        <time>2017-03-19T10:45:51Z</time>
      </trkpt>
      <trkpt lat="45.91568" lon="6.50355">
        <ele>2066.97</ele>
        <time>2017-03-19T10:45:53Z</time>
      </trkpt>
      <trkpt lat="45.91583" lon="6.50336">
        <ele>2063.61</ele>
        <time>2017-03-19T10:45:56Z</time>
      </trkpt>
      <trkpt lat="45.91609" lon="6.50306">
        <ele>2058.8</ele>
        <time>2017-03-19T10:46:04Z</time>
      </trkpt>
      <trkpt lat="45.91604" lon="6.50308">
        <ele>2059.28</ele>
        <time>2017-03-19T10:46:22Z</time>
      </trkpt>
      <trkpt lat="45.916" lon="6.50304">
        <ele>2058.8</ele>
        <time>2017-03-19T10:46:40Z</time>
      </trkpt>
      <trkpt lat="45.91599" lon="6.50296">
        <ele>2058.8</ele>
        <time>2017-03-19T10:47:06Z</time>
      </trkpt>
      <trkpt lat="45.91602" lon="6.50296">
        <ele>2058.8</ele>
        <time>2017-03-19T10:47:29Z</time>
      </trkpt>
      <trkpt lat="45.91604" lon="6.50302">
        <ele>2059.76</ele>
        <time>2017-03-19T10:47:47Z</time>
      </trkpt>
      <trkpt lat="45.91601" lon="6.50304">
        <ele>2058.8</ele>
        <time>2017-03-19T10:48:14Z</time>
      </trkpt>
      <trkpt lat="45.91596" lon="6.503">
        <ele>2058.8</ele>
        <time>2017-03-19T10:48:30Z</time>
      </trkpt>
      <trkpt lat="45.91592" lon="6.50297">
        <ele>2058.32</ele>
        <time>2017-03-19T10:48:37Z</time>
      </trkpt>
      <trkpt lat="45.91586" lon="6.50294">
        <ele>2058.8</ele>
        <time>2017-03-19T10:48:41Z</time>
      </trkpt>
      <trkpt lat="45.91579" lon="6.50295">
        <ele>2057.36</ele>
        <time>2017-03-19T10:48:43Z</time>
      </trkpt>
      <trkpt lat="45.91567" lon="6.50288">
        <ele>2052.55</ele>
        <time>2017-03-19T10:48:46Z</time>
      </trkpt>
      <trkpt lat="45.91561" lon="6.50279">
        <ele>2048.23</ele>
        <time>2017-03-19T10:48:49Z</time>
      </trkpt>
      <trkpt lat="45.91557" lon="6.50268">
        <ele>2043.9</ele>
        <time>2017-03-19T10:48:51Z</time>
      </trkpt>
      <trkpt lat="45.91554" lon="6.50255">
        <ele>2040.54</ele>
        <time>2017-03-19T10:48:53Z</time>
      </trkpt>
      <trkpt lat="45.91541" lon="6.50243">
        <ele>2038.13</ele>
        <time>2017-03-19T10:48:56Z</time>
      </trkpt>
      <trkpt lat="45.91523" lon="6.50216">
        <ele>2030.92</ele>
        <time>2017-03-19T10:49:01Z</time>
      </trkpt>
      <trkpt lat="45.91521" lon="6.50202">
        <ele>2025.64</ele>
        <time>2017-03-19T10:49:03Z</time>
      </trkpt>
      <trkpt lat="45.9153" lon="6.50186">
        <ele>2022.27</ele>
        <time>2017-03-19T10:49:07Z</time>
      </trkpt>
      <trkpt lat="45.9153" lon="6.50186">
        <ele>2022.75</ele>
        <time>2017-03-19T10:49:08Z</time>
      </trkpt>
      <trkpt lat="45.91528" lon="6.50185">
        <ele>2022.75</ele>
        <time>2017-03-19T10:49:21Z</time>
      </trkpt>
      <trkpt lat="45.91524" lon="6.50176">
        <ele>2019.39</ele>
        <time>2017-03-19T10:49:25Z</time>
      </trkpt>
      <trkpt lat="45.9152" lon="6.50173">
        <ele>2019.39</ele>
        <time>2017-03-19T10:49:26Z</time>
      </trkpt>
      <trkpt lat="45.915" lon="6.50152">
        <ele>2017.46</ele>
        <time>2017-03-19T10:49:32Z</time>
      </trkpt>
      <trkpt lat="45.91488" lon="6.50128">
        <ele>2013.14</ele>
        <time>2017-03-19T10:49:36Z</time>
      </trkpt>
      <trkpt lat="45.91484" lon="6.50117">
        <ele>2012.18</ele>
        <time>2017-03-19T10:49:38Z</time>
      </trkpt>
      <trkpt lat="45.91489" lon="6.50101">
        <ele>2007.85</ele>
        <time>2017-03-19T10:49:42Z</time>
      </trkpt>
      <trkpt lat="45.91501" lon="6.50097">
        <ele>2003.52</ele>
        <time>2017-03-19T10:49:44Z</time>
      </trkpt>
      <trkpt lat="45.91523" lon="6.5006">
        <ele>1997.76</ele>
        <time>2017-03-19T10:49:50Z</time>
      </trkpt>
      <trkpt lat="45.91522" lon="6.50048">
        <ele>1996.8</ele>
        <time>2017-03-19T10:49:57Z</time>
      </trkpt>
      <trkpt lat="45.91518" lon="6.50046">
        <ele>1996.8</ele>
        <time>2017-03-19T10:50:18Z</time>
      </trkpt>
      <trkpt lat="45.91516" lon="6.50045">
        <ele>1997.28</ele>
        <time>2017-03-19T10:50:48Z</time>
      </trkpt>
      <trkpt lat="45.91518" lon="6.50048">
        <ele>1997.76</ele>
        <time>2017-03-19T10:50:57Z</time>
      </trkpt>
      <trkpt lat="45.91534" lon="6.50051">
        <ele>1992.95</ele>
        <time>2017-03-19T10:51:02Z</time>
      </trkpt>
      <trkpt lat="45.91547" lon="6.50047">
        <ele>1989.59</ele>
        <time>2017-03-19T10:51:05Z</time>
      </trkpt>
      <trkpt lat="45.91554" lon="6.50037">
        <ele>1985.74</ele>
        <time>2017-03-19T10:51:08Z</time>
      </trkpt>
      <trkpt lat="45.91559" lon="6.5003">
        <ele>1982.86</ele>
        <time>2017-03-19T10:51:11Z</time>
      </trkpt>
      <trkpt lat="45.91558" lon="6.50024">
        <ele>1982.38</ele>
        <time>2017-03-19T10:51:13Z</time>
      </trkpt>
      <trkpt lat="45.91556" lon="6.50022">
        <ele>1981.9</ele>
        <time>2017-03-19T10:51:33Z</time>
      </trkpt>
      <trkpt lat="45.91557" lon="6.50025">
        <ele>1982.38</ele>
        <time>2017-03-19T10:51:41Z</time>
      </trkpt>
      <trkpt lat="45.91568" lon="6.50025">
        <ele>1978.05</ele>
        <time>2017-03-19T10:51:45Z</time>
      </trkpt>
      <trkpt lat="45.91575" lon="6.50021">
        <ele>1975.17</ele>
        <time>2017-03-19T10:51:47Z</time>
      </trkpt>
      <trkpt lat="45.91585" lon="6.50029">
        <ele>1971.32</ele>
        <time>2017-03-19T10:51:50Z</time>
      </trkpt>
      <trkpt lat="45.91596" lon="6.50028">
        <ele>1968.44</ele>
        <time>2017-03-19T10:51:53Z</time>
      </trkpt>
      <trkpt lat="45.91605" lon="6.50027">
        <ele>1964.59</ele>
        <time>2017-03-19T10:51:55Z</time>
      </trkpt>
      <trkpt lat="45.91624" lon="6.50025">
        <ele>1958.34</ele>
        <time>2017-03-19T10:51:58Z</time>
      </trkpt>
      <trkpt lat="45.91631" lon="6.50025">
        <ele>1954.98</ele>
        <time>2017-03-19T10:51:59Z</time>
      </trkpt>
      <trkpt lat="45.91647" lon="6.50018">
        <ele>1948.25</ele>
        <time>2017-03-19T10:52:01Z</time>
      </trkpt>
      <trkpt lat="45.91658" lon="6.50013">
        <ele>1943.92</ele>
        <time>2017-03-19T10:52:03Z</time>
      </trkpt>
      <trkpt lat="45.91671" lon="6.50011">
        <ele>1941.04</ele>
        <time>2017-03-19T10:52:06Z</time>
      </trkpt>
      <trkpt lat="45.91674" lon="6.50012">
        <ele>1939.12</ele>
        <time>2017-03-19T10:52:07Z</time>
      </trkpt>
      <trkpt lat="45.91679" lon="6.50013">
        <ele>1936.71</ele>
        <time>2017-03-19T10:52:08Z</time>
      </trkpt>
      <trkpt lat="45.91686" lon="6.50007">
        <ele>1932.87</ele>
        <time>2017-03-19T10:52:10Z</time>
      </trkpt>
      <trkpt lat="45.91694" lon="6.50009">
        <ele>1930.95</ele>
        <time>2017-03-19T10:52:12Z</time>
      </trkpt>
      <trkpt lat="45.91705" lon="6.50012">
        <ele>1927.1</ele>
        <time>2017-03-19T10:52:15Z</time>
      </trkpt>
      <trkpt lat="45.91709" lon="6.50011">
        <ele>1924.7</ele>
        <time>2017-03-19T10:52:16Z</time>
      </trkpt>
      <trkpt lat="45.91715" lon="6.5001">
        <ele>1922.77</ele>
        <time>2017-03-19T10:52:17Z</time>
      </trkpt>
      <trkpt lat="45.91729" lon="6.50008">
        <ele>1918.45</ele>
        <time>2017-03-19T10:52:20Z</time>
      </trkpt>
      <trkpt lat="45.91746" lon="6.50005">
        <ele>1913.64</ele>
        <time>2017-03-19T10:52:24Z</time>
      </trkpt>
      <trkpt lat="45.91754" lon="6.50002">
        <ele>1909.8</ele>
        <time>2017-03-19T10:52:26Z</time>
      </trkpt>
      <trkpt lat="45.91761" lon="6.49997">
        <ele>1905.47</ele>
        <time>2017-03-19T10:52:28Z</time>
      </trkpt>
      <trkpt lat="45.91769" lon="6.49994">
        <ele>1901.63</ele>
        <time>2017-03-19T10:52:30Z</time>
      </trkpt>
      <trkpt lat="45.91777" lon="6.49992">
        <ele>1898.74</ele>
        <time>2017-03-19T10:52:32Z</time>
      </trkpt>
      <trkpt lat="45.91784" lon="6.49981">
        <ele>1893.93</ele>
        <time>2017-03-19T10:52:34Z</time>
      </trkpt>
      <trkpt lat="45.91793" lon="6.49981">
        <ele>1892.01</ele>
        <time>2017-03-19T10:52:37Z</time>
      </trkpt>
      <trkpt lat="45.91797" lon="6.49979">
        <ele>1890.57</ele>
        <time>2017-03-19T10:52:39Z</time>
      </trkpt>
      <trkpt lat="45.91763" lon="6.49969">
        <ele>1887.69</ele>
        <time>2017-03-19T10:52:54Z</time>
      </trkpt>
      <trkpt lat="45.91767" lon="6.49967">
        <ele>1886.72</ele>
        <time>2017-03-19T10:52:55Z</time>
      </trkpt>
      <trkpt lat="45.9177" lon="6.49967">
        <ele>1885.28</ele>
        <time>2017-03-19T10:52:56Z</time>
      </trkpt>
      <trkpt lat="45.91784" lon="6.49966">
        <ele>1882.4</ele>
        <time>2017-03-19T10:53:06Z</time>
      </trkpt>
      <trkpt lat="45.91783" lon="6.49965">
        <ele>1882.4</ele>
        <time>2017-03-19T10:53:24Z</time>
      </trkpt>
      <trkpt lat="45.91792" lon="6.49962">
        <ele>1880.48</ele>
        <time>2017-03-19T10:53:28Z</time>
      </trkpt>
      <trkpt lat="45.91796" lon="6.49956">
        <ele>1876.15</ele>
        <time>2017-03-19T10:53:30Z</time>
      </trkpt>
      <trkpt lat="45.91799" lon="6.49957">
        <ele>1874.71</ele>
        <time>2017-03-19T10:53:32Z</time>
      </trkpt>
      <trkpt lat="45.91797" lon="6.49955">
        <ele>1875.19</ele>
        <time>2017-03-19T10:53:49Z</time>
      </trkpt>
      <trkpt lat="45.91796" lon="6.49958">
        <ele>1875.19</ele>
        <time>2017-03-19T10:54:21Z</time>
      </trkpt>
      <trkpt lat="45.91795" lon="6.49959">
        <ele>1875.19</ele>
        <time>2017-03-19T10:54:36Z</time>
      </trkpt>
      <trkpt lat="45.91801" lon="6.49962">
        <ele>1874.23</ele>
        <time>2017-03-19T10:54:39Z</time>
      </trkpt>
      <trkpt lat="45.91809" lon="6.49967">
        <ele>1871.34</ele>
        <time>2017-03-19T10:54:41Z</time>
      </trkpt>
      <trkpt lat="45.91822" lon="6.49971">
        <ele>1864.13</ele>
        <time>2017-03-19T10:54:44Z</time>
      </trkpt>
      <trkpt lat="45.91833" lon="6.49974">
        <ele>1860.77</ele>
        <time>2017-03-19T10:54:46Z</time>
      </trkpt>
      <trkpt lat="45.91854" lon="6.49981">
        <ele>1853.08</ele>
        <time>2017-03-19T10:54:51Z</time>
      </trkpt>
      <trkpt lat="45.91867" lon="6.49983">
        <ele>1846.83</ele>
        <time>2017-03-19T10:54:55Z</time>
      </trkpt>
      <trkpt lat="45.91871" lon="6.49977">
        <ele>1842.98</ele>
        <time>2017-03-19T10:54:57Z</time>
      </trkpt>
      <trkpt lat="45.91874" lon="6.49976">
        <ele>1841.06</ele>
        <time>2017-03-19T10:54:58Z</time>
      </trkpt>
      <trkpt lat="45.91888" lon="6.49974">
        <ele>1832.89</ele>
        <time>2017-03-19T10:55:02Z</time>
      </trkpt>
      <trkpt lat="45.91894" lon="6.49977">
        <ele>1829.05</ele>
        <time>2017-03-19T10:55:04Z</time>
      </trkpt>
      <trkpt lat="45.91905" lon="6.49979">
        <ele>1824.24</ele>
        <time>2017-03-19T10:55:08Z</time>
      </trkpt>
      <trkpt lat="45.91912" lon="6.49979">
        <ele>1820.87</ele>
        <time>2017-03-19T10:55:10Z</time>
      </trkpt>
      <trkpt lat="45.9192" lon="6.49976">
        <ele>1816.55</ele>
        <time>2017-03-19T10:55:12Z</time>
      </trkpt>
      <trkpt lat="45.91925" lon="6.49976">
        <ele>1815.11</ele>
        <time>2017-03-19T10:55:13Z</time>
      </trkpt>
      <trkpt lat="45.91931" lon="6.49965">
        <ele>1809.82</ele>
        <time>2017-03-19T10:55:16Z</time>
      </trkpt>
      <trkpt lat="45.91934" lon="6.49962">
        <ele>1807.9</ele>
        <time>2017-03-19T10:55:17Z</time>
      </trkpt>
      <trkpt lat="45.91937" lon="6.4996">
        <ele>1806.94</ele>
        <time>2017-03-19T10:55:18Z</time>
      </trkpt>
      <trkpt lat="45.91943" lon="6.49959">
        <ele>1801.65</ele>
        <time>2017-03-19T10:55:21Z</time>
      </trkpt>
      <trkpt lat="45.91946" lon="6.49957">
        <ele>1800.69</ele>
        <time>2017-03-19T10:55:22Z</time>
      </trkpt>
      <trkpt lat="45.91948" lon="6.49954">
        <ele>1798.28</ele>
        <time>2017-03-19T10:55:23Z</time>
      </trkpt>
      <trkpt lat="45.91951" lon="6.49954">
        <ele>1795.88</ele>
        <time>2017-03-19T10:55:24Z</time>
      </trkpt>
      <trkpt lat="45.91954" lon="6.49952">
        <ele>1794.92</ele>
        <time>2017-03-19T10:55:25Z</time>
      </trkpt>
      <trkpt lat="45.91957" lon="6.49951">
        <ele>1793.48</ele>
        <time>2017-03-19T10:55:26Z</time>
      </trkpt>
      <trkpt lat="45.91959" lon="6.49951">
        <ele>1791.07</ele>
        <time>2017-03-19T10:55:27Z</time>
      </trkpt>
      <trkpt lat="45.91962" lon="6.4995">
        <ele>1789.63</ele>
        <time>2017-03-19T10:55:28Z</time>
      </trkpt>
      <trkpt lat="45.91964" lon="6.49947">
        <ele>1788.67</ele>
        <time>2017-03-19T10:55:29Z</time>
      </trkpt>
      <trkpt lat="45.91963" lon="6.49944">
        <ele>1787.23</ele>
        <time>2017-03-19T10:55:30Z</time>
      </trkpt>
      <trkpt lat="45.91962" lon="6.49943">
        <ele>1786.75</ele>
        <time>2017-03-19T10:55:31Z</time>
      </trkpt>
      <trkpt lat="45.91959" lon="6.49947">
        <ele>1787.23</ele>
        <time>2017-03-19T10:55:45Z</time>
      </trkpt>
      <trkpt lat="45.91961" lon="6.49944">
        <ele>1787.23</ele>
        <time>2017-03-19T10:56:07Z</time>
      </trkpt>
      <trkpt lat="45.91963" lon="6.49939">
        <ele>1786.27</ele>
        <time>2017-03-19T10:56:09Z</time>
      </trkpt>
      <trkpt lat="45.91967" lon="6.49937">
        <ele>1785.31</ele>
        <time>2017-03-19T10:56:10Z</time>
      </trkpt>
      <trkpt lat="45.91971" lon="6.49936">
        <ele>1782.9</ele>
        <time>2017-03-19T10:56:11Z</time>
      </trkpt>
      <trkpt lat="45.91974" lon="6.49934">
        <ele>1781.46</ele>
        <time>2017-03-19T10:56:12Z</time>
      </trkpt>
      <trkpt lat="45.91975" lon="6.4993">
        <ele>1779.54</ele>
        <time>2017-03-19T10:56:13Z</time>
      </trkpt>
      <trkpt lat="45.91976" lon="6.49926">
        <ele>1778.58</ele>
        <time>2017-03-19T10:56:14Z</time>
      </trkpt>
      <trkpt lat="45.91978" lon="6.49923">
        <ele>1776.65</ele>
        <time>2017-03-19T10:56:15Z</time>
      </trkpt>
      <trkpt lat="45.91981" lon="6.49921">
        <ele>1774.25</ele>
        <time>2017-03-19T10:56:16Z</time>
      </trkpt>
      <trkpt lat="45.91984" lon="6.49917">
        <ele>1773.29</ele>
        <time>2017-03-19T10:56:17Z</time>
      </trkpt>
      <trkpt lat="45.91988" lon="6.49914">
        <ele>1771.37</ele>
        <time>2017-03-19T10:56:18Z</time>
      </trkpt>
      <trkpt lat="45.91991" lon="6.49912">
        <ele>1768.96</ele>
        <time>2017-03-19T10:56:19Z</time>
      </trkpt>
      <trkpt lat="45.91995" lon="6.49912">
        <ele>1766.56</ele>
        <time>2017-03-19T10:56:20Z</time>
      </trkpt>
      <trkpt lat="45.91999" lon="6.49911">
        <ele>1765.6</ele>
        <time>2017-03-19T10:56:21Z</time>
      </trkpt>
      <trkpt lat="45.92002" lon="6.49909">
        <ele>1764.16</ele>
        <time>2017-03-19T10:56:22Z</time>
      </trkpt>
      <trkpt lat="45.92006" lon="6.49909">
        <ele>1762.23</ele>
        <time>2017-03-19T10:56:23Z</time>
      </trkpt>
      <trkpt lat="45.92009" lon="6.49908">
        <ele>1760.31</ele>
        <time>2017-03-19T10:56:24Z</time>
      </trkpt>
      <trkpt lat="45.92012" lon="6.49905">
        <ele>1758.87</ele>
        <time>2017-03-19T10:56:25Z</time>
      </trkpt>
      <trkpt lat="45.92016" lon="6.49904">
        <ele>1756.95</ele>
        <time>2017-03-19T10:56:26Z</time>
      </trkpt>
      <trkpt lat="45.9202" lon="6.49903">
        <ele>1755.02</ele>
        <time>2017-03-19T10:56:27Z</time>
      </trkpt>
      <trkpt lat="45.92023" lon="6.49901">
        <ele>1752.62</ele>
        <time>2017-03-19T10:56:28Z</time>
      </trkpt>
      <trkpt lat="45.92028" lon="6.499">
        <ele>1750.22</ele>
        <time>2017-03-19T10:56:29Z</time>
      </trkpt>
      <trkpt lat="45.92032" lon="6.499">
        <ele>1748.29</ele>
        <time>2017-03-19T10:56:30Z</time>
      </trkpt>
      <trkpt lat="45.92036" lon="6.49899">
        <ele>1746.37</ele>
        <time>2017-03-19T10:56:31Z</time>
      </trkpt>
      <trkpt lat="45.92045" lon="6.49898">
        <ele>1741.57</ele>
        <time>2017-03-19T10:56:33Z</time>
      </trkpt>
      <trkpt lat="45.92048" lon="6.49896">
        <ele>1740.6</ele>
        <time>2017-03-19T10:56:34Z</time>
      </trkpt>
      <trkpt lat="45.9205" lon="6.49892">
        <ele>1738.68</ele>
        <time>2017-03-19T10:56:35Z</time>
      </trkpt>
      <trkpt lat="45.9206" lon="6.49891">
        <ele>1735.32</ele>
        <time>2017-03-19T10:56:37Z</time>
      </trkpt>
      <trkpt lat="45.92065" lon="6.49891">
        <ele>1733.39</ele>
        <time>2017-03-19T10:56:38Z</time>
      </trkpt>
      <trkpt lat="45.92065" lon="6.49875">
        <ele>1728.11</ele>
        <time>2017-03-19T10:56:42Z</time>
      </trkpt>
      <trkpt lat="45.92071" lon="6.4987">
        <ele>1724.74</ele>
        <time>2017-03-19T10:56:44Z</time>
      </trkpt>
      <trkpt lat="45.92078" lon="6.49866">
        <ele>1721.38</ele>
        <time>2017-03-19T10:56:46Z</time>
      </trkpt>
      <trkpt lat="45.92087" lon="6.49856">
        <ele>1715.61</ele>
        <time>2017-03-19T10:56:49Z</time>
      </trkpt>
      <trkpt lat="45.92095" lon="6.4985">
        <ele>1711.76</ele>
        <time>2017-03-19T10:56:51Z</time>
      </trkpt>
      <trkpt lat="45.92108" lon="6.49826">
        <ele>1704.07</ele>
        <time>2017-03-19T10:56:56Z</time>
      </trkpt>
      <trkpt lat="45.92113" lon="6.49818">
        <ele>1700.71</ele>
        <time>2017-03-19T10:56:58Z</time>
      </trkpt>
      <trkpt lat="45.9212" lon="6.49807">
        <ele>1696.38</ele>
        <time>2017-03-19T10:57:01Z</time>
      </trkpt>
      <trkpt lat="45.92124" lon="6.49793">
        <ele>1692.54</ele>
        <time>2017-03-19T10:57:04Z</time>
      </trkpt>
      <trkpt lat="45.92127" lon="6.49783">
        <ele>1689.17</ele>
        <time>2017-03-19T10:57:06Z</time>
      </trkpt>
      <trkpt lat="45.92128" lon="6.49772">
        <ele>1685.81</ele>
        <time>2017-03-19T10:57:09Z</time>
      </trkpt>
      <trkpt lat="45.92127" lon="6.49772">
        <ele>1686.77</ele>
        <time>2017-03-19T10:57:13Z</time>
      </trkpt>
      <trkpt lat="45.9213" lon="6.49772">
        <ele>1685.81</ele>
        <time>2017-03-19T10:57:36Z</time>
      </trkpt>
      <trkpt lat="45.9213" lon="6.49773">
        <ele>1685.81</ele>
        <time>2017-03-19T10:58:07Z</time>
      </trkpt>
      <trkpt lat="45.92132" lon="6.49772">
        <ele>1685.81</ele>
        <time>2017-03-19T10:58:30Z</time>
      </trkpt>
      <trkpt lat="45.92135" lon="6.4977">
        <ele>1685.81</ele>
        <time>2017-03-19T10:58:52Z</time>
      </trkpt>
      <trkpt lat="45.92134" lon="6.49762">
        <ele>1682.93</ele>
        <time>2017-03-19T10:58:54Z</time>
      </trkpt>
      <trkpt lat="45.92131" lon="6.49758">
        <ele>1681.96</ele>
        <time>2017-03-19T10:58:55Z</time>
      </trkpt>
      <trkpt lat="45.92131" lon="6.49753">
        <ele>1681.96</ele>
        <time>2017-03-19T10:58:56Z</time>
      </trkpt>
      <trkpt lat="45.92138" lon="6.49749">
        <ele>1677.64</ele>
        <time>2017-03-19T10:58:58Z</time>
      </trkpt>
      <trkpt lat="45.92145" lon="6.49742">
        <ele>1674.27</ele>
        <time>2017-03-19T10:59:01Z</time>
      </trkpt>
      <trkpt lat="45.92147" lon="6.49732">
        <ele>1670.91</ele>
        <time>2017-03-19T10:59:03Z</time>
      </trkpt>
      <trkpt lat="45.92149" lon="6.4972">
        <ele>1666.58</ele>
        <time>2017-03-19T10:59:05Z</time>
      </trkpt>
      <trkpt lat="45.92146" lon="6.49715">
        <ele>1665.62</ele>
        <time>2017-03-19T10:59:06Z</time>
      </trkpt>
      <trkpt lat="45.92141" lon="6.49706">
        <ele>1664.18</ele>
        <time>2017-03-19T10:59:09Z</time>
      </trkpt>
      <trkpt lat="45.92133" lon="6.49697">
        <ele>1661.78</ele>
        <time>2017-03-19T10:59:13Z</time>
      </trkpt>
      <trkpt lat="45.92134" lon="6.49697">
        <ele>1661.78</ele>
        <time>2017-03-19T10:59:29Z</time>
      </trkpt>
      <trkpt lat="45.92142" lon="6.49689">
        <ele>1658.89</ele>
        <time>2017-03-19T10:59:34Z</time>
      </trkpt>
      <trkpt lat="45.92142" lon="6.49689">
        <ele>1659.37</ele>
        <time>2017-03-19T10:59:35Z</time>
      </trkpt>
      <trkpt lat="45.9216" lon="6.49688">
        <ele>1656.01</ele>
        <time>2017-03-19T10:59:42Z</time>
      </trkpt>
      <trkpt lat="45.92177" lon="6.49695">
        <ele>1652.64</ele>
        <time>2017-03-19T10:59:49Z</time>
      </trkpt>
      <trkpt lat="45.92181" lon="6.49681">
        <ele>1648.32</ele>
        <time>2017-03-19T10:59:53Z</time>
      </trkpt>
      <trkpt lat="45.92187" lon="6.49678">
        <ele>1645.43</ele>
        <time>2017-03-19T10:59:57Z</time>
      </trkpt>
      <trkpt lat="45.92189" lon="6.49679">
        <ele>1644.95</ele>
        <time>2017-03-19T10:59:58Z</time>
      </trkpt>
      <trkpt lat="45.92198" lon="6.49683">
        <ele>1642.07</ele>
        <time>2017-03-19T11:00:02Z</time>
      </trkpt>
      <trkpt lat="45.92198" lon="6.49683">
        <ele>1642.55</ele>
        <time>2017-03-19T11:00:10Z</time>
      </trkpt>
      <trkpt lat="45.92207" lon="6.49677">
        <ele>1638.22</ele>
        <time>2017-03-19T11:00:15Z</time>
      </trkpt>
      <trkpt lat="45.92207" lon="6.49674">
        <ele>1636.78</ele>
        <time>2017-03-19T11:00:16Z</time>
      </trkpt>
      <trkpt lat="45.92206" lon="6.4967">
        <ele>1636.78</ele>
        <time>2017-03-19T11:00:17Z</time>
      </trkpt>
      <trkpt lat="45.92204" lon="6.49668">
        <ele>1637.26</ele>
        <time>2017-03-19T11:00:18Z</time>
      </trkpt>
      <trkpt lat="45.92204" lon="6.49661">
        <ele>1634.86</ele>
        <time>2017-03-19T11:00:27Z</time>
      </trkpt>
      <trkpt lat="45.92205" lon="6.49655">
        <ele>1633.42</ele>
        <time>2017-03-19T11:00:29Z</time>
      </trkpt>
      <trkpt lat="45.9221" lon="6.49651">
        <ele>1630.53</ele>
        <time>2017-03-19T11:00:31Z</time>
      </trkpt>
      <trkpt lat="45.92211" lon="6.49647">
        <ele>1628.61</ele>
        <time>2017-03-19T11:00:32Z</time>
      </trkpt>
      <trkpt lat="45.9221" lon="6.49644">
        <ele>1627.17</ele>
        <time>2017-03-19T11:00:33Z</time>
      </trkpt>
      <trkpt lat="45.92209" lon="6.49642">
        <ele>1627.17</ele>
        <time>2017-03-19T11:00:34Z</time>
      </trkpt>
      <trkpt lat="45.92208" lon="6.4964">
        <ele>1626.21</ele>
        <time>2017-03-19T11:00:35Z</time>
      </trkpt>
      <trkpt lat="45.92209" lon="6.49641">
        <ele>1626.21</ele>
        <time>2017-03-19T11:00:48Z</time>
      </trkpt>
      <trkpt lat="45.92209" lon="6.49641">
        <ele>1626.21</ele>
        <time>2017-03-19T11:00:54Z</time>
      </trkpt>
      <trkpt lat="45.92214" lon="6.49637">
        <ele>1622.84</ele>
        <time>2017-03-19T11:00:58Z</time>
      </trkpt>
      <trkpt lat="45.92213" lon="6.49635">
        <ele>1622.84</ele>
        <time>2017-03-19T11:01:03Z</time>
      </trkpt>
      <trkpt lat="45.92218" lon="6.49635">
        <ele>1621.4</ele>
        <time>2017-03-19T11:01:06Z</time>
      </trkpt>
      <trkpt lat="45.92222" lon="6.49634">
        <ele>1619.48</ele>
        <time>2017-03-19T11:01:07Z</time>
      </trkpt>
      <trkpt lat="45.92225" lon="6.4963">
        <ele>1617.07</ele>
        <time>2017-03-19T11:01:08Z</time>
      </trkpt>
      <trkpt lat="45.92226" lon="6.49625">
        <ele>1615.63</ele>
        <time>2017-03-19T11:01:09Z</time>
      </trkpt>
      <trkpt lat="45.92228" lon="6.49622">
        <ele>1615.63</ele>
        <time>2017-03-19T11:01:10Z</time>
      </trkpt>
      <trkpt lat="45.9223" lon="6.49622">
        <ele>1613.71</ele>
        <time>2017-03-19T11:01:11Z</time>
      </trkpt>
      <trkpt lat="45.92232" lon="6.49622">
        <ele>1611.79</ele>
        <time>2017-03-19T11:01:12Z</time>
      </trkpt>
      <trkpt lat="45.92234" lon="6.4962">
        <ele>1611.79</ele>
        <time>2017-03-19T11:01:13Z</time>
      </trkpt>
      <trkpt lat="45.92234" lon="6.49617">
        <ele>1609.86</ele>
        <time>2017-03-19T11:01:14Z</time>
      </trkpt>
      <trkpt lat="45.92233" lon="6.49615">
        <ele>1607.94</ele>
        <time>2017-03-19T11:01:15Z</time>
      </trkpt>
      <trkpt lat="45.92232" lon="6.49613">
        <ele>1607.46</ele>
        <time>2017-03-19T11:01:16Z</time>
      </trkpt>
      <trkpt lat="45.92233" lon="6.4961">
        <ele>1606.98</ele>
        <time>2017-03-19T11:01:17Z</time>
      </trkpt>
      <trkpt lat="45.92235" lon="6.49607">
        <ele>1605.54</ele>
        <time>2017-03-19T11:01:18Z</time>
      </trkpt>
      <trkpt lat="45.9224" lon="6.49604">
        <ele>1603.62</ele>
        <time>2017-03-19T11:01:19Z</time>
      </trkpt>
      <trkpt lat="45.92248" lon="6.49601">
        <ele>1599.77</ele>
        <time>2017-03-19T11:01:21Z</time>
      </trkpt>
      <trkpt lat="45.92251" lon="6.496">
        <ele>1599.77</ele>
        <time>2017-03-19T11:01:22Z</time>
      </trkpt>
      <trkpt lat="45.9226" lon="6.49597">
        <ele>1597.37</ele>
        <time>2017-03-19T11:01:25Z</time>
      </trkpt>
      <trkpt lat="45.9226" lon="6.49599">
        <ele>1597.85</ele>
        <time>2017-03-19T11:01:43Z</time>
      </trkpt>
      <trkpt lat="45.92261" lon="6.49595">
        <ele>1597.37</ele>
        <time>2017-03-19T11:01:47Z</time>
      </trkpt>
      <trkpt lat="45.92263" lon="6.49593">
        <ele>1597.37</ele>
        <time>2017-03-19T11:01:48Z</time>
      </trkpt>
      <trkpt lat="45.92266" lon="6.49589">
        <ele>1595.45</ele>
        <time>2017-03-19T11:01:49Z</time>
      </trkpt>
      <trkpt lat="45.92267" lon="6.49584">
        <ele>1594</ele>
        <time>2017-03-19T11:01:50Z</time>
      </trkpt>
      <trkpt lat="45.92266" lon="6.49579">
        <ele>1591.6</ele>
        <time>2017-03-19T11:01:51Z</time>
      </trkpt>
      <trkpt lat="45.92263" lon="6.49576">
        <ele>1590.16</ele>
        <time>2017-03-19T11:01:52Z</time>
      </trkpt>
      <trkpt lat="45.9226" lon="6.49574">
        <ele>1590.16</ele>
        <time>2017-03-19T11:01:53Z</time>
      </trkpt>
      <trkpt lat="45.92257" lon="6.4957">
        <ele>1588.72</ele>
        <time>2017-03-19T11:01:55Z</time>
      </trkpt>
      <trkpt lat="45.92258" lon="6.49565">
        <ele>1586.31</ele>
        <time>2017-03-19T11:01:56Z</time>
      </trkpt>
      <trkpt lat="45.9226" lon="6.49561">
        <ele>1585.35</ele>
        <time>2017-03-19T11:01:57Z</time>
      </trkpt>
      <trkpt lat="45.9226" lon="6.49558">
        <ele>1583.43</ele>
        <time>2017-03-19T11:01:58Z</time>
      </trkpt>
      <trkpt lat="45.92258" lon="6.49557">
        <ele>1581.51</ele>
        <time>2017-03-19T11:01:59Z</time>
      </trkpt>
      <trkpt lat="45.92255" lon="6.49555">
        <ele>1581.03</ele>
        <time>2017-03-19T11:02:00Z</time>
      </trkpt>
      <trkpt lat="45.92253" lon="6.49551">
        <ele>1580.54</ele>
        <time>2017-03-19T11:02:01Z</time>
      </trkpt>
      <trkpt lat="45.92253" lon="6.49546">
        <ele>1579.58</ele>
        <time>2017-03-19T11:02:02Z</time>
      </trkpt>
      <trkpt lat="45.92256" lon="6.49542">
        <ele>1577.18</ele>
        <time>2017-03-19T11:02:03Z</time>
      </trkpt>
      <trkpt lat="45.92257" lon="6.4953">
        <ele>1572.85</ele>
        <time>2017-03-19T11:02:06Z</time>
      </trkpt>
      <trkpt lat="45.92255" lon="6.49527">
        <ele>1571.89</ele>
        <time>2017-03-19T11:02:07Z</time>
      </trkpt>
      <trkpt lat="45.92254" lon="6.49522">
        <ele>1570.93</ele>
        <time>2017-03-19T11:02:08Z</time>
      </trkpt>
      <trkpt lat="45.92255" lon="6.49517">
        <ele>1569.01</ele>
        <time>2017-03-19T11:02:09Z</time>
      </trkpt>
      <trkpt lat="45.92256" lon="6.49513">
        <ele>1568.53</ele>
        <time>2017-03-19T11:02:10Z</time>
      </trkpt>
      <trkpt lat="45.92255" lon="6.49508">
        <ele>1566.12</ele>
        <time>2017-03-19T11:02:11Z</time>
      </trkpt>
      <trkpt lat="45.92258" lon="6.49501">
        <ele>1564.2</ele>
        <time>2017-03-19T11:02:13Z</time>
      </trkpt>
      <trkpt lat="45.92258" lon="6.49497">
        <ele>1562.28</ele>
        <time>2017-03-19T11:02:14Z</time>
      </trkpt>
      <trkpt lat="45.92257" lon="6.49494">
        <ele>1560.36</ele>
        <time>2017-03-19T11:02:15Z</time>
      </trkpt>
      <trkpt lat="45.92255" lon="6.49492">
        <ele>1559.4</ele>
        <time>2017-03-19T11:02:17Z</time>
      </trkpt>
      <trkpt lat="45.92255" lon="6.4949">
        <ele>1559.88</ele>
        <time>2017-03-19T11:02:22Z</time>
      </trkpt>
      <trkpt lat="45.92255" lon="6.49487">
        <ele>1559.4</ele>
        <time>2017-03-19T11:02:23Z</time>
      </trkpt>
      <trkpt lat="45.92256" lon="6.49481">
        <ele>1557.47</ele>
        <time>2017-03-19T11:02:24Z</time>
      </trkpt>
      <trkpt lat="45.92258" lon="6.49477">
        <ele>1556.03</ele>
        <time>2017-03-19T11:02:25Z</time>
      </trkpt>
      <trkpt lat="45.92257" lon="6.49471">
        <ele>1555.07</ele>
        <time>2017-03-19T11:02:26Z</time>
      </trkpt>
      <trkpt lat="45.92255" lon="6.49466">
        <ele>1553.63</ele>
        <time>2017-03-19T11:02:27Z</time>
      </trkpt>
      <trkpt lat="45.92252" lon="6.49461">
        <ele>1552.67</ele>
        <time>2017-03-19T11:02:28Z</time>
      </trkpt>
      <trkpt lat="45.92252" lon="6.49455">
        <ele>1551.22</ele>
        <time>2017-03-19T11:02:29Z</time>
      </trkpt>
      <trkpt lat="45.92257" lon="6.49446">
        <ele>1548.34</ele>
        <time>2017-03-19T11:02:31Z</time>
      </trkpt>
      <trkpt lat="45.92256" lon="6.4944">
        <ele>1547.38</ele>
        <time>2017-03-19T11:02:32Z</time>
      </trkpt>
      <trkpt lat="45.92254" lon="6.49436">
        <ele>1545.46</ele>
        <time>2017-03-19T11:02:33Z</time>
      </trkpt>
      <trkpt lat="45.92251" lon="6.49432">
        <ele>1545.46</ele>
        <time>2017-03-19T11:02:34Z</time>
      </trkpt>
      <trkpt lat="45.92251" lon="6.49425">
        <ele>1544.01</ele>
        <time>2017-03-19T11:02:35Z</time>
      </trkpt>
      <trkpt lat="45.92259" lon="6.49417">
        <ele>1540.65</ele>
        <time>2017-03-19T11:02:37Z</time>
      </trkpt>
      <trkpt lat="45.92266" lon="6.49406">
        <ele>1536.8</ele>
        <time>2017-03-19T11:02:40Z</time>
      </trkpt>
      <trkpt lat="45.92264" lon="6.49396">
        <ele>1535.36</ele>
        <time>2017-03-19T11:02:42Z</time>
      </trkpt>
      <trkpt lat="45.92272" lon="6.49377">
        <ele>1531.04</ele>
        <time>2017-03-19T11:02:45Z</time>
      </trkpt>
      <trkpt lat="45.92278" lon="6.49352">
        <ele>1524.31</ele>
        <time>2017-03-19T11:02:51Z</time>
      </trkpt>
      <trkpt lat="45.92281" lon="6.49346">
        <ele>1520.94</ele>
        <time>2017-03-19T11:02:54Z</time>
      </trkpt>
      <trkpt lat="45.92281" lon="6.49346">
        <ele>1521.42</ele>
        <time>2017-03-19T11:02:55Z</time>
      </trkpt>
      <trkpt lat="45.92278" lon="6.49341">
        <ele>1521.42</ele>
        <time>2017-03-19T11:03:13Z</time>
      </trkpt>
      <trkpt lat="45.92279" lon="6.4934">
        <ele>1518.54</ele>
        <time>2017-03-19T11:03:37Z</time>
      </trkpt>
      <trkpt lat="45.92277" lon="6.49339">
        <ele>1523.35</ele>
        <time>2017-03-19T11:03:39Z</time>
      </trkpt>
      <trkpt lat="45.92277" lon="6.49338">
        <ele>1520.94</ele>
        <time>2017-03-19T11:03:40Z</time>
      </trkpt>
      <trkpt lat="45.9228" lon="6.49338">
        <ele>1520.94</ele>
        <time>2017-03-19T11:03:57Z</time>
      </trkpt>
      <trkpt lat="45.92281" lon="6.49338">
        <ele>1519.98</ele>
        <time>2017-03-19T11:04:13Z</time>
      </trkpt>
      <trkpt lat="45.92281" lon="6.49335">
        <ele>1518.06</ele>
        <time>2017-03-19T11:33:15Z</time>
      </trkpt>
      <trkpt lat="45.92285" lon="6.49321">
        <ele>1516.62</ele>
        <time>2017-03-19T11:36:08Z</time>
      </trkpt>
      <trkpt lat="45.92271" lon="6.49287">
        <ele>1511.81</ele>
        <time>2017-03-19T11:36:16Z</time>
      </trkpt>
      <trkpt lat="45.92262" lon="6.49267">
        <ele>1509.89</ele>
        <time>2017-03-19T11:36:22Z</time>
      </trkpt>
      <trkpt lat="45.92251" lon="6.49259">
        <ele>1507.97</ele>
        <time>2017-03-19T11:36:27Z</time>
      </trkpt>
      <trkpt lat="45.92239" lon="6.49246">
        <ele>1506.04</ele>
        <time>2017-03-19T11:36:31Z</time>
      </trkpt>
      <trkpt lat="45.92232" lon="6.49238">
        <ele>1504.6</ele>
        <time>2017-03-19T11:36:34Z</time>
      </trkpt>
      <trkpt lat="45.92225" lon="6.49229">
        <ele>1503.16</ele>
        <time>2017-03-19T11:36:38Z</time>
      </trkpt>
      <trkpt lat="45.92213" lon="6.49211">
        <ele>1498.83</ele>
        <time>2017-03-19T11:36:42Z</time>
      </trkpt>
      <trkpt lat="45.92196" lon="6.49196">
        <ele>1496.91</ele>
        <time>2017-03-19T11:36:48Z</time>
      </trkpt>
      <trkpt lat="45.92178" lon="6.49184">
        <ele>1493.06</ele>
        <time>2017-03-19T11:36:53Z</time>
      </trkpt>
      <trkpt lat="45.92164" lon="6.49169">
        <ele>1490.18</ele>
        <time>2017-03-19T11:36:58Z</time>
      </trkpt>
      <trkpt lat="45.92155" lon="6.49153">
        <ele>1487.78</ele>
        <time>2017-03-19T11:37:02Z</time>
      </trkpt>
      <trkpt lat="45.92157" lon="6.49137">
        <ele>1485.37</ele>
        <time>2017-03-19T11:37:05Z</time>
      </trkpt>
      <trkpt lat="45.92161" lon="6.49117">
        <ele>1481.05</ele>
        <time>2017-03-19T11:37:08Z</time>
      </trkpt>
      <trkpt lat="45.92163" lon="6.4911">
        <ele>1479.13</ele>
        <time>2017-03-19T11:37:09Z</time>
      </trkpt>
      <trkpt lat="45.92175" lon="6.4908">
        <ele>1474.32</ele>
        <time>2017-03-19T11:37:14Z</time>
      </trkpt>
      <trkpt lat="45.92177" lon="6.49072">
        <ele>1473.36</ele>
        <time>2017-03-19T11:37:15Z</time>
      </trkpt>
      <trkpt lat="45.92178" lon="6.49062">
        <ele>1471.92</ele>
        <time>2017-03-19T11:37:16Z</time>
      </trkpt>
      <trkpt lat="45.92177" lon="6.49052">
        <ele>1470.95</ele>
        <time>2017-03-19T11:37:17Z</time>
      </trkpt>
      <trkpt lat="45.92176" lon="6.49041">
        <ele>1469.03</ele>
        <time>2017-03-19T11:37:18Z</time>
      </trkpt>
      <trkpt lat="45.92173" lon="6.49006">
        <ele>1465.19</ele>
        <time>2017-03-19T11:37:21Z</time>
      </trkpt>
      <trkpt lat="45.9217" lon="6.48978">
        <ele>1460.86</ele>
        <time>2017-03-19T11:37:23Z</time>
      </trkpt>
      <trkpt lat="45.92166" lon="6.48933">
        <ele>1457.02</ele>
        <time>2017-03-19T11:37:26Z</time>
      </trkpt>
      <trkpt lat="45.92164" lon="6.4889">
        <ele>1453.17</ele>
        <time>2017-03-19T11:37:29Z</time>
      </trkpt>
      <trkpt lat="45.92165" lon="6.48876">
        <ele>1451.73</ele>
        <time>2017-03-19T11:37:30Z</time>
      </trkpt>
      <trkpt lat="45.92166" lon="6.48863">
        <ele>1451.25</ele>
        <time>2017-03-19T11:37:31Z</time>
      </trkpt>
      <trkpt lat="45.92167" lon="6.48853">
        <ele>1450.77</ele>
        <time>2017-03-19T11:37:32Z</time>
      </trkpt>
      <trkpt lat="45.9217" lon="6.48844">
        <ele>1451.25</ele>
        <time>2017-03-19T11:37:33Z</time>
      </trkpt>
      <trkpt lat="45.92173" lon="6.48837">
        <ele>1451.25</ele>
        <time>2017-03-19T11:37:34Z</time>
      </trkpt>
      <trkpt lat="45.92175" lon="6.48833">
        <ele>1451.73</ele>
        <time>2017-03-19T11:37:35Z</time>
      </trkpt>
      <trkpt lat="45.92178" lon="6.48829">
        <ele>1453.17</ele>
        <time>2017-03-19T11:37:39Z</time>
      </trkpt>
      <trkpt lat="45.92178" lon="6.48824">
        <ele>1454.13</ele>
        <time>2017-03-19T11:37:48Z</time>
      </trkpt>
      <trkpt lat="45.92179" lon="6.48816">
        <ele>1455.09</ele>
        <time>2017-03-19T11:37:59Z</time>
      </trkpt>
      <trkpt lat="45.92178" lon="6.48815">
        <ele>1455.09</ele>
        <time>2017-03-19T11:38:10Z</time>
      </trkpt>
      <trkpt lat="45.92176" lon="6.48816">
        <ele>1455.09</ele>
        <time>2017-03-19T11:38:19Z</time>
      </trkpt>
      <trkpt lat="45.92175" lon="6.48816">
        <ele>1455.57</ele>
        <time>2017-03-19T11:38:39Z</time>
      </trkpt>
      <trkpt lat="45.92175" lon="6.48817">
        <ele>1455.57</ele>
        <time>2017-03-19T11:38:52Z</time>
      </trkpt>
      <trkpt lat="45.92176" lon="6.48816">
        <ele>1455.09</ele>
        <time>2017-03-19T11:39:07Z</time>
      </trkpt>
      <trkpt lat="45.92177" lon="6.48808">
        <ele>1455.57</ele>
        <time>2017-03-19T11:39:22Z</time>
      </trkpt>
      <trkpt lat="45.92177" lon="6.48791">
        <ele>1456.53</ele>
        <time>2017-03-19T11:39:35Z</time>
      </trkpt>
      <trkpt lat="45.92173" lon="6.48773">
        <ele>1457.5</ele>
        <time>2017-03-19T11:39:49Z</time>
      </trkpt>
      <trkpt lat="45.9217" lon="6.48754">
        <ele>1458.94</ele>
        <time>2017-03-19T11:40:06Z</time>
      </trkpt>
      <trkpt lat="45.92169" lon="6.48751">
        <ele>1458.94</ele>
        <time>2017-03-19T11:40:09Z</time>
      </trkpt>
      <trkpt lat="45.92168" lon="6.48747">
        <ele>1458.94</ele>
        <time>2017-03-19T11:40:12Z</time>
      </trkpt>
      <trkpt lat="45.92163" lon="6.4873">
        <ele>1459.9</ele>
        <time>2017-03-19T11:40:27Z</time>
      </trkpt>
      <trkpt lat="45.92158" lon="6.48711">
        <ele>1461.34</ele>
        <time>2017-03-19T11:40:44Z</time>
      </trkpt>
      <trkpt lat="45.92149" lon="6.48697">
        <ele>1462.78</ele>
        <time>2017-03-19T11:40:59Z</time>
      </trkpt>
      <trkpt lat="45.92143" lon="6.48694">
        <ele>1462.78</ele>
        <time>2017-03-19T11:41:14Z</time>
      </trkpt>
      <trkpt lat="45.92142" lon="6.48693">
        <ele>1462.3</ele>
        <time>2017-03-19T11:41:27Z</time>
      </trkpt>
      <trkpt lat="45.92141" lon="6.4869">
        <ele>1462.3</ele>
        <time>2017-03-19T11:41:38Z</time>
      </trkpt>
      <trkpt lat="45.92132" lon="6.48668">
        <ele>1460.86</ele>
        <time>2017-03-19T11:41:48Z</time>
      </trkpt>
      <trkpt lat="45.92131" lon="6.48662">
        <ele>1460.38</ele>
        <time>2017-03-19T11:41:49Z</time>
      </trkpt>
      <trkpt lat="45.92131" lon="6.48655">
        <ele>1459.9</ele>
        <time>2017-03-19T11:41:50Z</time>
      </trkpt>
      <trkpt lat="45.92131" lon="6.48648">
        <ele>1458.94</ele>
        <time>2017-03-19T11:41:51Z</time>
      </trkpt>
      <trkpt lat="45.92131" lon="6.48643">
        <ele>1457.98</ele>
        <time>2017-03-19T11:41:52Z</time>
      </trkpt>
      <trkpt lat="45.92132" lon="6.48638">
        <ele>1458.94</ele>
        <time>2017-03-19T11:41:53Z</time>
      </trkpt>
      <trkpt lat="45.92139" lon="6.48619">
        <ele>1456.53</ele>
        <time>2017-03-19T11:42:00Z</time>
      </trkpt>
      <trkpt lat="45.92157" lon="6.48577">
        <ele>1455.57</ele>
        <time>2017-03-19T11:42:13Z</time>
      </trkpt>
      <trkpt lat="45.92175" lon="6.48534">
        <ele>1452.21</ele>
        <time>2017-03-19T11:42:21Z</time>
      </trkpt>
      <trkpt lat="45.92193" lon="6.48498">
        <ele>1448.36</ele>
        <time>2017-03-19T11:42:26Z</time>
      </trkpt>
      <trkpt lat="45.92197" lon="6.48491">
        <ele>1448.36</ele>
        <time>2017-03-19T11:42:27Z</time>
      </trkpt>
      <trkpt lat="45.92212" lon="6.48467">
        <ele>1445.96</ele>
        <time>2017-03-19T11:42:31Z</time>
      </trkpt>
      <trkpt lat="45.92237" lon="6.48438">
        <ele>1444.04</ele>
        <time>2017-03-19T11:42:39Z</time>
      </trkpt>
      <trkpt lat="45.92238" lon="6.48438">
        <ele>1444.04</ele>
        <time>2017-03-19T11:42:40Z</time>
      </trkpt>
      <trkpt lat="45.9224" lon="6.48437">
        <ele>1444.52</ele>
        <time>2017-03-19T11:42:41Z</time>
      </trkpt>
      <trkpt lat="45.92241" lon="6.48435">
        <ele>1444.04</ele>
        <time>2017-03-19T11:42:42Z</time>
      </trkpt>
      <trkpt lat="45.92242" lon="6.48434">
        <ele>1444.04</ele>
        <time>2017-03-19T11:42:43Z</time>
      </trkpt>
      <trkpt lat="45.92243" lon="6.4843">
        <ele>1444.52</ele>
        <time>2017-03-19T11:42:46Z</time>
      </trkpt>
      <trkpt lat="45.92243" lon="6.48429">
        <ele>1445</ele>
        <time>2017-03-19T11:42:47Z</time>
      </trkpt>
      <trkpt lat="45.92244" lon="6.48423">
        <ele>1444.52</ele>
        <time>2017-03-19T11:42:54Z</time>
      </trkpt>
      <trkpt lat="45.92243" lon="6.48419">
        <ele>1445</ele>
        <time>2017-03-19T11:42:56Z</time>
      </trkpt>
      <trkpt lat="45.92243" lon="6.48409">
        <ele>1444.04</ele>
        <time>2017-03-19T11:43:07Z</time>
      </trkpt>
      <trkpt lat="45.92243" lon="6.48408">
        <ele>1444.52</ele>
        <time>2017-03-19T11:43:23Z</time>
      </trkpt>
      <trkpt lat="45.92243" lon="6.48407">
        <ele>1444.52</ele>
        <time>2017-03-19T11:43:38Z</time>
      </trkpt>
      <trkpt lat="45.92242" lon="6.48402">
        <ele>1444.52</ele>
        <time>2017-03-19T11:43:43Z</time>
      </trkpt>
      <trkpt lat="45.92242" lon="6.48401">
        <ele>1444.04</ele>
        <time>2017-03-19T11:43:44Z</time>
      </trkpt>
      <trkpt lat="45.92243" lon="6.484">
        <ele>1444.04</ele>
        <time>2017-03-19T11:43:45Z</time>
      </trkpt>
      <trkpt lat="45.92262" lon="6.48388">
        <ele>1441.63</ele>
        <time>2017-03-19T11:44:03Z</time>
      </trkpt>
      <trkpt lat="45.92281" lon="6.4838">
        <ele>1440.67</ele>
        <time>2017-03-19T11:44:19Z</time>
      </trkpt>
      <trkpt lat="45.92283" lon="6.48379">
        <ele>1441.15</ele>
        <time>2017-03-19T11:44:21Z</time>
      </trkpt>
      <trkpt lat="45.92285" lon="6.48379">
        <ele>1441.15</ele>
        <time>2017-03-19T11:44:22Z</time>
      </trkpt>
      <trkpt lat="45.92287" lon="6.48378">
        <ele>1441.15</ele>
        <time>2017-03-19T11:44:24Z</time>
      </trkpt>
      <trkpt lat="45.92288" lon="6.48378">
        <ele>1441.15</ele>
        <time>2017-03-19T11:44:25Z</time>
      </trkpt>
      <trkpt lat="45.92289" lon="6.48377">
        <ele>1440.67</ele>
        <time>2017-03-19T11:44:26Z</time>
      </trkpt>
      <trkpt lat="45.92305" lon="6.48372">
        <ele>1440.67</ele>
        <time>2017-03-19T11:44:41Z</time>
      </trkpt>
      <trkpt lat="45.92319" lon="6.48365">
        <ele>1440.67</ele>
        <time>2017-03-19T11:44:55Z</time>
      </trkpt>
      <trkpt lat="45.9232" lon="6.48364">
        <ele>1441.15</ele>
        <time>2017-03-19T11:44:56Z</time>
      </trkpt>
      <trkpt lat="45.92321" lon="6.48362">
        <ele>1441.15</ele>
        <time>2017-03-19T11:44:57Z</time>
      </trkpt>
      <trkpt lat="45.92321" lon="6.4836">
        <ele>1440.19</ele>
        <time>2017-03-19T11:44:58Z</time>
      </trkpt>
      <trkpt lat="45.92325" lon="6.48355">
        <ele>1440.67</ele>
        <time>2017-03-19T11:45:10Z</time>
      </trkpt>
    </trkseg>
  </trk>
</gpx>